Provisional Data: Baldwin Creek near Lowman, NY


Please select a monitoring station.
Please select start date.
Please select start date.

Toggle Unit: C/F Toggle Unit: C/F
Sample Time Temperature (C) Temperature (F) Specific Conductivity (mS/cm) pH   Turbidity (NTU+) DO (mg/L)
12/4/2020 12:00:00 AM 3.51 38.318 0.162 7.63 99.1 13.17
12/4/2020 12:15:00 AM 3.52 38.336 0.162 7.62 95.06 13.16
12/4/2020 12:30:00 AM 3.53 38.354 0.162 7.62 44.45 13.15
12/4/2020 12:45:00 AM 3.54 38.372 0.162 7.62 166.12 13.14
12/4/2020 1:00:00 AM 3.55 38.39 0.162 7.62 11.5 13.14
12/4/2020 1:15:00 AM 3.55 38.39 0.162 7.62 52.77 13.13
12/4/2020 1:30:00 AM 3.56 38.408 0.162 7.62 191.23 13.13
12/4/2020 1:45:00 AM 3.58 38.444 0.162 7.62 44.2 13.12
12/4/2020 2:00:00 AM 3.58 38.444 0.162 7.62 168.06 13.11
12/4/2020 2:15:00 AM 3.59 38.462 0.162 7.62 343.23 13.11
12/4/2020 2:30:00 AM 3.6 38.48 0.162 7.62 65.54 13.1
12/4/2020 2:45:00 AM 3.6 38.48 0.162 7.62 6.04 13.1
12/4/2020 3:00:00 AM 3.61 38.498 0.162 7.62 71.38 13.09
12/4/2020 3:15:00 AM 3.61 38.498 0.163 7.62 4.92 13.09
12/4/2020 3:30:00 AM 3.61 38.498 0.163 7.62 19.61 13.09
12/4/2020 3:45:00 AM 3.62 38.516 0.163 7.63 149.12 13.08
12/4/2020 4:00:00 AM 3.62 38.516 0.163 7.62 30.66 13.08
12/4/2020 4:15:00 AM 3.63 38.534 0.163 7.62 109.04 13.08
12/4/2020 4:30:00 AM 3.64 38.552 0.163 7.63 14.39 13.07
12/4/2020 4:45:00 AM 3.65 38.57 0.163 7.62 176.3 13.07
12/4/2020 5:00:00 AM 3.66 38.588 0.164 7.62 104.65 13.06
12/4/2020 5:15:00 AM 3.67 38.606 0.164 7.62 117.74 13.06
12/4/2020 5:30:00 AM 3.67 38.606 0.164 7.62 60.42 13.06
12/4/2020 5:45:00 AM 3.67 38.606 0.164 7.62 9.63 13.06
12/4/2020 6:00:00 AM 3.68 38.624 0.164 7.63 83.08 13.06
12/4/2020 6:15:00 AM 3.68 38.624 0.164 7.63 43.85 13.06
12/4/2020 6:30:00 AM 3.68 38.624 0.164 7.63 69.54 13.06
12/4/2020 6:45:00 AM 3.69 38.642 0.164 7.63 51.48 13.06
12/4/2020 7:00:00 AM 3.69 38.642 0.165 7.63 52 13.05
12/4/2020 7:15:00 AM 3.7 38.66 0.165 7.63 126.28 13.05
12/4/2020 7:30:00 AM 3.7 38.66 0.165 7.63 59.89 13.05
12/4/2020 7:45:00 AM 3.71 38.678 0.165 7.63 19.66 13.07
12/4/2020 8:00:00 AM 3.72 38.696 0.165 7.64 6.14 13.1
12/4/2020 8:15:00 AM 3.73 38.714 0.165 7.65 6.1 13.14
12/4/2020 8:30:00 AM 3.74 38.732 0.165 7.66 33.75 13.19
12/4/2020 8:45:00 AM 3.76 38.768 0.165 7.67 105.13 13.25
12/4/2020 9:00:00 AM 3.78 38.804 0.165 7.69 129.65 13.36
12/4/2020 9:15:00 AM 3.81 38.858 0.165 7.72 7.58 13.49
12/4/2020 9:30:00 AM 3.86 38.948 0.165 7.75 7.4 13.62
12/4/2020 9:45:00 AM 3.9 39.02 0.165 7.79 5.09 13.74
12/4/2020 10:00:00 AM 3.96 39.128 0.165 7.83 73.61 13.86
12/4/2020 10:15:00 AM 4.02 39.236 0.165 7.87 24.2 13.96
12/4/2020 10:30:00 AM 4.08 39.344 0.166 7.92 86.6 14.04
12/4/2020 10:45:00 AM 4.14 39.452 0.166 7.95 142.26 14.08
12/4/2020 11:00:00 AM 4.2 39.56 0.166 7.99 12.61 14.13
12/4/2020 11:15:00 AM 4.26 39.668 0.166 8.03 40.64 14.16
12/4/2020 11:30:00 AM 4.31 39.758 0.166 8.06 5.11 14.16
12/4/2020 11:45:00 AM 4.35 39.83 0.166 8.08 71.25 14.17
12/4/2020 12:00:00 PM 4.4 39.92 0.166 8.1 55.1 14.16
12/4/2020 12:15:00 PM 4.45 40.01 0.166 8.12 10.34 14.17
12/4/2020 12:30:00 PM 4.51 40.118 0.166 8.15 138.1 14.19
12/4/2020 12:45:00 PM 4.56 40.208 0.166 8.17 40.02 14.01
12/4/2020 1:00:00 PM 4.61 40.298 0.166 8.19 76.5 14.2
12/4/2020 1:15:00 PM 4.67 40.406 0.166 8.22 4.94 14.19
12/4/2020 1:30:00 PM 4.75 40.55 0.166 8.24 9.48 14.2
12/4/2020 1:45:00 PM 4.82 40.676 0.166 8.26 9.46 14.19
12/4/2020 2:00:00 PM 4.84 40.712 0.166 8.27 96.94 14.16
12/4/2020 2:15:00 PM 4.85 40.73 0.166 8.27 8.13 14.08
12/4/2020 2:30:00 PM 4.86 40.748 0.166 8.23 150.61 13.99
12/4/2020 2:45:00 PM 4.87 40.766 0.167 8.19 14.22 13.86
12/4/2020 3:00:00 PM 4.88 40.784 0.167 8.14 221.39 13.74
12/4/2020 3:15:00 PM 4.88 40.784 0.167 8.09 19.91 13.66
12/4/2020 3:30:00 PM 4.88 40.784 0.167 8.07 35.33 13.62
12/4/2020 3:45:00 PM 4.89 40.802 0.167 8.05 77.42 13.6
12/4/2020 4:00:00 PM 4.89 40.802 0.167 8.03 94.79 13.56
12/4/2020 4:15:00 PM 4.88 40.784 0.167 8 241.7 13.48
12/4/2020 4:30:00 PM 4.87 40.766 0.167 7.97 12.43 13.36
12/4/2020 4:45:00 PM 4.86 40.748 0.167 7.93 11.66 13.23
12/4/2020 5:00:00 PM 4.85 40.73 0.167 7.89 12.28 13.1
12/4/2020 5:15:00 PM 4.84 40.712 0.167 7.85 4.94 13
12/4/2020 5:30:00 PM 4.83 40.694 0.167 7.82 11.87 12.92
12/4/2020 5:45:00 PM 4.83 40.694 0.167 7.79 5.54 12.86
12/4/2020 6:00:00 PM 4.81 40.658 0.168 7.77 6.82 12.81
12/4/2020 6:15:00 PM 4.8 40.64 0.168 7.75 19.87 12.78
12/4/2020 6:30:00 PM 4.78 40.604 0.168 7.75 14.72 12.76
12/4/2020 6:45:00 PM 4.76 40.568 0.168 7.73 12.41 12.74
12/4/2020 7:00:00 PM 4.73 40.514 0.168 7.72 23.09 12.73
12/4/2020 7:15:00 PM 4.71 40.478 0.168 7.72 7.29 12.73
12/4/2020 7:30:00 PM 4.68 40.424 0.168 7.71 14.27 12.72
12/4/2020 7:45:00 PM 4.67 40.406 0.168 7.71 49.31 12.71
12/4/2020 8:00:00 PM 4.66 40.388 0.168 7.7 10.02 12.71
12/4/2020 8:15:00 PM 4.65 40.37 0.168 7.7 7.95 12.7
12/4/2020 8:30:00 PM 4.65 40.37 0.168 7.69 7.53 12.71
12/4/2020 8:45:00 PM 4.66 40.388 0.168 7.69 5.68 12.7
12/4/2020 9:00:00 PM 4.66 40.388 0.168 7.68 7.38 12.69
12/4/2020 9:15:00 PM 4.66 40.388 0.168 7.68 10.75 12.69
12/4/2020 9:30:00 PM 4.66 40.388 0.168 7.68 12.23 12.68
12/4/2020 9:45:00 PM 4.66 40.388 0.168 7.67 13.3 12.68
12/4/2020 10:00:00 PM 4.66 40.388 0.168 7.67 11.1 12.67
12/4/2020 10:15:00 PM 4.66 40.388 0.169 7.67 8.03 12.68
12/4/2020 10:30:00 PM 4.66 40.388 0.169 7.67 9.42 12.67
12/4/2020 10:45:00 PM 4.65 40.37 0.169 7.66 11.8 12.67
12/4/2020 11:00:00 PM 4.65 40.37 0.169 7.66 10.52 12.67
12/4/2020 11:15:00 PM 4.65 40.37 0.169 7.66 9.12 12.67
12/4/2020 11:30:00 PM 4.64 40.352 0.169 7.66 7.59 12.66
12/4/2020 11:45:00 PM 4.63 40.334 0.169 7.65 9.12 12.66
12/5/2020 12:00:00 AM 4.62 40.316 0.169 7.65 7.83 12.66
12/5/2020 12:15:00 AM 4.61 40.298 0.169 7.65 10.3 12.65
12/5/2020 12:30:00 AM 4.61 40.298 0.169 7.65 49.64 12.65
12/5/2020 12:45:00 AM 4.61 40.298 0.17 7.65 8.67 12.65
12/5/2020 1:00:00 AM 4.6 40.28 0.17 7.64 13.33 12.65
12/5/2020 1:15:00 AM 4.6 40.28 0.17 7.64 9.11 12.65
12/5/2020 1:30:00 AM 4.6 40.28 0.17 7.64 13.38 12.65
12/5/2020 1:45:00 AM 4.6 40.28 0.17 7.64 14.55 12.64
12/5/2020 2:00:00 AM 4.6 40.28 0.17 7.64 13.27 12.64
12/5/2020 2:15:00 AM 4.61 40.298 0.17 7.64 7.29 12.64
12/5/2020 2:30:00 AM 4.61 40.298 0.17 7.64 13.19 12.63
12/5/2020 2:45:00 AM 4.61 40.298 0.17 7.64 8.38 12.63
12/5/2020 3:00:00 AM 4.61 40.298 0.17 7.64 13.41 12.62
12/5/2020 3:15:00 AM 4.61 40.298 0.17 7.63 10.16 12.62
12/5/2020 3:30:00 AM 4.61 40.298 0.171 7.63 8.46 12.61
12/5/2020 3:45:00 AM 4.61 40.298 0.171 7.63 10.73 12.61
12/5/2020 4:00:00 AM 4.62 40.316 0.171 7.63 5.08 12.61
12/5/2020 4:15:00 AM 4.62 40.316 0.171 7.64 12.03 12.61
12/5/2020 4:30:00 AM 4.63 40.334 0.171 7.64 11.66 12.61
12/5/2020 4:45:00 AM 4.63 40.334 0.171 7.64 11.76 12.6
12/5/2020 5:00:00 AM 4.64 40.352 0.171 7.64 11.05 12.6
12/5/2020 5:15:00 AM 4.65 40.37 0.171 7.64 28.74 12.6
12/5/2020 5:30:00 AM 4.65 40.37 0.171 7.65 63.12 12.6
12/5/2020 5:45:00 AM 4.64 40.352 0.171 7.65 12.22 12.6
12/5/2020 6:00:00 AM 4.64 40.352 0.171 7.65 5.49 12.6
12/5/2020 6:15:00 AM 4.63 40.334 0.171 7.65 12.4 12.6
12/5/2020 6:30:00 AM 4.62 40.316 0.171 7.65 8.38 12.61
12/5/2020 6:45:00 AM 4.62 40.316 0.171 7.65 9.38 12.61
12/5/2020 7:00:00 AM 4.61 40.298 0.171 7.65 9.34 12.62
12/5/2020 7:15:00 AM 4.61 40.298 0.171 7.65 12.9 12.61
12/5/2020 7:30:00 AM 4.61 40.298 0.171 7.65 8.51 12.63
12/5/2020 7:45:00 AM 4.6 40.28 0.171 7.66 5.19 12.65
12/5/2020 8:00:00 AM 4.61 40.298 0.171 7.67 6.52 12.7
12/5/2020 8:15:00 AM 4.61 40.298 0.171 7.68 11.03 12.75
12/5/2020 8:30:00 AM 4.61 40.298 0.171 7.69 9.9 12.81
12/5/2020 8:45:00 AM 4.61 40.298 0.171 7.7 8.93 12.84
12/5/2020 9:00:00 AM 4.62 40.316 0.172 7.71 10.48 12.9
12/5/2020 9:15:00 AM 4.62 40.316 0.171 7.73 9.88 12.99
12/5/2020 9:30:00 AM 4.63 40.334 0.171 7.75 11.6 13.08
12/5/2020 9:45:00 AM 4.63 40.334 0.171 7.77 12.03 13.19
12/5/2020 10:00:00 AM 4.65 40.37 0.171 7.8 11.12 13.29
12/5/2020 10:15:00 AM 4.66 40.388 0.171 7.84 10.02 13.43
12/5/2020 10:30:00 AM 4.67 40.406 0.171 7.88 11.36 13.56
12/5/2020 10:45:00 AM 4.68 40.424 0.171 7.92 8.46 13.66
12/5/2020 11:00:00 AM 4.7 40.46 0.171 7.97 9.19 13.76
12/5/2020 11:15:00 AM 4.72 40.496 0.171 8.01 8.33 13.84
12/5/2020 11:30:00 AM 4.74 40.532 0.171 8.06 10.31 13.92
12/5/2020 11:45:00 AM 4.76 40.568 0.171 8.11 7.7 13.96
12/5/2020 12:00:00 PM 4.8 40.64 0.171 8.15 10.94 14.02
12/5/2020 12:15:00 PM 4.83 40.694 0.171 8.19 11.42 14.06
12/5/2020 12:30:00 PM 4.87 40.766 0.171 8.24 11.22 14.11
12/5/2020 12:45:00 PM 4.89 40.802 0.171 8.27 5.27 14.09
12/5/2020 1:00:00 PM 4.9 40.82 0.171 8.29 9.89 14.09
12/5/2020 1:15:00 PM 4.9 40.82 0.171 8.29 11.84 14.02
12/5/2020 1:30:00 PM 4.9 40.82 0.171 8.29 11.85 14
12/5/2020 1:45:00 PM 4.9 40.82 0.172 8.29 5.56 13.97
12/5/2020 2:00:00 PM 4.88 40.784 0.172 8.28 7.35 13.95
12/5/2020 2:15:00 PM 4.86 40.748 0.172 8.27 9.94 13.9
12/5/2020 2:30:00 PM 4.83 40.694 0.172 8.24 12.31 13.83
12/5/2020 2:45:00 PM 4.81 40.658 0.172 8.19 12.32 13.73
12/5/2020 3:00:00 PM 4.79 40.622 0.172 8.16 12.69 13.65
12/5/2020 3:15:00 PM 4.77 40.586 0.172 8.12 13.74 13.54
12/5/2020 3:30:00 PM 4.73 40.514 0.172 8.06 27.38 13.45
12/5/2020 3:45:00 PM 4.71 40.478 0.172 8.03 56.57 13.36
12/5/2020 4:00:00 PM 4.69 40.442 0.172 7.98 10.51 13.27
12/5/2020 4:15:00 PM 4.67 40.406 0.172 7.94 60.64 13.17
12/5/2020 4:30:00 PM 4.65 40.37 0.172 7.91 9.57 13.09
12/5/2020 4:45:00 PM 4.62 40.316 0.172 7.88 9.16 13.04
12/5/2020 5:00:00 PM 4.6 40.28 0.172 7.86 9.3 12.97
12/5/2020 5:15:00 PM 4.57 40.226 0.173 7.83 9.62 12.91
12/5/2020 5:30:00 PM 4.54 40.172 0.173 7.81 11.54 12.87
12/5/2020 5:45:00 PM 4.52 40.136 0.173 7.79 8.73 12.84
12/5/2020 6:00:00 PM 4.5 40.1 0.173 7.78 12.52 12.81
12/5/2020 6:15:00 PM 4.49 40.082 0.173 7.76 13.51 12.8
12/5/2020 6:30:00 PM 4.46 40.028 0.173 7.75 7.88 12.78
12/5/2020 6:45:00 PM 4.39 39.902 0.173 7.75 9.07 12.78
12/5/2020 7:00:00 PM 4.33 39.794 0.173 7.74 9.87 12.78
12/5/2020 7:15:00 PM 4.27 39.686 0.173 7.74 9.11 12.78
12/5/2020 7:30:00 PM 4.23 39.614 0.172 7.73 8.18 12.78
12/5/2020 7:45:00 PM 4.17 39.506 0.172 7.73 14.21 12.78
12/5/2020 8:00:00 PM 4.15 39.47 0.172 7.72 8.8 12.79
12/5/2020 8:15:00 PM 4.13 39.434 0.172 7.72 9.38 12.8
12/5/2020 8:30:00 PM 4.14 39.452 0.173 7.72 13.41 12.81
12/5/2020 8:45:00 PM 4.13 39.434 0.173 7.71 9.89 12.81
12/5/2020 9:00:00 PM 4.12 39.416 0.173 7.71 12.24 12.82
12/5/2020 9:15:00 PM 4.11 39.398 0.173 7.71 9.95 12.82
12/5/2020 9:30:00 PM 4.11 39.398 0.173 7.7 83.77 12.83
12/5/2020 9:45:00 PM 4.1 39.38 0.173 7.7 7.91 12.82
12/5/2020 10:00:00 PM 4.09 39.362 0.173 7.7 60.84 12.83
12/5/2020 10:15:00 PM 4.08 39.344 0.173 7.7 7.28 12.83
12/5/2020 10:30:00 PM 4.07 39.326 0.173 7.7 9.06 12.83
12/5/2020 10:45:00 PM 4.06 39.308 0.173 7.7 18.05 12.83
12/5/2020 11:00:00 PM 4.04 39.272 0.173 7.69 11.12 12.83
12/5/2020 11:15:00 PM 4.02 39.236 0.173 7.69 12.91 12.84
12/5/2020 11:30:00 PM 4 39.2 0.173 7.69 5.02 12.85
12/5/2020 11:45:00 PM 3.98 39.164 0.173 7.69 13.96 12.85
12/6/2020 12:00:00 AM 3.96 39.128 0.173 7.69 72.91 12.86
12/6/2020 12:15:00 AM 3.93 39.074 0.174 7.69 27.15 12.87
12/6/2020 12:30:00 AM 3.91 39.038 0.174 7.69 11.26 12.87
12/6/2020 12:45:00 AM 3.88 38.984 0.174 7.69 21.66 12.88
12/6/2020 1:00:00 AM 3.85 38.93 0.174 7.69 102.85 12.89
12/6/2020 1:15:00 AM 3.82 38.876 0.174 7.69 11.51 12.9
12/6/2020 1:30:00 AM 3.78 38.804 0.174 7.69 36.66 12.91
12/6/2020 1:45:00 AM 3.74 38.732 0.174 7.68 266.65 12.92
12/6/2020 2:00:00 AM 3.71 38.678 0.174 7.69 170.28 12.93
12/6/2020 2:15:00 AM 3.68 38.624 0.174 7.69 119.07 12.95
12/6/2020 2:30:00 AM 3.64 38.552 0.174 7.68 28.12 12.95
12/6/2020 2:45:00 AM 3.61 38.498 0.174 7.68 105.33 12.97
12/6/2020 3:00:00 AM 3.58 38.444 0.174 7.68 206.92 12.98
12/6/2020 3:15:00 AM 3.56 38.408 0.174 7.68 20.83 12.99
12/6/2020 3:30:00 AM 3.53 38.354 0.174 7.68 88.01 13
12/6/2020 3:45:00 AM 3.52 38.336 0.174 7.68 54.73 13
12/6/2020 4:00:00 AM 3.49 38.282 0.174 7.68 8.55 13.02
12/6/2020 4:15:00 AM 3.47 38.246 0.174 7.68 54.81 13.02
12/6/2020 4:30:00 AM 3.44 38.192 0.174 7.68 140.06 13.03
12/6/2020 4:45:00 AM 3.41 38.138 0.174 7.68 6.05 13.04
12/6/2020 5:00:00 AM 3.38 38.084 0.174 7.68 5.44 13.05
12/6/2020 5:15:00 AM 3.36 38.048 0.174 7.68 6.96 13.06
12/6/2020 5:30:00 AM 3.32 37.976 0.174 7.68 38.1 13.07
12/6/2020 5:45:00 AM 3.29 37.922 0.175 7.68 25.9 13.08
12/6/2020 6:00:00 AM 3.27 37.886 0.175 7.68 21.07 13.09
12/6/2020 6:15:00 AM 3.24 37.832 0.175 7.68 125.63 13.1
12/6/2020 6:30:00 AM 3.23 37.814 0.175 7.68 6.74 13.11
12/6/2020 6:45:00 AM 3.2 37.76 0.175 7.68 265.35 13.12
12/6/2020 7:00:00 AM 3.17 37.706 0.175 7.68 22.09 13.13
12/6/2020 7:15:00 AM 3.15 37.67 0.175 7.68 41.12 13.14
12/6/2020 7:30:00 AM 3.12 37.616 0.175 7.68 25.05 13.16
12/6/2020 7:45:00 AM 3.09 37.562 0.175 7.69 36.91 13.2
12/6/2020 8:00:00 AM 3.07 37.526 0.175 7.7 30.45 13.28
12/6/2020 8:15:00 AM 3.04 37.472 0.175 7.71 9.02 13.4
12/6/2020 8:30:00 AM 3.02 37.436 0.175 7.74 16.9 13.58
12/6/2020 8:45:00 AM 3.02 37.436 0.175 7.78 7.34 13.77
12/6/2020 9:00:00 AM 3.02 37.436 0.175 7.82 26.47 13.95
12/6/2020 9:15:00 AM 3.04 37.472 0.175 7.88 41.56 14.13
12/6/2020 9:30:00 AM 3.06 37.508 0.174 7.93 15.6 14.3
12/6/2020 9:45:00 AM 3.09 37.562 0.174 7.99 11.34 14.44
12/6/2020 10:00:00 AM 3.11 37.598 0.174 8.06 12.95 14.56
12/6/2020 10:15:00 AM 3.14 37.652 0.174 8.12 33.11 14.66
12/6/2020 10:30:00 AM 3.17 37.706 0.174 8.18 12.74 14.72
12/6/2020 10:45:00 AM 3.21 37.778 0.174 8.24 13.9 14.76
12/6/2020 11:00:00 AM 3.24 37.832 0.174 8.28 14.29 14.79
12/6/2020 11:15:00 AM 3.27 37.886 0.174 8.33 28.81 14.81
12/6/2020 11:30:00 AM 3.29 37.922 0.174 8.36 18.69 14.8
12/6/2020 11:45:00 AM 3.31 37.958 0.174 8.39 13.27 14.8
12/6/2020 12:00:00 PM 3.32 37.976 0.174 8.41 20.62 14.79
12/6/2020 12:15:00 PM 3.36 38.048 0.174 8.43 14.32 14.8
12/6/2020 12:30:00 PM 3.4 38.12 0.174 8.45 8.7 14.81
12/6/2020 12:45:00 PM 3.44 38.192 0.174 8.48 21.36 14.82
12/6/2020 1:00:00 PM 3.47 38.246 0.174 8.51 10.23 14.84
12/6/2020 1:15:00 PM 3.5 38.3 0.174 8.53 79.83 14.84
12/6/2020 1:30:00 PM 3.52 38.336 0.174 8.56 145.32 14.85
12/6/2020 1:45:00 PM 3.52 38.336 0.174 8.57 21.2 14.82
12/6/2020 2:00:00 PM 3.54 38.372 0.174 8.58 83.43 14.82
12/6/2020 2:15:00 PM 3.55 38.39 0.174 8.58 30.72 14.79
12/6/2020 2:30:00 PM 3.55 38.39 0.174 8.59 21.99 14.78
12/6/2020 2:45:00 PM 3.56 38.408 0.174 8.6 47.07 14.79
12/6/2020 3:00:00 PM 3.56 38.408 0.174 8.6 67.57 14.77
12/6/2020 3:15:00 PM 3.54 38.372 0.174 8.6 6.01 14.77
12/6/2020 3:30:00 PM 3.49 38.282 0.174 8.59 260.83 14.72
12/6/2020 3:45:00 PM 3.44 38.192 0.174 8.56 121.77 14.66
12/6/2020 4:00:00 PM 3.39 38.102 0.174 8.51 70.37 14.55
12/6/2020 4:15:00 PM 3.35 38.03 0.175 8.43 46.43 14.43
12/6/2020 4:30:00 PM 3.32 37.976 0.175 8.34 26.83 14.27
12/6/2020 4:45:00 PM 3.28 37.904 0.175 8.24 79.01 14.09
12/6/2020 5:00:00 PM 3.25 37.85 0.175 8.14 10.15 13.92
12/6/2020 5:15:00 PM 3.21 37.778 0.175 8.06 13.04 13.76
12/6/2020 5:30:00 PM 3.17 37.706 0.175 8 63.62 13.64
12/6/2020 5:45:00 PM 3.13 37.634 0.175 7.94 55.85 13.55
12/6/2020 6:00:00 PM 3.11 37.598 0.176 7.9 15.52 13.49
12/6/2020 6:15:00 PM 3.09 37.562 0.176 7.87 51.31 13.44
12/6/2020 6:30:00 PM 3.07 37.526 0.176 7.85 13.66 13.41
12/6/2020 6:45:00 PM 3.04 37.472 0.176 7.82 135.64 13.39
12/6/2020 7:00:00 PM 3.03 37.454 0.176 7.81 282.62 13.37
12/6/2020 7:15:00 PM 3.01 37.418 0.176 7.79 48.26 13.35
12/6/2020 7:30:00 PM 2.99 37.382 0.176 7.78 44.1 13.35
12/6/2020 7:45:00 PM 2.96 37.328 0.176 7.77 60.88 13.35
12/6/2020 8:00:00 PM 2.94 37.292 0.176 7.77 7.49 13.34
12/6/2020 8:15:00 PM 2.92 37.256 0.176 7.76 31.44 13.34
12/6/2020 8:30:00 PM 2.9 37.22 0.176 7.75 61.26 13.34
12/6/2020 8:45:00 PM 2.88 37.184 0.176 7.74 56.73 13.33
12/6/2020 9:00:00 PM 2.87 37.166 0.176 7.74 38.75 13.33
12/6/2020 9:15:00 PM 2.85 37.13 0.176 7.73 15.63 13.33
12/6/2020 9:30:00 PM 2.83 37.094 0.176 7.73 13.66 13.34
12/6/2020 9:45:00 PM 2.82 37.076 0.176 7.73 280.08 13.35
12/6/2020 10:00:00 PM 2.8 37.04 0.176 7.72 16.91 13.35
12/6/2020 10:15:00 PM 2.78 37.004 0.176 7.72 26.34 13.35
12/6/2020 10:30:00 PM 2.75 36.95 0.176 7.72 11.73 13.36
12/6/2020 10:45:00 PM 2.73 36.914 0.176 7.71 22.02 13.36
12/6/2020 11:00:00 PM 2.71 36.878 0.176 7.71 90.06 13.35
12/6/2020 11:15:00 PM 2.7 36.86 0.176 7.71 23.05 13.36
12/6/2020 11:30:00 PM 2.69 36.842 0.176 7.71 40.46 13.36
12/6/2020 11:45:00 PM 2.67 36.806 0.176 7.7 17.71 13.37
12/7/2020 12:00:00 AM 2.65 36.77 0.176 7.71 12.1 13.37
12/7/2020 12:15:00 AM 2.63 36.734 0.176 7.7 5.66 13.37
12/7/2020 12:30:00 AM 2.62 36.716 0.176 7.7 12.55 13.38
12/7/2020 12:45:00 AM 2.6 36.68 0.176 7.7 49.17 13.38
12/7/2020 1:00:00 AM 2.59 36.662 0.176 7.7 53.81 13.38
12/7/2020 1:15:00 AM 2.57 36.626 0.176 7.7 38.86 13.39
12/7/2020 1:30:00 AM 2.56 36.608 0.176 7.69 25.22 13.39
12/7/2020 1:45:00 AM 2.54 36.572 0.176 7.69 29.38 13.39
12/7/2020 2:00:00 AM 2.52 36.536 0.176 7.69 40.46 13.4
12/7/2020 2:15:00 AM 2.5 36.5 0.176 7.69 161.93 13.4
12/7/2020 2:30:00 AM 2.49 36.482 0.176 7.69 29.33 13.4
12/7/2020 2:45:00 AM 2.47 36.446 0.176 7.69 44.85 13.41
12/7/2020 3:00:00 AM 2.46 36.428 0.176 7.69 241.15 13.42
12/7/2020 3:15:00 AM 2.46 36.428 0.176 7.69 7.41 13.42
12/7/2020 3:30:00 AM 2.44 36.392 0.176 7.69 5.7 13.42
12/7/2020 3:45:00 AM 2.42 36.356 0.176 7.69 8.89 13.43
12/7/2020 4:00:00 AM 2.4 36.32 0.176 7.68 238.8 13.43
12/7/2020 4:15:00 AM 2.38 36.284 0.176 7.68 109.91 13.44
12/7/2020 4:30:00 AM 2.37 36.266 0.176 7.68 694.84 13.44
12/7/2020 4:45:00 AM 2.36 36.248 0.176 7.68 48.49 13.45
12/7/2020 5:00:00 AM 2.34 36.212 0.176 7.68 574.51 13.45
12/7/2020 5:15:00 AM 2.33 36.194 0.176 7.68 96.12 13.46
12/7/2020 5:30:00 AM 2.32 36.176 0.176 7.68 8.46 13.46
12/7/2020 5:45:00 AM 2.31 36.158 0.176 7.68 14.7 13.46
12/7/2020 6:00:00 AM 2.3 36.14 0.176 7.68 13.06 13.46
12/7/2020 6:15:00 AM 2.3 36.14 0.176 7.68 159.21 13.46
12/7/2020 6:30:00 AM 2.29 36.122 0.176 7.68 261.34 13.47
12/7/2020 6:45:00 AM 2.28 36.104 0.176 7.68 54.27 13.47
12/7/2020 7:00:00 AM 2.27 36.086 0.176 7.68 86.56 13.48
12/7/2020 7:15:00 AM 2.25 36.05 0.176 7.68 230.73 13.48
12/7/2020 7:30:00 AM 2.24 36.032 0.176 7.68 242.9 13.49
12/7/2020 7:45:00 AM 2.23 36.014 0.176 7.68 198.09 13.51
12/7/2020 8:00:00 AM 2.22 35.996 0.176 7.69 31.45 13.58
12/7/2020 8:15:00 AM 2.2 35.96 0.176 7.7 40.28 13.68
12/7/2020 8:30:00 AM 2.2 35.96 0.176 7.73 12.05 13.85
12/7/2020 8:45:00 AM 2.2 35.96 0.176 7.77 164.46 14.07
12/7/2020 9:00:00 AM 2.21 35.978 0.176 7.81 58.27 14.29
12/7/2020 9:15:00 AM 2.24 36.032 0.175 7.87 49.75 14.51
12/7/2020 9:30:00 AM 2.28 36.104 0.175 7.94 107.37 14.69
12/7/2020 9:45:00 AM 2.31 36.158 0.175 8.01 5.76 14.83
12/7/2020 10:00:00 AM 2.35 36.23 0.175 8.07 76.48 14.95
12/7/2020 10:15:00 AM 2.39 36.302 0.175 8.15 6.86 15.05
12/7/2020 10:30:00 AM 2.46 36.428 0.175 8.21 773.65 15.11
12/7/2020 10:45:00 AM 2.52 36.536 0.174 8.28 95.85 15.17
12/7/2020 11:00:00 AM 2.59 36.662 0.174 8.34 7.65 15.19
12/7/2020 11:15:00 AM 2.62 36.716 0.174 8.39 562.21 15.19
12/7/2020 11:30:00 AM 2.63 36.734 0.174 8.43 11.52 15.15
12/7/2020 11:45:00 AM 2.63 36.734 0.174 8.45 296.66 15.14
12/7/2020 12:00:00 PM 2.64 36.752 0.174 8.47 10.02 15.1
12/7/2020 12:15:00 PM 2.68 36.824 0.175 8.48 230 15.08
12/7/2020 12:30:00 PM 2.74 36.932 0.174 8.5 40.49 15.09
12/7/2020 12:45:00 PM 2.83 37.094 0.174 8.53 95.54 15.12
12/7/2020 1:00:00 PM 2.88 37.184 0.174 8.56 9.96 15.13
12/7/2020 1:15:00 PM 2.89 37.202 0.174 8.6 10.97 15.15
12/7/2020 1:30:00 PM 2.9 37.22 0.174 8.62 23.39 15.14
12/7/2020 1:45:00 PM 2.88 37.184 0.174 8.64 50.81 15.14
12/7/2020 2:00:00 PM 2.86 37.148 0.174 8.64 225.12 15.08
12/7/2020 2:15:00 PM 2.84 37.112 0.174 8.64 9.04 15.04
12/7/2020 2:30:00 PM 2.81 37.058 0.174 8.62 8.61 14.95
12/7/2020 2:45:00 PM 2.8 37.04 0.174 8.59 41.93 14.92
12/7/2020 3:00:00 PM 2.78 37.004 0.175 8.56 46.97 14.88
12/7/2020 3:15:00 PM 2.76 36.968 0.175 8.54 81.31 14.88
12/7/2020 3:30:00 PM 2.73 36.914 0.174 8.53 144.79 14.87
12/7/2020 3:45:00 PM 2.7 36.86 0.174 8.51 17.53 14.87
12/7/2020 4:00:00 PM 2.66 36.788 0.175 8.49 29.84 14.81
12/7/2020 4:15:00 PM 2.63 36.734 0.175 8.44 10.31 14.71
12/7/2020 4:30:00 PM 2.59 36.662 0.175 8.37 89.15 14.57
12/7/2020 4:45:00 PM 2.56 36.608 0.175 8.28 22.55 14.4
12/7/2020 5:00:00 PM 2.52 36.536 0.175 8.19 79.13 14.23
12/7/2020 5:15:00 PM 2.48 36.464 0.175 8.11 43.19 14.07
12/7/2020 5:30:00 PM 2.45 36.41 0.175 8.04 56.81 13.93
12/7/2020 5:45:00 PM 2.41 36.338 0.175 7.98 112.37 13.82
12/7/2020 6:00:00 PM 2.38 36.284 0.175 7.93 154.08 13.75
12/7/2020 6:15:00 PM 2.35 36.23 0.176 7.89 24.8 13.69
12/7/2020 6:30:00 PM 2.32 36.176 0.176 7.86 39.71 13.65
12/7/2020 6:45:00 PM 2.29 36.122 0.176 7.84 37.14 13.61
12/7/2020 7:00:00 PM 2.25 36.05 0.176 7.82 50.8 13.6
12/7/2020 7:15:00 PM 2.22 35.996 0.176 7.8 45.08 13.59
12/7/2020 7:30:00 PM 2.19 35.942 0.176 7.79 36.81 13.58
12/7/2020 7:45:00 PM 2.16 35.888 0.176 7.78 9.6 13.58
12/7/2020 8:00:00 PM 2.13 35.834 0.176 7.77 77.82 13.58
12/7/2020 8:15:00 PM 2.11 35.798 0.176 7.76 41.09 13.58
12/7/2020 8:30:00 PM 2.09 35.762 0.176 7.75 65.81 13.58
12/7/2020 8:45:00 PM 2.08 35.744 0.176 7.75 139.54 13.58
12/7/2020 9:00:00 PM 2.08 35.744 0.176 7.74 69.54 13.58
12/7/2020 9:15:00 PM 2.08 35.744 0.176 7.74 66.07 13.58
12/7/2020 9:30:00 PM 2.08 35.744 0.176 7.73 57.35 13.57
12/7/2020 9:45:00 PM 2.08 35.744 0.176 7.73 37.52 13.57
12/7/2020 10:00:00 PM 2.08 35.744 0.176 7.72 17.21 13.58
12/7/2020 10:15:00 PM 2.08 35.744 0.176 7.72 36.71 13.57
12/7/2020 10:30:00 PM 2.09 35.762 0.176 7.72 54.11 13.57
12/7/2020 10:45:00 PM 2.09 35.762 0.176 7.72 21.62 13.57
12/7/2020 11:00:00 PM 2.08 35.744 0.176 7.71 9.91 13.56
12/7/2020 11:15:00 PM 2.08 35.744 0.176 7.71 25.27 13.56
12/7/2020 11:30:00 PM 2.07 35.726 0.176 7.71 15.06 13.56
12/7/2020 11:45:00 PM 2.06 35.708 0.177 7.71 29.78 13.56
12/8/2020 12:00:00 AM 2.05 35.69 0.177 7.7 10.83 13.57
12/8/2020 12:15:00 AM 2.04 35.672 0.177 7.7 19.16 13.56
12/8/2020 12:30:00 AM 2.03 35.654 0.178 7.7 11.02 13.56
12/8/2020 12:45:00 AM 2.01 35.618 0.178 7.7 18.87 13.57
12/8/2020 1:00:00 AM 1.99 35.582 0.178 7.7 8.83 13.57
12/8/2020 1:15:00 AM 1.97 35.546 0.178 7.7 8.81 13.57
12/8/2020 1:30:00 AM 1.95 35.51 0.178 7.69 129.92 13.58
12/8/2020 1:45:00 AM 1.93 35.474 0.178 7.7 11.05 13.58
12/8/2020 2:00:00 AM 1.9 35.42 0.178 7.7 4.85 13.59
12/8/2020 2:15:00 AM 1.86 35.348 0.178 7.69 15.86 13.6
12/8/2020 2:30:00 AM 1.84 35.312 0.177 7.69 105.32 13.61
12/8/2020 2:45:00 AM 1.81 35.258 0.177 7.69 10.17 13.62
12/8/2020 3:00:00 AM 1.79 35.222 0.177 7.69 67.23 13.63
12/8/2020 3:15:00 AM 1.77 35.186 0.177 7.69 11.39 13.63
12/8/2020 3:30:00 AM 1.76 35.168 0.177 7.69 13.25 13.64
12/8/2020 3:45:00 AM 1.74 35.132 0.177 7.69 14.69 13.65
12/8/2020 4:00:00 AM 1.73 35.114 0.177 7.69 42.21 13.66
12/8/2020 4:15:00 AM 1.72 35.096 0.177 7.69 11.81 13.66
12/8/2020 4:30:00 AM 1.7 35.06 0.177 7.69 14.94 13.67
12/8/2020 4:45:00 AM 1.68 35.024 0.177 7.68 12.14 13.67
12/8/2020 5:00:00 AM 1.66 34.988 0.177 7.69 12.44 13.68
12/8/2020 5:15:00 AM 1.64 34.952 0.177 7.68 14.46 13.69
12/8/2020 5:30:00 AM 1.62 34.916 0.177 7.69 14.57 13.69
12/8/2020 5:45:00 AM 1.6 34.88 0.177 7.68 16.65 13.7
12/8/2020 6:00:00 AM 1.58 34.844 0.177 7.68 27.59 13.7
12/8/2020 6:15:00 AM 1.56 34.808 0.177 7.68 8.43 13.71
12/8/2020 6:30:00 AM 1.54 34.772 0.177 7.68 17.5 13.72
12/8/2020 6:45:00 AM 1.52 34.736 0.177 7.68 43.6 13.73
12/8/2020 7:00:00 AM 1.51 34.718 0.177 7.68 18.02 13.74
12/8/2020 7:15:00 AM 1.5 34.7 0.177 7.68 32.7 13.74
12/8/2020 7:30:00 AM 1.48 34.664 0.177 7.68 21.37 13.75
12/8/2020 7:45:00 AM 1.47 34.646 0.177 7.69 10.79 13.79
12/8/2020 8:00:00 AM 1.46 34.628 0.177 7.7 8.63 13.85
12/8/2020 8:15:00 AM 1.45 34.61 0.177 7.72 201.19 13.96
12/8/2020 8:30:00 AM 1.44 34.592 0.177 7.74 8.26 14.12
12/8/2020 8:45:00 AM 1.42 34.556 0.177 7.77 20.2 14.32
12/8/2020 9:00:00 AM 1.41 34.538 0.177 7.82 26.6 14.53
12/8/2020 9:15:00 AM 1.43 34.574 0.177 7.87 28.79 14.74
12/8/2020 9:30:00 AM 1.45 34.61 0.177 7.93 22.19 14.91
12/8/2020 9:45:00 AM 1.5 34.7 0.177 7.99 62.37 15.08
12/8/2020 10:00:00 AM 1.56 34.808 0.176 8.06 19.69 15.23
12/8/2020 10:15:00 AM 1.61 34.898 0.176 8.13 12.4 15.35
12/8/2020 10:30:00 AM 1.7 35.06 0.176 8.2 15.03 15.43
12/8/2020 10:45:00 AM 1.84 35.312 0.176 8.28 129.68 15.49
12/8/2020 11:00:00 AM 1.99 35.582 0.176 8.35 115.49 15.51
12/8/2020 11:15:00 AM 2.13 35.834 0.176 8.41 91.67 15.51
12/8/2020 11:30:00 AM 2.24 36.032 0.176 8.46 185.53 15.49
12/8/2020 11:45:00 AM 2.31 36.158 0.176 8.49 12.41 15.45
12/8/2020 12:00:00 PM 2.34 36.212 0.176 8.51 52.69 15.41
12/8/2020 12:15:00 PM 2.36 36.248 0.176 8.53 19.05 15.36
12/8/2020 12:30:00 PM 2.4 36.32 0.176 8.53 127.41 15.32
12/8/2020 12:45:00 PM 2.43 36.374 0.176 8.54 158.87 15.28
12/8/2020 1:00:00 PM 2.45 36.41 0.176 8.54 153.24 15.24
12/8/2020 1:15:00 PM 2.45 36.41 0.176 8.53 135.26 15.2
12/8/2020 1:30:00 PM 2.44 36.392 0.176 8.51 193.8 15.16
12/8/2020 1:45:00 PM 2.43 36.374 0.176 8.5 263.33 15.13
12/8/2020 2:00:00 PM 2.42 36.356 0.176 8.49 150.1 15.1
12/8/2020 2:15:00 PM 2.4 36.32 0.176 8.48 117.09 15.08
12/8/2020 2:30:00 PM 2.38 36.284 0.176 8.47 70.71 15.05
12/8/2020 2:45:00 PM 2.34 36.212 0.176 8.45 105.72 15.03
12/8/2020 3:00:00 PM 2.28 36.104 0.176 8.43 26.74 14.99
12/8/2020 3:15:00 PM 2.23 36.014 0.176 8.41 240.53 14.95
12/8/2020 3:30:00 PM 2.16 35.888 0.176 8.37 88.2 14.88
12/8/2020 3:45:00 PM 2.11 35.798 0.177 8.33 103.18 14.81
12/8/2020 4:00:00 PM 2.06 35.708 0.177 8.28 146.56 14.74
12/8/2020 4:15:00 PM 2.01 35.618 0.177 8.23 200.91 14.66
12/8/2020 4:30:00 PM 1.96 35.528 0.177 8.18 138.14 14.57
12/8/2020 4:45:00 PM 1.9 35.42 0.177 8.13 18.5 14.47
12/8/2020 5:00:00 PM 1.85 35.33 0.177 8.07 64.24 14.36
12/8/2020 5:15:00 PM 1.81 35.258 0.177 8.02 108.73 14.24
12/8/2020 5:30:00 PM 1.77 35.186 0.177 7.97 163.74 14.13
12/8/2020 5:45:00 PM 1.74 35.132 0.177 7.93 28.31 14.04
12/8/2020 6:00:00 PM 1.71 35.078 0.177 7.89 64.77 13.97
12/8/2020 6:15:00 PM 1.68 35.024 0.177 7.86 148.58 13.93
12/8/2020 6:30:00 PM 1.64 34.952 0.177 7.84 132.35 13.89
12/8/2020 6:45:00 PM 1.61 34.898 0.177 7.82 37.43 13.87
12/8/2020 7:00:00 PM 1.57 34.826 0.177 7.8 53.7 13.85
12/8/2020 7:15:00 PM 1.54 34.772 0.177 7.79 30.01 13.85
12/8/2020 7:30:00 PM 1.51 34.718 0.177 7.78 225.15 13.85
12/8/2020 7:45:00 PM 1.47 34.646 0.178 7.76 108.93 13.84
12/8/2020 8:00:00 PM 1.44 34.592 0.177 7.76 130.53 13.84
12/8/2020 8:15:00 PM 1.42 34.556 0.178 7.75 89.04 13.84
12/8/2020 8:30:00 PM 1.4 34.52 0.177 7.74 38.3 13.84
12/8/2020 8:45:00 PM 1.39 34.502 0.178 7.74 62.37 13.84
12/8/2020 9:00:00 PM 1.4 34.52 0.178 7.73 60.8 13.83
12/8/2020 9:15:00 PM 1.4 34.52 0.178 7.73 34.58 13.84
12/8/2020 9:30:00 PM 1.4 34.52 0.178 7.73 233.28 13.83
12/8/2020 9:45:00 PM 1.4 34.52 0.177 7.72 9.67 13.83
12/8/2020 10:00:00 PM 1.4 34.52 0.178 7.72 79.19 13.83
12/8/2020 10:15:00 PM 1.42 34.556 0.178 7.72 254.8 13.82
12/8/2020 10:30:00 PM 1.43 34.574 0.178 7.71 28.91 13.82
12/8/2020 10:45:00 PM 1.45 34.61 0.177 7.71 155.22 13.81
12/8/2020 11:00:00 PM 1.47 34.646 0.178 7.71 114.44 13.81
12/8/2020 11:15:00 PM 1.46 34.628 0.177 7.71 69.64 13.8
12/8/2020 11:30:00 PM 1.45 34.61 0.178 7.71 68.82 13.8
12/8/2020 11:45:00 PM 1.44 34.592 0.178 7.7 22.89 13.8
12/9/2020 12:00:00 AM 1.44 34.592 0.178 7.7 253.8 13.81
12/9/2020 12:15:00 AM 1.44 34.592 0.178 7.7 48.34 13.81
12/9/2020 12:30:00 AM 1.45 34.61 0.178 7.7 161.68 13.8
12/9/2020 12:45:00 AM 1.46 34.628 0.178 7.7 31.44 13.8
12/9/2020 1:00:00 AM 1.47 34.646 0.178 7.69 30.48 13.8
12/9/2020 1:15:00 AM 1.48 34.664 0.178 7.69 101.57 13.8
12/9/2020 1:30:00 AM 1.49 34.682 0.178 7.7 89.36 13.79
12/9/2020 1:45:00 AM 1.5 34.7 0.178 7.69 101.88 13.79
12/9/2020 2:00:00 AM 1.51 34.718 0.178 7.69 27.07 13.79
12/9/2020 2:15:00 AM 1.52 34.736 0.178 7.69 72.04 13.78
12/9/2020 2:30:00 AM 1.53 34.754 0.178 7.69 84.34 13.78
12/9/2020 2:45:00 AM 1.54 34.772 0.178 7.69 82.77 13.76
12/9/2020 3:00:00 AM 1.55 34.79 0.178 7.69 53.01 13.76
12/9/2020 3:15:00 AM 1.56 34.808 0.178 7.69 15.79 13.76
12/9/2020 3:30:00 AM 1.57 34.826 0.178 7.69 72.51 13.75
12/9/2020 3:45:00 AM 1.58 34.844 0.178 7.69 69.24 13.76
12/9/2020 4:00:00 AM 1.58 34.844 0.178 7.69 63.72 13.74
12/9/2020 4:15:00 AM 1.59 34.862 0.178 7.69 37.09 13.75
12/9/2020 4:30:00 AM 1.59 34.862 0.178 7.69 25.35 13.75
12/9/2020 4:45:00 AM 1.59 34.862 0.178 7.68 123.29 13.74
12/9/2020 5:00:00 AM 1.59 34.862 0.178 7.68 7.73 13.74
12/9/2020 5:15:00 AM 1.59 34.862 0.178 7.68 59.8 13.74
12/9/2020 5:30:00 AM 1.58 34.844 0.179 7.68 163.02 13.74
12/9/2020 5:45:00 AM 1.58 34.844 0.178 7.68 13.65 13.74
12/9/2020 6:00:00 AM 1.58 34.844 0.179 7.68 57.32 13.74
12/9/2020 6:15:00 AM 1.58 34.844 0.179 7.68 20.23 13.73
12/9/2020 6:30:00 AM 1.58 34.844 0.179 7.68 25.24 13.74
12/9/2020 6:45:00 AM 1.58 34.844 0.179 7.68 122.11 13.73
12/9/2020 7:00:00 AM 1.59 34.862 0.179 7.68 412.96 13.74
12/9/2020 7:15:00 AM 1.59 34.862 0.179 7.68 50.36 13.73
12/9/2020 7:30:00 AM 1.59 34.862 0.179 7.68 93.26 13.74
12/9/2020 7:45:00 AM 1.59 34.862 0.179 7.68 81.3 13.74
12/9/2020 8:00:00 AM 1.57 34.826 0.179 7.69 25.4 13.76
12/9/2020 8:15:00 AM 1.53 34.754 0.179 7.69 15.51 13.8
12/9/2020 8:30:00 AM 1.5 34.7 0.178 7.7 15.1 13.88
12/9/2020 8:45:00 AM 1.46 34.628 0.178 7.72 51.36 13.97
12/9/2020 9:00:00 AM 1.43 34.574 0.178 7.74 96.5 14.08
12/9/2020 9:15:00 AM 1.41 34.538 0.178 7.76 26.86 14.2
12/9/2020 9:30:00 AM 1.37 34.466 0.178 7.79 22.01 14.36
12/9/2020 9:45:00 AM 1.32 34.376 0.178 7.82 53.22 14.5
12/9/2020 10:00:00 AM 1.29 34.322 0.177 7.87 211.83 14.67
12/9/2020 10:15:00 AM 1.27 34.286 0.177 7.91 168.83 14.83
12/9/2020 10:30:00 AM 1.27 34.286 0.177 7.96 40.59 14.98
12/9/2020 10:45:00 AM 1.29 34.322 0.176 8.01 92.53 15.09
12/9/2020 11:00:00 AM 1.31 34.358 0.176 8.06 11.94 15.18
12/9/2020 11:15:00 AM 1.37 34.466 0.176 8.11 56.04 15.28
12/9/2020 11:30:00 AM 1.41 34.538 0.176 8.17 57.46 15.35
12/9/2020 11:45:00 AM 1.48 34.664 0.176 8.22 28.33 15.41
12/9/2020 12:00:00 PM 1.55 34.79 0.176 8.28 98.01 15.45
12/9/2020 12:15:00 PM 1.63 34.934 0.176 8.33 123.85 15.48
12/9/2020 12:30:00 PM 1.7 35.06 0.176 8.39 58.52 15.48
12/9/2020 12:45:00 PM 1.76 35.168 0.176 8.43 11.74 15.46
12/9/2020 1:00:00 PM 1.82 35.276 0.176 8.46 203.72 15.44
12/9/2020 1:15:00 PM 1.88 35.384 0.176 8.49 69.57 15.41
12/9/2020 1:30:00 PM 1.92 35.456 0.176 8.51 26.87 15.36
12/9/2020 1:45:00 PM 1.96 35.528 0.176 8.51 71.62 15.32
12/9/2020 2:00:00 PM 2 35.6 0.176 8.51 17.48 15.26
12/9/2020 2:15:00 PM 2.02 35.636 0.176 8.49 13.57 15.18
12/9/2020 2:30:00 PM 2.05 35.69 0.176 8.46 176.06 15.1
12/9/2020 2:45:00 PM 2.06 35.708 0.177 8.42 79.01 14.99
12/9/2020 3:00:00 PM 2.08 35.744 0.177 8.36 43.96 14.89
12/9/2020 3:15:00 PM 2.09 35.762 0.177 8.31 58.09 14.78
12/9/2020 3:30:00 PM 2.1 35.78 0.177 8.25 50.19 14.67
12/9/2020 3:45:00 PM 2.1 35.78 0.177 8.19 46.06 14.56
12/9/2020 4:00:00 PM 2.1 35.78 0.177 8.14 214.14 14.45
12/9/2020 4:15:00 PM 2.1 35.78 0.177 8.09 9.17 14.35
12/9/2020 4:30:00 PM 2.1 35.78 0.178 8.04 97.93 14.24
12/9/2020 4:45:00 PM 2.1 35.78 0.178 7.99 13.1 14.14
12/9/2020 5:00:00 PM 2.1 35.78 0.178 7.95 79.53 14.04
12/9/2020 5:15:00 PM 2.11 35.798 0.178 7.92 41.75 13.95
12/9/2020 5:30:00 PM 2.11 35.798 0.178 7.89 55.84 13.88
12/9/2020 5:45:00 PM 2.11 35.798 0.178 7.86 35.32 13.81
12/9/2020 6:00:00 PM 2.11 35.798 0.178 7.84 63.84 13.77
12/9/2020 6:15:00 PM 2.12 35.816 0.178 7.82 6.26 13.73
12/9/2020 6:30:00 PM 2.12 35.816 0.178 7.8 13.87 13.69
12/9/2020 6:45:00 PM 2.13 35.834 0.178 7.79 37.86 13.67
12/9/2020 7:00:00 PM 2.13 35.834 0.178 7.78 33.37 13.65
12/9/2020 7:15:00 PM 2.14 35.852 0.178 7.77 29.44 13.64
12/9/2020 7:30:00 PM 2.15 35.87 0.178 7.76 7.61 13.63
12/9/2020 7:45:00 PM 2.16 35.888 0.178 7.75 75.76 13.61
12/9/2020 8:00:00 PM 2.17 35.906 0.178 7.75 48.07 13.6
12/9/2020 8:15:00 PM 2.17 35.906 0.178 7.74 61.32 13.59
12/9/2020 8:30:00 PM 2.18 35.924 0.178 7.74 70.18 13.59
12/9/2020 8:45:00 PM 2.19 35.942 0.178 7.74 11.59 13.58
12/9/2020 9:00:00 PM 2.2 35.96 0.178 7.73 57.56 13.57
12/9/2020 9:15:00 PM 2.21 35.978 0.178 7.73 52.02 13.57
12/9/2020 9:30:00 PM 2.22 35.996 0.178 7.72 5.84 13.56
12/9/2020 9:45:00 PM 2.23 36.014 0.178 7.72 50.03 13.55
12/9/2020 10:00:00 PM 2.24 36.032 0.178 7.72 33.27 13.55
12/9/2020 10:15:00 PM 2.25 36.05 0.178 7.71 17.01 13.54
12/9/2020 10:30:00 PM 2.26 36.068 0.178 7.71 13.71 13.53
12/9/2020 10:45:00 PM 2.27 36.086 0.178 7.71 29.68 13.53
12/9/2020 11:00:00 PM 2.28 36.104 0.178 7.71 22.53 13.53
12/9/2020 11:15:00 PM 2.29 36.122 0.178 7.71 68.06 13.52
12/9/2020 11:30:00 PM 2.3 36.14 0.178 7.71 64.33 13.51
12/9/2020 11:45:00 PM 2.31 36.158 0.178 7.7 200.04 13.51
12/10/2020 12:00:00 AM 2.31 36.158 0.178 7.7 84.36 13.5
12/10/2020 12:15:00 AM 2.32 36.176 0.178 7.7 53.18 13.5
12/10/2020 12:30:00 AM 2.33 36.194 0.178 7.7 49.14 13.5
12/10/2020 12:45:00 AM 2.33 36.194 0.178 7.7 65.31 13.49
12/10/2020 1:00:00 AM 2.34 36.212 0.178 7.7 75.42 13.49
12/10/2020 1:15:00 AM 2.35 36.23 0.178 7.7 54.29 13.48
12/10/2020 1:30:00 AM 2.36 36.248 0.178 7.7 180.71 13.48
12/10/2020 1:45:00 AM 2.36 36.248 0.178 7.7 8.47 13.48
12/10/2020 2:00:00 AM 2.37 36.266 0.178 7.7 84.96 13.48
12/10/2020 2:15:00 AM 2.37 36.266 0.178 7.69 40.32 13.48
12/10/2020 2:30:00 AM 2.38 36.284 0.178 7.7 44.87 13.47
12/10/2020 2:45:00 AM 2.39 36.302 0.178 7.69 71.59 13.47
12/10/2020 3:00:00 AM 2.39 36.302 0.178 7.69 46.76 13.47
12/10/2020 3:15:00 AM 2.4 36.32 0.178 7.69 55.34 13.47
12/10/2020 3:30:00 AM 2.4 36.32 0.178 7.69 157.54 13.47
12/10/2020 3:45:00 AM 2.41 36.338 0.179 7.69 60.13 13.47
12/10/2020 4:00:00 AM 2.42 36.356 0.179 7.69 18.73 13.47
12/10/2020 4:15:00 AM 2.43 36.374 0.179 7.69 34.06 13.47
12/10/2020 4:30:00 AM 2.44 36.392 0.179 7.69 71.56 13.47
12/10/2020 4:45:00 AM 2.45 36.41 0.179 7.69 79.71 13.46
12/10/2020 5:00:00 AM 2.46 36.428 0.179 7.69 12.41 13.47
12/10/2020 5:15:00 AM 2.46 36.428 0.179 7.69 27.08 13.46
12/10/2020 5:30:00 AM 2.47 36.446 0.178 7.69 27.79 13.46
12/10/2020 5:45:00 AM 2.48 36.464 0.179 7.69 82.83 13.46
12/10/2020 6:00:00 AM 2.49 36.482 0.179 7.69 34.06 13.46
12/10/2020 6:15:00 AM 2.5 36.5 0.179 7.69 32.77 13.46
12/10/2020 6:30:00 AM 2.5 36.5 0.179 7.69 42.05 13.46
12/10/2020 6:45:00 AM 2.51 36.518 0.179 7.69 25.07 13.46
12/10/2020 7:00:00 AM 2.52 36.536 0.179 7.69 77.35 13.45
12/10/2020 7:15:00 AM 2.52 36.536 0.179 7.69 64.81 13.45
12/10/2020 7:30:00 AM 2.52 36.536 0.179 7.69 39.38 13.47
12/10/2020 7:45:00 AM 2.52 36.536 0.179 7.69 49.81 13.5
12/10/2020 8:00:00 AM 2.53 36.554 0.179 7.7 63.42 13.57
12/10/2020 8:15:00 AM 2.54 36.572 0.179 7.72 95.18 13.69
12/10/2020 8:30:00 AM 2.56 36.608 0.179 7.75 16.9 13.88
12/10/2020 8:45:00 AM 2.6 36.68 0.178 7.79 101.78 14.09
12/10/2020 9:00:00 AM 2.64 36.752 0.178 7.84 20.67 14.32
12/10/2020 9:15:00 AM 2.7 36.86 0.178 7.91 56.01 14.56
12/10/2020 9:30:00 AM 2.75 36.95 0.178 7.98 79.44 14.73
12/10/2020 9:45:00 AM 2.82 37.076 0.178 8.06 83.73 14.92
12/10/2020 10:00:00 AM 2.88 37.184 0.177 8.15 181.2 15.07
12/10/2020 10:15:00 AM 2.97 37.346 0.177 8.25 16.04 15.19
12/10/2020 10:30:00 AM 3.06 37.508 0.177 8.35 12.99 15.27
12/10/2020 10:45:00 AM 3.15 37.67 0.177 8.45 86.88 15.32
12/10/2020 11:00:00 AM 3.25 37.85 0.177 8.54 301.56 15.35
12/10/2020 11:15:00 AM 3.33 37.994 0.177 8.62 91.27 15.35
12/10/2020 11:30:00 AM 3.41 38.138 0.177 8.68 31.92 15.35
12/10/2020 11:45:00 AM 3.48 38.264 0.177 8.74 239.9 15.32
12/10/2020 12:00:00 PM 3.56 38.408 0.176 8.79 6.91 15.32
12/10/2020 12:15:00 PM 3.61 38.498 0.177 8.83 33.32 15.29
12/10/2020 12:30:00 PM 3.66 38.588 0.176 8.86 51.06 15.25
12/10/2020 12:45:00 PM 3.72 38.696 0.176 8.89 91.43 15.24
12/10/2020 1:00:00 PM 3.78 38.804 0.176 8.91 60.76 15.22
12/10/2020 1:15:00 PM 3.84 38.912 0.176 8.93 29.55 15.2
12/10/2020 1:30:00 PM 3.9 39.02 0.176 8.95 19.76 15.2
12/10/2020 1:45:00 PM 3.96 39.128 0.176 8.98 13.73 15.19
12/10/2020 2:00:00 PM 4 39.2 0.177 9 193.12 15.18
12/10/2020 2:15:00 PM 4.03 39.254 0.177 9.02 78.35 15.16
12/10/2020 2:30:00 PM 4.05 39.29 0.177 9.03 42.22 15.14
12/10/2020 2:45:00 PM 4.06 39.308 0.177 9.04 86.98 15.12
12/10/2020 3:00:00 PM 4.06 39.308 0.177 9.05 11.99 15.1
12/10/2020 3:15:00 PM 4.05 39.29 0.177 9.05 16.68 15.05
12/10/2020 3:30:00 PM 4.03 39.254 0.177 9.05 24.89 15.01
12/10/2020 3:45:00 PM 4 39.2 0.177 9.03 103.4 14.96
12/10/2020 4:00:00 PM 3.93 39.074 0.177 8.99 84.21 14.72
12/10/2020 4:15:00 PM 3.85 38.93 0.177 8.93 26.38 14.62
12/10/2020 4:30:00 PM 3.77 38.786 0.178 8.83 202.77 14.49
12/10/2020 4:45:00 PM 3.68 38.624 0.178 8.7 80.23 14.36
12/10/2020 5:00:00 PM 3.6 38.48 0.178 8.55 91.01 14.18
12/10/2020 5:15:00 PM 3.51 38.318 0.179 8.4 116.01 13.99
12/10/2020 5:30:00 PM 3.42 38.156 0.179 8.27 35.31 13.84
12/10/2020 5:45:00 PM 3.34 38.012 0.179 8.17 14.76 13.71
12/10/2020 6:00:00 PM 3.27 37.886 0.179 8.09 13.76 13.63
12/10/2020 6:15:00 PM 3.2 37.76 0.179 8.02 46.91 13.57
12/10/2020 6:30:00 PM 3.14 37.652 0.179 7.97 13.69 13.52
12/10/2020 6:45:00 PM 3.09 37.562 0.179 7.93 9.96 13.49
12/10/2020 7:00:00 PM 3.04 37.472 0.179 7.9 8.04 13.46
12/10/2020 7:15:00 PM 3 37.4 0.179 7.87 13.18 13.44
12/10/2020 7:30:00 PM 2.96 37.328 0.179 7.85 9.97 13.44
12/10/2020 7:45:00 PM 2.92 37.256 0.179 7.83 12.61 13.43
12/10/2020 8:00:00 PM 2.89 37.202 0.179 7.81 11.13 13.42
12/10/2020 8:15:00 PM 2.86 37.148 0.179 7.8 12.88 13.41
12/10/2020 8:30:00 PM 2.83 37.094 0.179 7.79 12.5 13.42
12/10/2020 8:45:00 PM 2.8 37.04 0.179 7.78 12.52 13.41
12/10/2020 9:00:00 PM 2.76 36.968 0.179 7.77 13.15 13.42
12/10/2020 9:15:00 PM 2.73 36.914 0.179 7.76 28.84 13.42
12/10/2020 9:30:00 PM 2.69 36.842 0.179 7.75 13.49 13.43
12/10/2020 9:45:00 PM 2.65 36.77 0.179 7.75 8 13.43
12/10/2020 10:00:00 PM 2.61 36.698 0.179 7.74 13.2 13.43
12/10/2020 10:15:00 PM 2.57 36.626 0.179 7.74 10.29 13.43
12/10/2020 10:30:00 PM 2.53 36.554 0.179 7.73 35.05 13.45
12/10/2020 10:45:00 PM 2.49 36.482 0.179 7.73 5.71 13.46
12/10/2020 11:00:00 PM 2.44 36.392 0.179 7.73 12.18 13.48
12/10/2020 11:15:00 PM 2.4 36.32 0.179 7.72 18.36 13.48
12/10/2020 11:30:00 PM 2.35 36.23 0.179 7.72 8.02 13.5
12/10/2020 11:45:00 PM 2.31 36.158 0.179 7.71 19.66 13.51
12/11/2020 12:00:00 AM 2.28 36.104 0.179 7.71 12.33 13.52
12/11/2020 12:15:00 AM 2.24 36.032 0.179 7.71 15.81 13.53
12/11/2020 12:30:00 AM 2.21 35.978 0.179 7.71 11.66 13.53
12/11/2020 12:45:00 AM 2.18 35.924 0.179 7.7 45.62 13.55
12/11/2020 1:00:00 AM 2.15 35.87 0.179 7.7 37.62 13.56
12/11/2020 1:15:00 AM 2.11 35.798 0.179 7.7 68.75 13.57
12/11/2020 1:30:00 AM 2.09 35.762 0.179 7.7 8.21 13.58
12/11/2020 1:45:00 AM 2.06 35.708 0.179 7.7 55.31 13.59
12/11/2020 2:00:00 AM 2.03 35.654 0.179 7.7 29.57 13.6
12/11/2020 2:15:00 AM 2 35.6 0.179 7.7 9.04 13.61
12/11/2020 2:30:00 AM 1.97 35.546 0.179 7.7 12.81 13.63
12/11/2020 2:45:00 AM 1.93 35.474 0.179 7.69 15.61 13.64
12/11/2020 3:00:00 AM 1.89 35.402 0.179 7.69 37.05 13.65
12/11/2020 3:15:00 AM 1.85 35.33 0.179 7.69 28.95 13.66
12/11/2020 3:30:00 AM 1.82 35.276 0.179 7.69 22.32 13.67
12/11/2020 3:45:00 AM 1.78 35.204 0.18 7.69 76.35 13.69
12/11/2020 4:00:00 AM 1.75 35.15 0.18 7.69 28.02 13.7
12/11/2020 4:15:00 AM 1.71 35.078 0.18 7.69 65.14 13.72
12/11/2020 4:30:00 AM 1.68 35.024 0.18 7.69 18.13 13.73
12/11/2020 4:45:00 AM 1.65 34.97 0.18 7.69 20.85 13.73
12/11/2020 5:00:00 AM 1.62 34.916 0.18 7.68 37.47 13.75
12/11/2020 5:15:00 AM 1.59 34.862 0.18 7.68 41.82 13.75
12/11/2020 5:30:00 AM 1.56 34.808 0.18 7.68 30.98 13.77
12/11/2020 5:45:00 AM 1.53 34.754 0.18 7.69 38.33 13.78
12/11/2020 6:00:00 AM 1.5 34.7 0.18 7.69 8.93 13.8
12/11/2020 6:15:00 AM 1.47 34.646 0.18 7.68 9.28 13.82
12/11/2020 6:30:00 AM 1.44 34.592 0.18 7.68 56.71 13.83
12/11/2020 6:45:00 AM 1.41 34.538 0.18 7.68 48.78 13.83
12/11/2020 7:00:00 AM 1.38 34.484 0.18 7.68 43.36 13.85
12/11/2020 7:15:00 AM 1.36 34.448 0.18 7.68 27.57 13.86
12/11/2020 7:30:00 AM 1.33 34.394 0.18 7.68 173.13 13.89
12/11/2020 7:45:00 AM 1.31 34.358 0.18 7.69 45.62 13.94
12/11/2020 8:00:00 AM 1.3 34.34 0.18 7.7 26.26 14.06
12/11/2020 8:15:00 AM 1.31 34.358 0.181 7.73 58.71 14.23
12/11/2020 8:30:00 AM 1.34 34.412 0.18 7.76 51.87 14.46
12/11/2020 8:45:00 AM 1.39 34.502 0.18 7.81 33.65 14.7
12/11/2020 9:00:00 AM 1.45 34.61 0.18 7.87 79.59 14.94
12/11/2020 9:15:00 AM 1.51 34.718 0.18 7.94 60.7 15.15
12/11/2020 9:30:00 AM 1.6 34.88 0.18 8.01 104.37 15.33
12/11/2020 9:45:00 AM 1.71 35.078 0.18 8.09 70.38 15.47
12/11/2020 10:00:00 AM 1.84 35.312 0.179 8.18 15.44 15.59
12/11/2020 10:15:00 AM 1.97 35.546 0.179 8.28 34.82 15.67
12/11/2020 10:30:00 AM 2.12 35.816 0.179 8.36 61.98 15.71
12/11/2020 10:45:00 AM 2.23 36.014 0.179 8.45 59.56 15.72
12/11/2020 11:00:00 AM 2.34 36.212 0.179 8.52 31.82 15.71
12/11/2020 11:15:00 AM 2.47 36.446 0.179 8.59 5.92 15.7
12/11/2020 11:30:00 AM 2.61 36.698 0.179 8.65 24.09 15.67
12/11/2020 11:45:00 AM 2.76 36.968 0.179 8.7 68.41 15.63
12/11/2020 12:00:00 PM 2.9 37.22 0.179 8.74 10.18 15.61
12/11/2020 12:15:00 PM 3.01 37.418 0.179 8.78 59.65 15.58
12/11/2020 12:30:00 PM 3.1 37.58 0.179 8.81 46.23 15.54
12/11/2020 12:45:00 PM 3.18 37.724 0.179 8.84 18.33 15.51
12/11/2020 1:00:00 PM 3.24 37.832 0.179 8.87 27.48 15.46
12/11/2020 1:15:00 PM 3.31 37.958 0.179 8.88 62.66 15.41
12/11/2020 1:30:00 PM 3.37 38.066 0.179 8.89 52.7 15.37
12/11/2020 1:45:00 PM 3.42 38.156 0.179 8.9 112.75 15.33
12/11/2020 2:00:00 PM 3.47 38.246 0.179 8.91 79.46 15.3
12/11/2020 2:15:00 PM 3.52 38.336 0.179 8.91 389.93 15.26
12/11/2020 2:30:00 PM 3.56 38.408 0.179 8.91 252.14 15.23
12/11/2020 2:45:00 PM 3.58 38.444 0.179 8.91 13.7 15.23
12/11/2020 3:00:00 PM 3.6 38.48 0.179 8.93 7.27 15.23
12/11/2020 3:15:00 PM 3.61 38.498 0.179 8.94 42.12 15.21
12/11/2020 3:30:00 PM 3.6 38.48 0.179 8.95 84.34 15.17
12/11/2020 3:45:00 PM 3.57 38.426 0.179 8.94 14.47 15.1
12/11/2020 4:00:00 PM 3.53 38.354 0.179 8.91 17.27 14.99
12/11/2020 4:15:00 PM 3.5 38.3 0.179 8.84 23.1 14.83
12/11/2020 4:30:00 PM 3.46 38.228 0.18 8.72 10.84 14.62
12/11/2020 4:45:00 PM 3.42 38.156 0.18 8.58 221.35 14.4
12/11/2020 5:00:00 PM 3.39 38.102 0.18 8.43 109 14.18
12/11/2020 5:15:00 PM 3.36 38.048 0.18 8.29 53.89 13.99
12/11/2020 5:30:00 PM 3.32 37.976 0.18 8.18 9.89 13.82
12/11/2020 5:45:00 PM 3.28 37.904 0.18 8.1 4.57 13.71
12/11/2020 6:00:00 PM 3.24 37.832 0.181 8.03 4.9 13.62
12/11/2020 6:15:00 PM 3.2 37.76 0.181 7.97 15.64 13.56
12/11/2020 6:30:00 PM 3.15 37.67 0.181 7.93 13.01 13.5
12/11/2020 6:45:00 PM 3.11 37.598 0.181 7.89 11.05 13.47
12/11/2020 7:00:00 PM 3.08 37.544 0.181 7.87 13.69 13.44
12/11/2020 7:15:00 PM 3.04 37.472 0.181 7.84 15.14 13.43
12/11/2020 7:30:00 PM 3.01 37.418 0.181 7.82 14.97 13.42
12/11/2020 7:45:00 PM 2.99 37.382 0.18 7.8 12.55 13.4
12/11/2020 8:00:00 PM 2.99 37.382 0.18 7.79 7.27 13.39
12/11/2020 8:15:00 PM 2.98 37.364 0.18 7.78 12.59 13.38
12/11/2020 8:30:00 PM 2.97 37.346 0.18 7.77 13.06 13.38
12/11/2020 8:45:00 PM 2.96 37.328 0.18 7.76 7.04 13.37
12/11/2020 9:00:00 PM 2.95 37.31 0.18 7.75 84.66 13.37
12/11/2020 9:15:00 PM 2.95 37.31 0.18 7.74 10.89 13.36
12/11/2020 9:30:00 PM 2.94 37.292 0.18 7.74 32.48 13.35
12/11/2020 9:45:00 PM 2.94 37.292 0.18 7.73 26.09 13.35
12/11/2020 10:00:00 PM 2.94 37.292 0.18 7.73 36.37 13.33
12/11/2020 10:15:00 PM 2.93 37.274 0.18 7.72 13.93 13.33
12/11/2020 10:30:00 PM 2.92 37.256 0.18 7.72 11.07 13.33
12/11/2020 10:45:00 PM 2.9 37.22 0.18 7.71 16.43 13.33
12/11/2020 11:00:00 PM 2.88 37.184 0.18 7.71 59.86 13.32
12/11/2020 11:15:00 PM 2.87 37.166 0.18 7.71 29.53 13.33
12/11/2020 11:30:00 PM 2.86 37.148 0.18 7.7 69.47 13.33
12/11/2020 11:45:00 PM 2.85 37.13 0.18 7.7 6.04 13.33
12/12/2020 12:00:00 AM 2.83 37.094 0.18 7.7 12.19 13.33
12/12/2020 12:15:00 AM 2.81 37.058 0.18 7.69 20.9 13.33
12/12/2020 12:30:00 AM 2.79 37.022 0.18 7.69 130.94 13.35
12/12/2020 12:45:00 AM 2.77 36.986 0.18 7.69 8.76 13.35
12/12/2020 1:00:00 AM 2.75 36.95 0.18 7.69 4.84 13.35
12/12/2020 1:15:00 AM 2.72 36.896 0.18 7.69 16.88 13.36
12/12/2020 1:30:00 AM 2.7 36.86 0.18 7.69 162.52 13.37
12/12/2020 1:45:00 AM 2.68 36.824 0.18 7.69 13.7 13.37
12/12/2020 2:00:00 AM 2.65 36.77 0.18 7.68 29 13.39
12/12/2020 2:15:00 AM 2.63 36.734 0.18 7.68 48.72 13.39
12/12/2020 2:30:00 AM 2.61 36.698 0.18 7.68 5.12 13.4
12/12/2020 2:45:00 AM 2.58 36.644 0.18 7.68 4.99 13.41
12/12/2020 3:00:00 AM 2.55 36.59 0.18 7.68 13.71 13.41
12/12/2020 3:15:00 AM 2.52 36.536 0.18 7.67 16.03 13.43
12/12/2020 3:30:00 AM 2.48 36.464 0.18 7.67 8.72 13.44
12/12/2020 3:45:00 AM 2.44 36.392 0.18 7.67 5.38 13.45
12/12/2020 4:00:00 AM 2.41 36.338 0.18 7.67 8.6 13.46
12/12/2020 4:15:00 AM 2.39 36.302 0.18 7.67 14.12 13.47
12/12/2020 4:30:00 AM 2.37 36.266 0.18 7.67 8.72 13.48
12/12/2020 4:45:00 AM 2.34 36.212 0.18 7.67 83.64 13.49
12/12/2020 5:00:00 AM 2.31 36.158 0.18 7.67 14.31 13.5
12/12/2020 5:15:00 AM 2.28 36.104 0.18 7.67 7.09 13.51
12/12/2020 5:30:00 AM 2.25 36.05 0.18 7.67 74.54 13.52
12/12/2020 5:45:00 AM 2.23 36.014 0.18 7.67 10.47 13.53
12/12/2020 6:00:00 AM 2.22 35.996 0.18 7.67 10.45 13.53
12/12/2020 6:15:00 AM 2.21 35.978 0.18 7.67 7.18 13.54
12/12/2020 6:30:00 AM 2.2 35.96 0.18 7.67 8.3 13.54
12/12/2020 6:45:00 AM 2.2 35.96 0.18 7.66 7.17 13.55
12/12/2020 7:00:00 AM 2.2 35.96 0.18 7.66 43.02 13.55
12/12/2020 7:15:00 AM 2.2 35.96 0.179 7.66 5.94 13.56
12/12/2020 7:30:00 AM 2.2 35.96 0.179 7.66 11.1 13.56
12/12/2020 7:45:00 AM 2.21 35.978 0.179 7.66 22.57 13.56
12/12/2020 8:00:00 AM 2.22 35.996 0.179 7.67 7.41 13.6
12/12/2020 8:15:00 AM 2.25 36.05 0.179 7.68 10.92 13.68
12/12/2020 8:30:00 AM 2.28 36.104 0.179 7.69 7.83 13.77
12/12/2020 8:45:00 AM 2.3 36.14 0.179 7.71 10 13.86
12/12/2020 9:00:00 AM 2.34 36.212 0.179 7.74 14.25 14.05
12/12/2020 9:15:00 AM 2.38 36.284 0.179 7.78 156.62 14.21
12/12/2020 9:30:00 AM 2.42 36.356 0.178 7.83 30.18 14.42
12/12/2020 9:45:00 AM 2.46 36.428 0.178 7.88 44.61 14.62
12/12/2020 10:00:00 AM 2.5 36.5 0.178 7.94 19.07 14.76
12/12/2020 10:15:00 AM 2.56 36.608 0.178 8 12.95 14.9
12/12/2020 10:30:00 AM 2.61 36.698 0.177 8.07 40.37 15
12/12/2020 10:45:00 AM 2.66 36.788 0.177 8.13 13 15.06
12/12/2020 11:00:00 AM 2.73 36.914 0.177 8.2 11.48 15.17
12/12/2020 11:15:00 AM 2.82 37.076 0.177 8.28 11.91 15.25
12/12/2020 11:30:00 AM 2.92 37.256 0.176 8.36 35.5 15.3
12/12/2020 11:45:00 AM 3.01 37.418 0.176 8.44 13.9 15.36
12/12/2020 12:00:00 PM 3.1 37.58 0.176 8.53 9.48 15.4
12/12/2020 12:15:00 PM 3.18 37.724 0.176 8.61 11.3 15.4
12/12/2020 12:30:00 PM 3.25 37.85 0.176 8.68 81.77 15.38
12/12/2020 12:45:00 PM 3.33 37.994 0.176 8.74 12.36 15.38
12/12/2020 1:00:00 PM 3.42 38.156 0.176 8.79 11.29 15.35
12/12/2020 1:15:00 PM 3.52 38.336 0.176 8.82 14.39 15.32
12/12/2020 1:30:00 PM 3.63 38.534 0.176 8.87 10.1 15.3
12/12/2020 1:45:00 PM 3.76 38.768 0.176 8.9 11.82 15.29
12/12/2020 2:00:00 PM 3.85 38.93 0.176 8.93 7.38 15.26
12/12/2020 2:15:00 PM 3.92 39.056 0.175 8.96 14.04 15.24
12/12/2020 2:30:00 PM 3.97 39.146 0.175 8.99 28.13 15.2
12/12/2020 2:45:00 PM 4.01 39.218 0.175 9.01 7.84 15.15
12/12/2020 3:00:00 PM 4.03 39.254 0.175 9.01 10.63 15.1
12/12/2020 3:15:00 PM 4.04 39.272 0.175 9.01 39.54 15.04
12/12/2020 3:30:00 PM 4.09 39.362 0.175 9 48.2 14.97
12/12/2020 3:45:00 PM 4.13 39.434 0.175 8.98 102.9 14.9
12/12/2020 4:00:00 PM 4.16 39.488 0.175 8.96 11.62 14.84
12/12/2020 4:15:00 PM 4.19 39.542 0.175 8.92 9.2 14.72
12/12/2020 4:30:00 PM 4.19 39.542 0.175 8.85 11.99 14.54
12/12/2020 4:45:00 PM 4.19 39.542 0.176 8.74 9.86 14.35
12/12/2020 5:00:00 PM 4.17 39.506 0.176 8.61 10.11 14.1
12/12/2020 5:15:00 PM 4.16 39.488 0.176 8.45 16.48 13.81
12/12/2020 5:30:00 PM 4.16 39.488 0.176 8.3 9.81 13.62
12/12/2020 5:45:00 PM 4.15 39.47 0.176 8.19 17.6 13.47
12/12/2020 6:00:00 PM 4.16 39.488 0.176 8.1 14.18 13.31
12/12/2020 6:15:00 PM 4.17 39.506 0.176 8.03 58.97 13.22
12/12/2020 6:30:00 PM 4.17 39.506 0.176 7.98 60.46 13.15
12/12/2020 6:45:00 PM 4.17 39.506 0.176 7.94 24.03 13.07
12/12/2020 7:00:00 PM 4.17 39.506 0.176 7.9 15.8 13.04
12/12/2020 7:15:00 PM 4.17 39.506 0.176 7.88 22.28 13
12/12/2020 7:30:00 PM 4.18 39.524 0.176 7.85 33.65 12.96
12/12/2020 7:45:00 PM 4.19 39.542 0.176 7.83 10.04 12.94
12/12/2020 8:00:00 PM 4.2 39.56 0.176 7.82 7.52 12.9
12/12/2020 8:15:00 PM 4.21 39.578 0.176 7.8 34.51 12.9
12/12/2020 8:30:00 PM 4.21 39.578 0.176 7.79 315.08 12.88
12/12/2020 8:45:00 PM 4.22 39.596 0.176 7.78 9.59 12.86
12/12/2020 9:00:00 PM 4.23 39.614 0.176 7.77 44.31 12.86
12/12/2020 9:15:00 PM 4.24 39.632 0.176 7.77 18.32 12.85
12/12/2020 9:30:00 PM 4.25 39.65 0.175 7.76 20.92 12.83
12/12/2020 9:45:00 PM 4.25 39.65 0.175 7.75 9.14 12.81
12/12/2020 10:00:00 PM 4.26 39.668 0.175 7.74 32.54 12.8
12/12/2020 10:15:00 PM 4.25 39.65 0.175 7.74 6.26 12.8
12/12/2020 10:30:00 PM 4.23 39.614 0.175 7.74 35.93 12.78
12/12/2020 10:45:00 PM 4.2 39.56 0.175 7.73 44.08 12.77
12/12/2020 11:00:00 PM 4.18 39.524 0.175 7.73 34.57 12.74
12/12/2020 11:15:00 PM 4.17 39.506 0.175 7.72 75.17 12.76
12/12/2020 11:30:00 PM 4.16 39.488 0.175 7.72 18.42 12.75
12/12/2020 11:45:00 PM 4.15 39.47 0.175 7.71 19.43 12.75
12/13/2020 12:00:00 AM 4.14 39.452 0.175 7.71 26.21 12.73
12/13/2020 12:15:00 AM 4.12 39.416 0.175 7.71 35.89 12.75
12/13/2020 12:30:00 AM 4.1 39.38 0.175 7.71 24.81 12.75
12/13/2020 12:45:00 AM 4.08 39.344 0.175 7.7 45.57 12.76
12/13/2020 1:00:00 AM 4.06 39.308 0.175 7.7 6.56 12.76
12/13/2020 1:15:00 AM 4.05 39.29 0.175 7.7 33.62 12.75
12/13/2020 1:30:00 AM 4.03 39.254 0.175 7.7 9.53 12.75
12/13/2020 1:45:00 AM 4.02 39.236 0.175 7.69 26.31 12.76
12/13/2020 2:00:00 AM 4.03 39.254 0.175 7.69 31.02 12.74
12/13/2020 2:15:00 AM 4.06 39.308 0.175 7.69 20.07 12.74
12/13/2020 2:30:00 AM 4.11 39.398 0.176 7.69 39.21 12.73
12/13/2020 2:45:00 AM 4.15 39.47 0.176 7.69 80.32 12.72
12/13/2020 3:00:00 AM 4.19 39.542 0.175 7.69 32.12 12.7
12/13/2020 3:15:00 AM 4.23 39.614 0.175 7.69 81.49 12.71
12/13/2020 3:30:00 AM 4.28 39.704 0.175 7.69 53.16 12.71
12/13/2020 3:45:00 AM 4.32 39.776 0.175 7.69 37.07 12.69
12/13/2020 4:00:00 AM 4.35 39.83 0.175 7.69 50.62 12.68
12/13/2020 4:15:00 AM 4.34 39.812 0.175 7.69 148.52 12.66
12/13/2020 4:30:00 AM 4.31 39.758 0.175 7.69 75.37 12.66
12/13/2020 4:45:00 AM 4.28 39.704 0.175 7.68 67.32 12.66
12/13/2020 5:00:00 AM 4.27 39.686 0.175 7.68 34.79 12.66
12/13/2020 5:15:00 AM 4.25 39.65 0.175 7.68 77.68 12.65
12/13/2020 5:30:00 AM 4.25 39.65 0.175 7.68 13.67 12.65
12/13/2020 5:45:00 AM 4.24 39.632 0.175 7.68 125.67 12.65
12/13/2020 6:00:00 AM 4.22 39.596 0.175 7.68 19.15 12.66
12/13/2020 6:15:00 AM 4.21 39.578 0.175 7.68 9.31 12.67
12/13/2020 6:30:00 AM 4.19 39.542 0.175 7.68 34.93 12.68
12/13/2020 6:45:00 AM 4.17 39.506 0.175 7.68 98.47 12.68
12/13/2020 7:00:00 AM 4.16 39.488 0.175 7.68 45.31 12.69
12/13/2020 7:15:00 AM 4.15 39.47 0.175 7.68 21.78 12.66
12/13/2020 7:30:00 AM 4.16 39.488 0.175 7.7 13.79 12.69
12/13/2020 7:45:00 AM 4.17 39.506 0.175 7.7 13.44 12.72
12/13/2020 8:00:00 AM 4.2 39.56 0.175 7.7 12.42 12.74
12/13/2020 8:15:00 AM 4.22 39.596 0.175 7.7 13.27 12.78
12/13/2020 8:30:00 AM 4.24 39.632 0.175 7.71 12.77 12.83
12/13/2020 8:45:00 AM 4.26 39.668 0.175 7.72 13.55 12.89
12/13/2020 9:00:00 AM 4.28 39.704 0.175 7.73 13.12 12.95
12/13/2020 9:15:00 AM 4.32 39.776 0.175 7.75 12.65 13.08
12/13/2020 9:30:00 AM 4.37 39.866 0.175 7.78 12 13.28
12/13/2020 9:45:00 AM 4.41 39.938 0.175 7.82 10.86 13.49
12/13/2020 10:00:00 AM 4.48 40.064 0.174 7.86 12.14 13.71
12/13/2020 10:15:00 AM 4.6 40.28 0.174 7.99 11.87 14.01
12/13/2020 10:30:00 AM 4.65 40.37 0.174 8.08 32.17 14.17
12/13/2020 10:45:00 AM 4.71 40.478 0.174 8.18 14.46 14.31
12/13/2020 11:00:00 AM 4.76 40.568 0.173 8.29 11.77 14.43
12/13/2020 11:15:00 AM 4.79 40.622 0.173 8.39 43.78 14.47
12/13/2020 11:30:00 AM 4.79 40.622 0.173 8.43 8.82 14.32
12/13/2020 11:45:00 AM 4.81 40.658 0.173 8.43 19.94 14.26
12/13/2020 12:00:00 PM 4.88 40.784 0.173 8.45 27.53 14.27
12/13/2020 12:15:00 PM 5 41 0.173 8.48 104.49 14.25
12/13/2020 12:30:00 PM 5.09 41.162 0.173 8.53 221.15 14.31
12/13/2020 12:45:00 PM 5.17 41.306 0.173 8.62 274.09 14.47
12/13/2020 1:00:00 PM 5.24 41.432 0.173 8.75 79.56 14.6
12/13/2020 1:15:00 PM 5.32 41.576 0.173 8.84 239.17 14.65
12/13/2020 1:30:00 PM 5.29 41.522 0.173 8.91 115.12 14.64
12/13/2020 1:45:00 PM 5.28 41.504 0.172 8.96 89.17 14.64
12/13/2020 2:00:00 PM 5.26 41.468 0.172 9.01 15.2 14.61
12/13/2020 2:15:00 PM 5.25 41.45 0.172 9.03 18.53 14.61
12/13/2020 2:30:00 PM 5.24 41.432 0.172 9.05 72.25 9.8
12/13/2020 2:45:00 PM 5.24 41.432 0.172 9.04 133.38 6.71
12/13/2020 3:00:00 PM 5.24 41.432 0.172 9.05 59.04 11.75
12/13/2020 3:15:00 PM 5.22 41.396 0.173 9.03 88.11 9.75
12/13/2020 3:30:00 PM 5.19 41.342 0.173 9.01 9.47 14.03
12/13/2020 3:45:00 PM 5.16 41.288 0.173 8.98 19.58 14.24
12/13/2020 4:00:00 PM 5.14 41.252 0.173 8.93 213.97 14.21
12/13/2020 4:15:00 PM 5.11 41.198 0.173 8.88 7.6 14.13
12/13/2020 4:30:00 PM 5.07 41.126 0.173 8.8 145.79 14.02
12/13/2020 4:45:00 PM 5.03 41.054 0.173 8.69 49.06 13.88
12/13/2020 5:00:00 PM 4.98 40.964 0.174 8.55 26.12 13.68
12/13/2020 5:15:00 PM 4.94 40.892 0.174 8.41 56.98 13.48
12/13/2020 5:30:00 PM 4.9 40.82 0.174 8.28 58.85 13.29
12/13/2020 5:45:00 PM 4.86 40.748 0.174 8.18 53.24 13.14
12/13/2020 6:00:00 PM 4.84 40.712 0.174 8.09 21.32 13.03
12/13/2020 6:15:00 PM 4.81 40.658 0.174 8.03 148.87 12.94
12/13/2020 6:30:00 PM 4.79 40.622 0.174 7.98 50.53 12.87
12/13/2020 6:45:00 PM 4.77 40.586 0.174 7.94 121.21 12.82
12/13/2020 7:00:00 PM 4.75 40.55 0.175 7.91 4.53 12.78
12/13/2020 7:15:00 PM 4.73 40.514 0.175 7.88 51.69 12.75
12/13/2020 7:30:00 PM 4.72 40.496 0.175 7.85 100.02 12.73
12/13/2020 7:45:00 PM 4.71 40.478 0.175 7.83 97.14 12.71
12/13/2020 8:00:00 PM 4.69 40.442 0.175 7.83 73.11 12.68
12/13/2020 8:15:00 PM 4.68 40.424 0.175 7.82 5.27 12.68
12/13/2020 8:30:00 PM 4.67 40.406 0.175 7.81 57.12 12.67
12/13/2020 8:45:00 PM 4.66 40.388 0.174 7.79 71.08 12.67
12/13/2020 9:00:00 PM 4.66 40.388 0.174 7.79 45.09 12.66
12/13/2020 9:15:00 PM 4.65 40.37 0.174 7.78 37.59 12.65
12/13/2020 9:30:00 PM 4.64 40.352 0.174 7.78 26.99 12.65
12/13/2020 9:45:00 PM 4.63 40.334 0.174 7.77 56.11 12.65
12/13/2020 10:00:00 PM 4.62 40.316 0.174 7.76 51 12.64
12/13/2020 10:15:00 PM 4.62 40.316 0.174 7.76 42.61 12.64
12/13/2020 10:30:00 PM 4.61 40.298 0.174 7.75 26.76 12.64
12/13/2020 10:45:00 PM 4.6 40.28 0.174 7.75 47.05 12.64
12/13/2020 11:00:00 PM 4.59 40.262 0.174 7.75 48.71 12.64
12/13/2020 11:15:00 PM 4.58 40.244 0.174 7.74 24.94 12.64
12/13/2020 11:30:00 PM 4.56 40.208 0.174 7.74 34.3 12.63
12/13/2020 11:45:00 PM 4.55 40.19 0.174 7.74 51.57 12.63
12/14/2020 12:00:00 AM 4.54 40.172 0.174 7.73 47.54 12.64
12/14/2020 12:15:00 AM 4.52 40.136 0.174 7.73 61.33 12.64
12/14/2020 12:30:00 AM 4.51 40.118 0.174 7.73 60.93 12.64
12/14/2020 12:45:00 AM 4.49 40.082 0.174 7.73 15.01 12.64
12/14/2020 1:00:00 AM 4.47 40.046 0.174 7.73 30.62 12.64
12/14/2020 1:15:00 AM 4.45 40.01 0.174 7.73 12.54 12.64
12/14/2020 1:30:00 AM 4.44 39.992 0.174 7.72 10.26 12.65
12/14/2020 1:45:00 AM 4.42 39.956 0.174 7.72 23.3 12.65
12/14/2020 2:00:00 AM 4.4 39.92 0.174 7.72 43.44 12.64
12/14/2020 2:15:00 AM 4.38 39.884 0.174 7.72 14.32 12.64
12/14/2020 2:30:00 AM 4.37 39.866 0.175 7.72 33.2 12.65
12/14/2020 2:45:00 AM 4.35 39.83 0.175 7.71 6.75 12.65
12/14/2020 3:00:00 AM 4.34 39.812 0.175 7.71 6.78 12.65
12/14/2020 3:15:00 AM 4.32 39.776 0.175 7.71 37.77 12.66
12/14/2020 3:30:00 AM 4.31 39.758 0.175 7.71 23.11 12.66
12/14/2020 3:45:00 AM 4.29 39.722 0.175 7.71 25.51 12.66
12/14/2020 4:00:00 AM 4.28 39.704 0.175 7.71 19.93 12.67
12/14/2020 4:15:00 AM 4.27 39.686 0.175 7.71 26.64 12.67
12/14/2020 4:30:00 AM 4.25 39.65 0.175 7.71 31.22 12.68
12/14/2020 4:45:00 AM 4.24 39.632 0.175 7.7 51.43 12.68
12/14/2020 5:00:00 AM 4.23 39.614 0.175 7.7 23.61 12.68
12/14/2020 5:15:00 AM 4.21 39.578 0.175 7.7 45.61 12.69
12/14/2020 5:30:00 AM 4.2 39.56 0.175 7.7 37.68 12.68
12/14/2020 5:45:00 AM 4.19 39.542 0.175 7.7 35.34 12.69
12/14/2020 6:00:00 AM 4.16 39.488 0.175 7.7 36.57 12.69
12/14/2020 6:15:00 AM 4.13 39.434 0.175 7.7 39.78 12.7
12/14/2020 6:30:00 AM 4.1 39.38 0.175 7.7 63.1 12.71
12/14/2020 6:45:00 AM 4.07 39.326 0.175 7.7 40.27 12.71
12/14/2020 7:00:00 AM 4.03 39.254 0.175 7.7 62.19 12.72
12/14/2020 7:15:00 AM 3.97 39.146 0.175 7.7 34.28 12.73
12/14/2020 7:30:00 AM 3.92 39.056 0.175 7.7 59.74 12.74
12/14/2020 7:45:00 AM 3.89 39.002 0.175 7.7 23.08 12.76
12/14/2020 8:00:00 AM 3.85 38.93 0.175 7.7 9.99 12.78
12/14/2020 8:15:00 AM 3.81 38.858 0.175 7.71 4.28 12.8
12/14/2020 8:30:00 AM 3.78 38.804 0.175 7.72 2086.3 12.93
12/14/2020 8:45:00 AM 3.75 38.75 0.175 7.73 1673.81 13.03
12/14/2020 9:00:00 AM 3.72 38.696 0.175 7.76 1494.12 13.17
12/14/2020 9:15:00 AM 3.7 38.66 0.175 7.79 52.67 13.36
12/14/2020 9:30:00 AM 3.69 38.642 0.174 7.84 5.08 13.53
12/14/2020 9:45:00 AM 3.7 38.66 0.174 7.89 97.4 13.75
12/14/2020 10:00:00 AM 3.73 38.714 0.174 7.95 1039.97 13.97
12/14/2020 10:15:00 AM 3.77 38.786 0.174 8.04 107.93 14.19
12/14/2020 10:30:00 AM 3.82 38.876 0.174 8.14 2161.39 14.39
12/14/2020 10:45:00 AM 3.88 38.984 0.173 8.24 4.99 14.56
12/14/2020 11:00:00 AM 3.95 39.11 0.173 8.37 3.44 14.71
12/14/2020 11:15:00 AM 4.01 39.218 0.173 8.51 300.53 14.82
12/14/2020 11:30:00 AM 4.07 39.326 0.173 8.62 125.45 14.88
12/14/2020 11:45:00 AM 4.12 39.416 0.173 8.72 1625.63 14.91
12/14/2020 12:00:00 PM 4.16 39.488 0.173 8.81 941.51 14.93
12/14/2020 12:15:00 PM 4.2 39.56 0.173 8.87 2.98 14.9
12/14/2020 12:30:00 PM 4.22 39.596 0.173 8.91 277.2 14.86
12/14/2020 12:45:00 PM 4.25 39.65 0.173 8.93 38.03 14.82
12/14/2020 1:00:00 PM 4.26 39.668 0.173 8.94 310.31 14.77
12/14/2020 1:15:00 PM 4.27 39.686 0.173 8.94 716.45 14.71
12/14/2020 1:30:00 PM 4.28 39.704 0.173 8.93 3.29 14.66
12/14/2020 1:45:00 PM 4.28 39.704 0.173 8.92 63.76 14.64
12/14/2020 2:00:00 PM 4.29 39.722 0.173 8.91 3.83 14.59
12/14/2020 2:15:00 PM 4.32 39.776 0.173 8.91 7.33 14.63
12/14/2020 2:30:00 PM 4.35 39.83 0.174 8.92 3.23 14.64
12/14/2020 2:45:00 PM 4.37 39.866 0.174 8.93 971.33 14.67
12/14/2020 3:00:00 PM 4.37 39.866 0.173 8.96 399.22 14.7
12/14/2020 3:15:00 PM 4.37 39.866 0.173 8.98 1132.78 14.67
12/14/2020 3:30:00 PM 4.36 39.848 0.174 8.98 1288.38 14.63
12/14/2020 3:45:00 PM 4.34 39.812 0.174 8.96 431.09 14.52
12/14/2020 4:00:00 PM 4.32 39.776 0.174 8.87 1100.52 14.34
12/14/2020 4:15:00 PM 4.3 39.74 0.174 8.78 124.25 14.23
12/14/2020 4:30:00 PM 4.27 39.686 0.174 8.67 694.71 14.04
12/14/2020 4:45:00 PM 4.24 39.632 0.175 8.53 293.73 13.85
12/14/2020 5:00:00 PM 4.2 39.56 0.175 8.4 859.11 13.67
12/14/2020 5:15:00 PM 4.15 39.47 0.175 8.28 388.28 13.54
12/14/2020 5:30:00 PM 4.09 39.362 0.175 8.18 96.55 13.38
12/14/2020 5:45:00 PM 4.04 39.272 0.176 8.11 1662.61 13.27
12/14/2020 6:00:00 PM 3.98 39.164 0.176 8.04 845.43 13.19
12/14/2020 6:15:00 PM 3.93 39.074 0.176 7.99 1115.34 13.12
12/14/2020 6:30:00 PM 3.88 38.984 0.176 7.95 185.59 13.08
12/14/2020 6:45:00 PM 3.83 38.894 0.176 7.92 1650.06 13.05
12/14/2020 7:00:00 PM 3.78 38.804 0.176 7.89 348.63 13.03
12/14/2020 7:15:00 PM 3.72 38.696 0.176 7.87 847.49 13.02
12/14/2020 7:30:00 PM 3.67 38.606 0.176 7.85 180.68 13.03
12/14/2020 7:45:00 PM 3.62 38.516 0.176 7.84 168.4 13.03
12/14/2020 8:00:00 PM 3.56 38.408 0.176 7.83 35.39 13.05
12/14/2020 8:15:00 PM 3.48 38.264 0.176 7.81 575.37 13.05
12/14/2020 8:30:00 PM 3.41 38.138 0.176 7.81 114.63 13.07
12/14/2020 8:45:00 PM 3.35 38.03 0.176 7.8 154.54 13.09
12/14/2020 9:00:00 PM 3.27 37.886 0.176 7.79 1154.39 13.1
12/14/2020 9:15:00 PM 3.21 37.778 0.176 7.78 238.82 13.12
12/14/2020 9:30:00 PM 3.14 37.652 0.176 7.78 226.62 13.14
12/14/2020 9:45:00 PM 3.07 37.526 0.176 7.78 102.73 13.16
12/14/2020 10:00:00 PM 3.01 37.418 0.176 7.77 568.81 13.18
12/14/2020 10:15:00 PM 2.93 37.274 0.176 7.77 1137.65 13.2
12/14/2020 10:30:00 PM 2.87 37.166 0.176 7.76 1407.37 13.22
12/14/2020 10:45:00 PM 2.83 37.094 0.176 7.76 681.17 13.24
12/14/2020 11:00:00 PM 2.8 37.04 0.176 7.76 1316.54 13.26
12/14/2020 11:15:00 PM 2.77 36.986 0.176 7.76 692.25 13.27
12/14/2020 11:30:00 PM 2.73 36.914 0.176 7.75 5.39 13.29
12/14/2020 11:45:00 PM 2.68 36.824 0.176 7.75 3.81 13.3
12/15/2020 12:00:00 AM 2.64 36.752 0.176 7.75 9.53 13.32
12/15/2020 12:15:00 AM 2.6 36.68 0.176 7.75 46.72 13.33
12/15/2020 12:30:00 AM 2.54 36.572 0.176 7.75 48.59 13.35
12/15/2020 12:45:00 AM 2.51 36.518 0.176 7.74 306.42 13.36
12/15/2020 1:00:00 AM 2.47 36.446 0.177 7.74 5.68 13.37
12/15/2020 1:15:00 AM 2.44 36.392 0.177 7.74 6.45 13.39
12/15/2020 1:30:00 AM 2.4 36.32 0.177 7.74 6.74 13.41
12/15/2020 1:45:00 AM 2.36 36.248 0.177 7.74 3.8 13.42
12/15/2020 2:00:00 AM 2.32 36.176 0.177 7.74 5.55 13.44
12/15/2020 2:15:00 AM 2.27 36.086 0.177 7.74 3.45 13.45
12/15/2020 2:30:00 AM 2.23 36.014 0.177 7.73 7.55 13.47
12/15/2020 2:45:00 AM 2.21 35.978 0.177 7.73 36.77 13.49
12/15/2020 3:00:00 AM 2.17 35.906 0.177 7.73 392.41 13.5
12/15/2020 3:15:00 AM 2.14 35.852 0.177 7.73 55.35 13.52
12/15/2020 3:30:00 AM 2.11 35.798 0.177 7.73 432.73 13.53
12/15/2020 3:45:00 AM 2.08 35.744 0.177 7.73 627.52 13.55
12/15/2020 4:00:00 AM 2.04 35.672 0.177 7.73 133.48 13.57
12/15/2020 4:15:00 AM 1.99 35.582 0.177 7.73 226.02 13.59
12/15/2020 4:30:00 AM 1.94 35.492 0.177 7.73 575.87 13.61
12/15/2020 4:45:00 AM 1.89 35.402 0.177 7.73 5.36 13.63
12/15/2020 5:00:00 AM 1.85 35.33 0.177 7.73 888.61 13.64
12/15/2020 5:15:00 AM 1.81 35.258 0.177 7.73 303.47 13.66
12/15/2020 5:30:00 AM 1.77 35.186 0.177 7.73 776.6 13.68
12/15/2020 5:45:00 AM 1.72 35.096 0.177 7.73 468.91 13.7
12/15/2020 6:00:00 AM 1.68 35.024 0.177 7.73 1023.72 13.71
12/15/2020 6:15:00 AM 1.64 34.952 0.177 7.73 3.71 13.73
12/15/2020 6:30:00 AM 1.6 34.88 0.177 7.73 929.21 13.75
12/15/2020 6:45:00 AM 1.55 34.79 0.178 7.72 311.97 13.77
12/15/2020 7:00:00 AM 1.52 34.736 0.178 7.73 646.97 13.8
12/15/2020 7:15:00 AM 1.5 34.7 0.178 7.72 670.29 13.81
12/15/2020 7:30:00 AM 1.48 34.664 0.178 7.72 330.9 13.84
12/15/2020 7:45:00 AM 1.46 34.628 0.178 7.73 31.33 13.88
12/15/2020 8:00:00 AM 1.46 34.628 0.178 7.74 481.54 13.97
12/15/2020 8:15:00 AM 1.46 34.628 0.178 7.76 313.85 14.09
12/15/2020 8:30:00 AM 1.49 34.682 0.178 7.78 478.32 14.25
12/15/2020 8:45:00 AM 1.52 34.736 0.178 7.82 542.47 14.47
12/15/2020 9:00:00 AM 1.56 34.808 0.177 7.87 1154.24 14.7
12/15/2020 9:15:00 AM 1.61 34.898 0.177 7.93 1360.93 14.93
12/15/2020 9:30:00 AM 1.63 34.934 0.177 8.01 202.01 15.15
12/15/2020 9:45:00 AM 1.68 35.024 0.177 8.1 438.73 15.35
12/15/2020 10:00:00 AM 1.74 35.132 0.177 8.2 186.89 15.53
12/15/2020 10:15:00 AM 1.8 35.24 0.176 8.31 340.8 15.64
12/15/2020 10:30:00 AM 1.85 35.33 0.176 8.42 744.58 15.73
12/15/2020 10:45:00 AM 1.93 35.474 0.176 8.52 738.18 15.78
12/15/2020 11:00:00 AM 2.01 35.618 0.176 8.61 1356.39 15.82
12/15/2020 11:15:00 AM 2.09 35.762 0.176 8.69 408.47 15.84
12/15/2020 11:30:00 AM 2.15 35.87 0.176 8.75 56.28 15.84
12/15/2020 11:45:00 AM 2.17 35.906 0.176 8.8 1013.01 15.84
12/15/2020 12:00:00 PM 2.21 35.978 0.176 8.85 748.05 15.85
12/15/2020 12:15:00 PM 2.27 36.086 0.175 8.89 991.67 15.83
12/15/2020 12:30:00 PM 2.31 36.158 0.175 8.92 1417.21 15.82
12/15/2020 12:45:00 PM 2.3 36.14 0.175 8.95 53.74 15.79
12/15/2020 1:00:00 PM 2.29 36.122 0.175 8.96 1034.06 15.75
12/15/2020 1:15:00 PM 2.3 36.14 0.175 8.98 442.25 15.74
12/15/2020 1:30:00 PM 2.32 36.176 0.176 8.98 812.56 15.7
12/15/2020 1:45:00 PM 2.29 36.122 0.176 8.98 366.06 15.65
12/15/2020 2:00:00 PM 2.29 36.122 0.176 8.98 666.61 15.68
12/15/2020 2:15:00 PM 2.31 36.158 0.176 8.99 782.93 15.67
12/15/2020 2:30:00 PM 2.3 36.14 0.176 8.99 698.28 15.66
12/15/2020 2:45:00 PM 2.28 36.104 0.176 8.98 460.53 15.64
12/15/2020 3:00:00 PM 2.26 36.068 0.176 8.99 184.16 15.66
12/15/2020 3:15:00 PM 2.23 36.014 0.176 8.99 1062.84 15.62
12/15/2020 3:30:00 PM 2.18 35.924 0.176 8.98 730.34 15.62
12/15/2020 3:45:00 PM 2.14 35.852 0.176 8.96 708.35 15.57
12/15/2020 4:00:00 PM 2.1 35.78 0.176 8.93 284.42 15.5
12/15/2020 4:15:00 PM 2.07 35.726 0.176 8.88 887.43 15.41
12/15/2020 4:30:00 PM 2.03 35.654 0.176 8.79 725.47 15.25
12/15/2020 4:45:00 PM 1.99 35.582 0.177 8.67 331.93 15.07
12/15/2020 5:00:00 PM 1.94 35.492 0.177 8.53 441.17 14.9
12/15/2020 5:15:00 PM 1.89 35.402 0.177 8.4 1018.41 14.72
12/15/2020 5:30:00 PM 1.84 35.312 0.177 8.29 994.23 14.56
12/15/2020 5:45:00 PM 1.79 35.222 0.177 8.2 945.6 14.44
12/15/2020 6:00:00 PM 1.73 35.114 0.177 8.12 1170.02 14.34
12/15/2020 6:15:00 PM 1.68 35.024 0.176 8.06 32.16 14.27
12/15/2020 6:30:00 PM 1.63 34.934 0.177 8.01 947.83 14.22
12/15/2020 6:45:00 PM 1.58 34.844 0.176 7.97 1025.81 14.17
12/15/2020 7:00:00 PM 1.52 34.736 0.176 7.94 800.77 14.15
12/15/2020 7:15:00 PM 1.48 34.664 0.176 7.91 476 14.13
12/15/2020 7:30:00 PM 1.43 34.574 0.176 7.89 321.27 14.13
12/15/2020 7:45:00 PM 1.38 34.484 0.176 7.87 306.76 14.13
12/15/2020 8:00:00 PM 1.33 34.394 0.176 7.86 213.98 14.12
12/15/2020 8:15:00 PM 1.29 34.322 0.176 7.84 673.62 14.13
12/15/2020 8:30:00 PM 1.25 34.25 0.176 7.83 1174.37 14.14
12/15/2020 8:45:00 PM 1.21 34.178 0.176 7.82 1100.14 14.14
12/15/2020 9:00:00 PM 1.17 34.106 0.176 7.81 437.14 14.15
12/15/2020 9:15:00 PM 1.13 34.034 0.176 7.81 666.8 14.16
12/15/2020 9:30:00 PM 1.08 33.944 0.176 7.8 1116.54 14.17
12/15/2020 9:45:00 PM 1.04 33.872 0.176 7.79 601.29 14.18
12/15/2020 10:00:00 PM 1 33.8 0.176 7.79 331.96 14.19
12/15/2020 10:15:00 PM 0.96 33.728 0.176 7.78 401.75 14.2
12/15/2020 10:30:00 PM 0.93 33.674 0.176 7.78 355.48 14.21
12/15/2020 10:45:00 PM 0.9 33.62 0.176 7.77 94.68 14.22
12/15/2020 11:00:00 PM 0.87 33.566 0.176 7.77 302.05 14.22
12/15/2020 11:15:00 PM 0.84 33.512 0.176 7.77 209.04 14.23
12/15/2020 11:30:00 PM 0.82 33.476 0.176 7.76 843.23 14.24
12/15/2020 11:45:00 PM 0.79 33.422 0.176 7.76 225.02 14.26
12/16/2020 12:00:00 AM 0.77 33.386 0.176 7.76 249.85 14.26
12/16/2020 12:15:00 AM 0.74 33.332 0.176 7.76 390.54 14.27
12/16/2020 12:30:00 AM 0.71 33.278 0.176 7.75 550.76 14.28
12/16/2020 12:45:00 AM 0.68 33.224 0.176 7.75 442.2 14.29
12/16/2020 1:00:00 AM 0.66 33.188 0.176 7.75 435.13 14.3
12/16/2020 1:15:00 AM 0.63 33.134 0.176 7.75 825.2 14.31
12/16/2020 1:30:00 AM 0.6 33.08 0.176 7.75 259.1 14.32
12/16/2020 1:45:00 AM 0.57 33.026 0.176 7.74 1070.74 14.33
12/16/2020 2:00:00 AM 0.53 32.954 0.176 7.74 264.15 14.35
12/16/2020 2:15:00 AM 0.49 32.882 0.176 7.74 350.81 14.36
12/16/2020 2:30:00 AM 0.44 32.792 0.176 7.74 531.84 14.36
12/16/2020 2:45:00 AM 0.41 32.738 0.176 7.74 116.99 14.39
12/16/2020 3:00:00 AM 0.36 32.648 0.176 7.74 381.6 14.4
12/16/2020 3:15:00 AM 0.33 32.594 0.177 7.74 1236.64 14.42
12/16/2020 3:30:00 AM 0.31 32.558 0.177 7.73 1218.13 14.43
12/16/2020 3:45:00 AM 0.28 32.504 0.177 7.73 1055.99 14.44
12/16/2020 4:00:00 AM 0.26 32.468 0.177 7.73 12.98 14.45
12/16/2020 4:15:00 AM 0.23 32.414 0.177 7.66 162.19 14.46
12/16/2020 4:30:00 AM 0.2 32.36 0.177 7.66 697.7 14.48
12/16/2020 4:45:00 AM 0.17 32.306 0.177 7.66 857.75 14.51
12/16/2020 5:00:00 AM 0.14 32.252 0.177 7.66 82.69 14.5
12/16/2020 5:15:00 AM 0.11 32.198 0.177 7.66 75.07 14.52
12/16/2020 5:30:00 AM 0.08 32.144 0.177 7.67 720.11 14.53
12/16/2020 5:45:00 AM 0.07 32.126 0.177 7.67 715.97 14.54
12/16/2020 6:00:00 AM 0.06 32.108 0.177 7.68 765.49 14.54
12/16/2020 6:15:00 AM 0.05 32.09 0.177 7.68 389.46 14.55
12/16/2020 6:30:00 AM 0.04 32.072 0.177 7.69 1062.93 14.57
12/16/2020 6:45:00 AM 0.03 32.054 0.178 7.69 114.11 14.56
12/16/2020 7:00:00 AM 0.03 32.054 0.178 7.7 413.67 14.58
12/16/2020 7:15:00 AM 0.02 32.036 0.178 7.7 721.59 14.59
12/16/2020 7:30:00 AM 0.02 32.036 0.178 7.71 199.05 14.58
12/16/2020 7:45:00 AM 0.02 32.036 0.178 7.71 119.01 14.59
12/16/2020 8:00:00 AM 0.02 32.036 0.178 7.71 886.1 14.61
12/16/2020 8:15:00 AM 0.02 32.036 0.178 7.72 381.44 14.67
12/16/2020 8:30:00 AM 0.03 32.054 0.178 7.74 1243.48 14.75
12/16/2020 8:45:00 AM 0.04 32.072 0.179 7.76 1031.36 14.88
12/16/2020 9:00:00 AM 0.04 32.072 0.179 7.79 133.16 15.04
12/16/2020 9:15:00 AM 0.04 32.072 0.178 7.82 646.88 15.23
12/16/2020 9:30:00 AM 0.07 32.126 0.178 7.87 283.31 15.4
12/16/2020 9:45:00 AM 0.15 32.27 0.178 7.93 392.4 15.64
12/16/2020 10:00:00 AM 0.19 32.342 0.178 7.99 26.86 15.8
12/16/2020 10:15:00 AM 0.23 32.414 0.178 8.05 730.96 15.95
12/16/2020 10:30:00 AM 0.3 32.54 0.177 8.13 261.41 16.13
12/16/2020 10:45:00 AM 0.37 32.666 0.177 8.22 344 16.26
12/16/2020 11:00:00 AM 0.42 32.756 0.177 8.3 311 16.32
12/16/2020 11:15:00 AM 0.44 32.792 0.177 8.38 185.46 16.36
12/16/2020 11:30:00 AM 0.45 32.81 0.177 8.44 76.28 16.37
12/16/2020 11:45:00 AM 0.46 32.828 0.176 8.5 702.33 16.36
12/16/2020 12:00:00 PM 0.47 32.846 0.176 8.54 208.37 16.32
12/16/2020 12:15:00 PM 0.47 32.846 0.177 8.57 21.9 16.23
12/16/2020 12:30:00 PM 0.47 32.846 0.177 8.57 115.4 16.17
12/16/2020 12:45:00 PM 0.47 32.846 0.177 8.57 103.26 16.13
12/16/2020 1:00:00 PM 0.46 32.828 0.177 8.55 325.58 16.06
12/16/2020 1:15:00 PM 0.44 32.792 0.177 8.53 54.17 15.98
12/16/2020 1:30:00 PM 0.41 32.738 0.178 8.5 46.32 15.94
12/16/2020 1:45:00 PM 0.37 32.666 0.178 8.47 158.99 15.93
12/16/2020 2:00:00 PM 0.31 32.558 0.178 8.45 45.45 15.87
12/16/2020 2:15:00 PM 0.25 32.45 0.178 8.43 19.44 15.85
12/16/2020 2:30:00 PM 0.17 32.306 0.178 8.41 162.95 15.83
12/16/2020 2:45:00 PM 0.1 32.18 0.178 8.38 425.36 15.79
12/16/2020 3:00:00 PM 0.04 32.072 0.178 8.35 628.96 15.76
12/16/2020 3:15:00 PM 0.01 32.018 0.178 8.32 221.61 15.7
12/16/2020 3:30:00 PM 0.01 32.018 0.179 8.27 98.19 15.65
12/16/2020 3:45:00 PM 0.01 32.018 0.179 8.22 33.78 15.58
12/16/2020 4:00:00 PM 0 32 0.179 8.18 87.44 15.53
12/16/2020 4:15:00 PM -0.01 31.982 0.179 8.14 564.59 15.46
12/16/2020 4:30:00 PM -0.01 31.982 0.179 8.11 122.22 15.37
12/16/2020 4:45:00 PM -0.01 31.982 0.179 8.08 165.21 15.31
12/16/2020 5:00:00 PM -0.01 31.982 0.179 8.04 169.71 15.23
12/16/2020 5:15:00 PM -0.01 31.982 0.179 8.01 222.92 15.14
12/16/2020 5:30:00 PM 0 32 0.179 7.97 172.93 15.04
12/16/2020 5:45:00 PM -0.01 31.982 0.179 7.94 339.36 14.98
12/16/2020 6:00:00 PM -0.01 31.982 0.179 7.91 25.03 14.91
12/16/2020 6:15:00 PM -0.01 31.982 0.18 7.89 79.32 14.86
12/16/2020 6:30:00 PM -0.01 31.982 0.18 7.86 34.76 14.8
12/16/2020 6:45:00 PM -0.01 31.982 0.18 7.85 108.61 14.73
12/16/2020 7:00:00 PM -0.01 31.982 0.18 7.83 617.18 14.7
12/16/2020 7:15:00 PM -0.01 31.982 0.18 7.81 28.04 14.65
12/16/2020 7:30:00 PM -0.01 31.982 0.18 7.79 77.11 14.63
12/16/2020 7:45:00 PM -0.01 31.982 0.18 7.78 355.4 14.59
12/16/2020 8:00:00 PM -0.01 31.982 0.18 7.76 79.58 14.56
12/16/2020 8:15:00 PM -0.01 31.982 0.18 7.75 82.88 14.54
12/16/2020 8:30:00 PM -0.01 31.982 0.18 7.74 11.5 14.51
12/16/2020 8:45:00 PM -0.01 31.982 0.18 7.73 221.66 14.48
12/16/2020 9:00:00 PM -0.01 31.982 0.181 7.72 144.1 14.45
12/16/2020 9:15:00 PM 0 32 0.181 7.7 12.8 14.42
12/16/2020 9:30:00 PM 0 32 0.181 7.69 42.7 14.38
12/16/2020 9:45:00 PM 0 32 0.181 7.68 152.66 14.36
12/16/2020 10:00:00 PM 0 32 0.181 7.67 134.25 14.33
12/16/2020 10:15:00 PM 0.01 32.018 0.182 7.66 7.67 14.29
12/16/2020 10:30:00 PM 0.01 32.018 0.182 7.65 7.15 14.26
12/16/2020 10:45:00 PM 0.02 32.036 0.182 7.64 37.19 14.23
12/16/2020 11:00:00 PM 0.02 32.036 0.183 7.63 11.07 14.16
12/16/2020 11:15:00 PM 0.03 32.054 0.183 7.62 12.77 14.12
12/16/2020 11:30:00 PM 0.03 32.054 0.183 7.61 28.46 14.1
12/16/2020 11:45:00 PM 0.03 32.054 0.183 7.6 36.36 14.06
12/17/2020 12:00:00 AM 0.03 32.054 0.183 7.6 80.52 14.04
12/17/2020 12:15:00 AM 0.04 32.072 0.183 7.59 31.09 13.97
12/17/2020 12:30:00 AM 0.04 32.072 0.183 7.58 13.66 13.97
12/17/2020 12:45:00 AM 0.05 32.09 0.183 7.57 15.95 13.94
12/17/2020 1:00:00 AM 0.05 32.09 0.183 7.57 58.13 13.82
12/17/2020 1:15:00 AM 0.06 32.108 0.183 7.56 10.82 13.85
12/17/2020 1:30:00 AM 0.06 32.108 0.183 7.55 16.64 13.83
12/17/2020 1:45:00 AM 0.06 32.108 0.183 7.55 33.17 13.79
12/17/2020 2:00:00 AM 0.06 32.108 0.183 7.55 22.98 13.52
12/17/2020 2:15:00 AM 0.06 32.108 0.183 7.54 27.1 13.42
12/17/2020 2:30:00 AM 0.06 32.108 0.182 7.54 12.57 13.05
12/17/2020 2:45:00 AM 0.06 32.108 0.182 7.53 79.97 13.35
12/17/2020 3:00:00 AM 0.06 32.108 0.182 7.53 14.39 13.43
12/17/2020 3:15:00 AM 0.06 32.108 0.182 7.53 38.62 13.43
12/17/2020 3:30:00 AM 0.06 32.108 0.182 7.53 21.57 13.55
12/17/2020 3:45:00 AM 0.06 32.108 0.181 7.53 10.18 13.39
12/17/2020 4:00:00 AM 0.06 32.108 0.181 7.53 14.07 13.46
12/17/2020 4:15:00 AM 0.06 32.108 0.181 7.52 23.77 13.36
12/17/2020 4:30:00 AM 0.06 32.108 0.181 7.52 9.52 13.52
12/17/2020 4:45:00 AM 0.05 32.09 0.181 7.51 18.42 13.57
12/17/2020 5:00:00 AM 0.05 32.09 0.181 7.51 168.85 13.56
12/17/2020 5:15:00 AM 0.05 32.09 0.181 7.51 181.55 13.56
12/17/2020 5:30:00 AM 0.05 32.09 0.181 7.51 9.31 13.54
12/17/2020 5:45:00 AM 0.05 32.09 0.181 7.5 79.33 13.52
12/17/2020 6:00:00 AM 0.04 32.072 0.18 7.5 45.14 13.5
12/17/2020 6:15:00 AM 0.05 32.09 0.18 7.49 48.03 13.47
12/17/2020 6:30:00 AM 0.05 32.09 0.18 7.49 30.19 13.43
12/17/2020 6:45:00 AM 0.05 32.09 0.181 7.49 21.44 13.42
12/17/2020 7:00:00 AM 0.05 32.09 0.181 7.48 32.21 13.38
12/17/2020 7:15:00 AM 0.04 32.072 0.181 7.48 48.32 13.36
12/17/2020 7:30:00 AM 0.05 32.09 0.181 7.47 28.06 13.34
12/17/2020 7:45:00 AM 0.04 32.072 0.18 7.47 163.2 13.34
12/17/2020 8:00:00 AM 0.04 32.072 0.18 7.47 26.53 13.34
12/17/2020 8:15:00 AM 0.04 32.072 0.18 7.47 47.79 13.36
12/17/2020 8:30:00 AM 0.04 32.072 0.18 7.48 15.16 13.41
12/17/2020 8:45:00 AM 0.04 32.072 0.18 7.48 52.28 13.47
12/17/2020 9:00:00 AM 0.04 32.072 0.18 7.49 16.76 13.54
12/17/2020 9:15:00 AM 0.04 32.072 0.18 7.5 16.95 13.63
12/17/2020 9:30:00 AM 0.04 32.072 0.18 7.51 74.59 13.72
12/17/2020 9:45:00 AM 0.04 32.072 0.18 7.52 54.92 13.85
12/17/2020 10:00:00 AM 0.04 32.072 0.18 7.54 177.74 14
12/17/2020 10:15:00 AM 0.04 32.072 0.18 7.56 55.3 14.15
12/17/2020 10:30:00 AM 0.04 32.072 0.18 7.58 328.87 14.31
12/17/2020 10:45:00 AM 0.04 32.072 0.18 7.6 82.55 14.47
12/17/2020 11:00:00 AM 0.05 32.09 0.18 7.63 10.65 14.64
12/17/2020 11:15:00 AM 0.05 32.09 0.18 7.65 76.3 14.79
12/17/2020 11:30:00 AM 0.04 32.072 0.18 7.68 8.27 14.96
12/17/2020 11:45:00 AM 0.04 32.072 0.18 7.71 151.64 15.11
12/17/2020 12:00:00 PM 0.04 32.072 0.18 7.75 12.13 15.26
12/17/2020 12:15:00 PM 0.04 32.072 0.18 7.78 132.86 15.43
12/17/2020 12:30:00 PM 0.04 32.072 0.18 7.82 197.75 15.56
12/17/2020 12:45:00 PM 0.04 32.072 0.18 7.86 59.86 15.72
12/17/2020 1:00:00 PM 0.04 32.072 0.18 7.9 41.5 15.82
12/17/2020 1:15:00 PM 0.04 32.072 0.18 7.94 393.34 15.95
12/17/2020 1:30:00 PM 0.04 32.072 0.18 7.98 274.8 16.08
12/17/2020 1:45:00 PM 0.04 32.072 0.18 8.02 10.33 16.15
12/17/2020 2:00:00 PM 0.03 32.054 0.18 8.06 42.84 16.23
12/17/2020 2:15:00 PM 0.03 32.054 0.181 8.1 110.52 16.3
12/17/2020 2:30:00 PM 0.02 32.036 0.181 8.13 280.83 16.33
12/17/2020 2:45:00 PM 0.02 32.036 0.181 8.16 373.92 16.35
12/17/2020 3:00:00 PM 0.02 32.036 0.182 8.18 51.39 16.38
12/17/2020 3:15:00 PM 0.02 32.036 0.182 8.2 705.94 16.37
12/17/2020 3:30:00 PM 0.02 32.036 0.183 8.21 63.79 16.35
12/17/2020 3:45:00 PM 0.02 32.036 0.184 8.21 51.59 16.29
12/17/2020 4:00:00 PM 0.01 32.018 0.184 8.19 19.3 16.24
12/17/2020 4:15:00 PM 0.01 32.018 0.185 8.17 49.77 16.13
12/17/2020 4:30:00 PM 0.01 32.018 0.186 8.15 512.85 16.03
12/17/2020 4:45:00 PM 0.01 32.018 0.186 8.11 443.42 15.9
12/17/2020 5:00:00 PM 0.01 32.018 0.187 8.07 115.43 15.74
12/17/2020 5:15:00 PM 0.01 32.018 0.187 8.02 161.38 15.59
12/17/2020 5:30:00 PM 0.01 32.018 0.188 7.97 46.35 15.45
12/17/2020 5:45:00 PM 0.01 32.018 0.188 7.93 118.73 15.32
12/17/2020 6:00:00 PM 0.01 32.018 0.188 7.89 167.87 15.19
12/17/2020 6:15:00 PM 0.01 32.018 0.189 7.86 133.21 15.07
12/17/2020 6:30:00 PM 0.01 32.018 0.189 7.83 10.81 14.97
12/17/2020 6:45:00 PM 0.01 32.018 0.189 7.8 199.37 14.87
12/17/2020 7:00:00 PM 0.01 32.018 0.189 7.77 131.77 14.77
12/17/2020 7:15:00 PM 0.01 32.018 0.19 7.75 173.49 14.69
12/17/2020 7:30:00 PM 0.01 32.018 0.19 7.73 203.18 14.62
12/17/2020 7:45:00 PM 0.01 32.018 0.19 7.71 176.11 14.53
12/17/2020 8:00:00 PM 0.01 32.018 0.19 7.69 38.9 14.47
12/17/2020 8:15:00 PM 0.01 32.018 0.19 7.67 310.9 14.39
12/17/2020 8:30:00 PM 0.01 32.018 0.19 7.66 245.65 14.33
12/17/2020 8:45:00 PM 0.01 32.018 0.19 7.64 242.43 14.29
12/17/2020 9:00:00 PM 0.01 32.018 0.19 7.63 1241.93 14.23
12/17/2020 9:15:00 PM 0.01 32.018 0.19 7.62 150.51 14.2
12/17/2020 9:30:00 PM 0.01 32.018 0.19 7.61 282.99 14.15
12/17/2020 9:45:00 PM 0.01 32.018 0.19 7.6 152.43 14.13
12/17/2020 10:00:00 PM 0.01 32.018 0.19 7.6 112.66 14.1
12/17/2020 10:15:00 PM 0.01 32.018 0.189 7.59 55.54 14.07
12/17/2020 10:30:00 PM 0.01 32.018 0.189 7.59 380.73 14.05
12/17/2020 10:45:00 PM 0.01 32.018 0.189 7.58 181.47 14.04
12/17/2020 11:00:00 PM 0 32 0.189 7.58 226.71 14.02
12/17/2020 11:15:00 PM 0.01 32.018 0.189 7.57 192.82 14.01
12/17/2020 11:30:00 PM 0 32 0.189 7.57 511.81 14.01
12/17/2020 11:45:00 PM 0 32 0.188 7.57 473.88 13.99
12/18/2020 12:00:00 AM 0 32 0.188 7.56 144.96 13.98
12/18/2020 12:15:00 AM 0 32 0.188 7.56 86.65 13.99
12/18/2020 12:30:00 AM 0 32 0.188 7.56 348.46 13.98
12/18/2020 12:45:00 AM 0 32 0.188 7.56 53.59 13.98
12/18/2020 1:00:00 AM 0 32 0.187 7.55 318.13 13.97
12/18/2020 1:15:00 AM 0 32 0.187 7.55 16.83 13.98
12/18/2020 1:30:00 AM 0 32 0.187 7.55 142.69 13.98
12/18/2020 1:45:00 AM 0 32 0.186 7.55 129.6 13.98
12/18/2020 2:00:00 AM 0 32 0.186 7.55 38.11 13.98
12/18/2020 2:15:00 AM 0 32 0.186 7.55 113.67 13.98
12/18/2020 2:30:00 AM 0 32 0.185 7.55 228.56 13.99
12/18/2020 2:45:00 AM 0 32 0.185 7.55 446.87 14
12/18/2020 3:00:00 AM 0 32 0.184 7.55 254.52 13.99
12/18/2020 3:15:00 AM 0 32 0.184 7.55 14.71 13.99
12/18/2020 3:30:00 AM 0 32 0.183 7.55 39.08 14
12/18/2020 3:45:00 AM 0 32 0.183 7.55 10.38 14
12/18/2020 4:00:00 AM 0 32 0.182 7.55 98.98 13.99
12/18/2020 4:15:00 AM 0 32 0.182 7.55 139.48 13.99
12/18/2020 4:30:00 AM 0 32 0.181 7.55 99.12 13.99
12/18/2020 4:45:00 AM 0 32 0.181 7.55 15.47 13.99
12/18/2020 5:00:00 AM 0 32 0.18 7.55 18.96 13.99
12/18/2020 5:15:00 AM 0 32 0.18 7.54 145.16 13.99
12/18/2020 5:30:00 AM 0 32 0.18 7.54 80.56 13.99
12/18/2020 5:45:00 AM 0 32 0.18 7.54 197.25 13.98
12/18/2020 6:00:00 AM 0 32 0.18 7.54 361.11 13.99
12/18/2020 6:15:00 AM 0 32 0.18 7.54 126.26 13.99
12/18/2020 6:30:00 AM 0 32 0.179 7.54 461.61 13.99
12/18/2020 6:45:00 AM 0 32 0.18 7.54 321.88 13.99
12/18/2020 7:00:00 AM 0 32 0.18 7.54 666.33 13.99
12/18/2020 7:15:00 AM 0 32 0.18 7.54 157.07 13.98
12/18/2020 7:30:00 AM 0 32 0.18 7.54 97.7 14.01
12/18/2020 7:45:00 AM 0 32 0.18 7.54 149.77 14
12/18/2020 8:00:00 AM 0 32 0.18 7.54 623.36 14.02
12/18/2020 8:15:00 AM 0 32 0.181 7.55 233.54 14.06
12/18/2020 8:30:00 AM 0 32 0.181 7.55 58.69 14.1
12/18/2020 8:45:00 AM 0 32 0.181 7.56 534.04 14.16
12/18/2020 9:00:00 AM 0 32 0.181 7.57 291.52 14.25
12/18/2020 9:15:00 AM 0 32 0.182 7.58 335.9 14.28
12/18/2020 9:30:00 AM 0 32 0.182 7.6 30.49 14.45
12/18/2020 9:45:00 AM 0 32 0.182 7.62 380.21 14.63
12/18/2020 10:00:00 AM 0 32 0.182 7.64 251.13 14.78
12/18/2020 10:15:00 AM 0 32 0.183 7.67 525.2 14.93
12/18/2020 10:30:00 AM 0 32 0.183 7.7 27.32 15.07
12/18/2020 10:45:00 AM 0 32 0.183 7.72 115.22 15.19
12/18/2020 11:00:00 AM 0 32 0.184 7.75 202.82 15.31
12/18/2020 11:15:00 AM 0 32 0.184 7.77 39.87 15.4
12/18/2020 11:30:00 AM 0 32 0.184 7.8 38.51 15.5
12/18/2020 11:45:00 AM 0 32 0.185 7.83 28.38 15.58
12/18/2020 12:00:00 PM 0 32 0.185 7.85 30.34 15.66
12/18/2020 12:15:00 PM 0 32 0.185 7.87 428.49 15.71
12/18/2020 12:30:00 PM 0 32 0.185 7.89 79.68 15.79
12/18/2020 12:45:00 PM 0 32 0.185 7.92 371.59 15.83
12/18/2020 1:00:00 PM 0 32 0.185 7.93 262.91 15.86
12/18/2020 1:15:00 PM 0 32 0.185 7.95 153.16 15.91
12/18/2020 1:30:00 PM 0.01 32.018 0.185 7.98 122.01 15.96
12/18/2020 1:45:00 PM 0.01 32.018 0.185 8 53.11 16.03
12/18/2020 2:00:00 PM 0.01 32.018 0.185 8.03 240.2 16.1
12/18/2020 2:15:00 PM 0.01 32.018 0.185 8.05 42.16 16.14
12/18/2020 2:30:00 PM 0 32 0.185 8.08 72.33 16.21
12/18/2020 2:45:00 PM 0.01 32.018 0.185 8.11 29.34 16.23
12/18/2020 3:00:00 PM 0 32 0.185 8.13 14.52 16.26
12/18/2020 3:15:00 PM 0.01 32.018 0.184 8.15 195.29 16.29
12/18/2020 3:30:00 PM 0 32 0.184 8.16 120.13 16.28
12/18/2020 3:45:00 PM 0 32 0.184 8.16 251.05 16.22
12/18/2020 4:00:00 PM 0 32 0.184 8.14 312.03 16.16
12/18/2020 4:15:00 PM 0 32 0.184 8.12 63.64 16.06
12/18/2020 4:30:00 PM -0.01 31.982 0.184 8.09 362.21 15.95
12/18/2020 4:45:00 PM -0.01 31.982 0.184 8.05 5.91 15.83
12/18/2020 5:00:00 PM -0.01 31.982 0.184 8 41 15.71
12/18/2020 5:15:00 PM -0.01 31.982 0.184 7.95 8.71 15.58
12/18/2020 5:30:00 PM -0.01 31.982 0.184 7.91 12.92 15.47
12/18/2020 5:45:00 PM -0.01 31.982 0.184 7.88 81.66 15.36
12/18/2020 6:00:00 PM -0.01 31.982 0.184 7.84 61.77 15.26
12/18/2020 6:15:00 PM -0.02 31.964 0.184 7.8 65.34 15.18
12/18/2020 6:30:00 PM -0.02 31.964 0.184 7.78 50.79 15.08
12/18/2020 6:45:00 PM -0.02 31.964 0.184 7.75 632.78 15
12/18/2020 7:00:00 PM -0.02 31.964 0.184 7.73 29.93 14.92
12/18/2020 7:15:00 PM -0.01 31.982 0.184 7.71 19.23 14.85
12/18/2020 7:30:00 PM -0.02 31.964 0.184 7.69 260.08 14.79
12/18/2020 7:45:00 PM -0.02 31.964 0.185 7.67 485.37 14.75
12/18/2020 8:00:00 PM -0.02 31.964 0.185 7.66 13.29 14.7
12/18/2020 8:15:00 PM -0.02 31.964 0.185 7.65 103.28 14.68
12/18/2020 8:30:00 PM -0.02 31.964 0.185 7.64 391.33 14.64
12/18/2020 8:45:00 PM -0.02 31.964 0.185 7.63 11.21 14.62
12/18/2020 9:00:00 PM -0.02 31.964 0.185 7.62 4.66 14.6
12/18/2020 9:15:00 PM -0.02 31.964 0.185 7.61 159.64 14.57
12/18/2020 9:30:00 PM -0.02 31.964 0.185 7.6 18.54 14.56
12/18/2020 9:45:00 PM -0.02 31.964 0.185 7.6 148.19 14.54
12/18/2020 10:00:00 PM -0.02 31.964 0.185 7.59 140.87 14.52
12/18/2020 10:15:00 PM -0.02 31.964 0.185 7.59 154.52 14.51
12/18/2020 10:30:00 PM -0.01 31.982 0.185 7.58 66.89 14.5
12/18/2020 10:45:00 PM -0.01 31.982 0.185 7.58 22.17 14.48
12/18/2020 11:00:00 PM -0.02 31.964 0.185 7.57 187.8 14.47
12/18/2020 11:15:00 PM -0.01 31.982 0.186 7.57 218.27 14.45
12/18/2020 11:30:00 PM -0.01 31.982 0.186 7.56 25.83 14.44
12/18/2020 11:45:00 PM -0.01 31.982 0.186 7.56 19.51 14.43
12/19/2020 12:00:00 AM -0.01 31.982 0.186 7.56 10.22 14.42
12/19/2020 12:15:00 AM -0.01 31.982 0.186 7.55 188.45 14.41
12/19/2020 12:30:00 AM -0.01 31.982 0.187 7.55 245.28 14.39
12/19/2020 12:45:00 AM -0.01 31.982 0.187 7.55 181.42 14.37
12/19/2020 1:00:00 AM -0.01 31.982 0.187 7.55 39.85 14.36
12/19/2020 1:15:00 AM -0.01 31.982 0.187 7.55 642.37 14.35
12/19/2020 1:30:00 AM -0.01 31.982 0.187 7.54 729.79 14.33
12/19/2020 1:45:00 AM -0.01 31.982 0.188 7.54 842.43 14.33
12/19/2020 2:00:00 AM -0.01 31.982 0.188 7.53 852.19 14.32
12/19/2020 2:15:00 AM -0.01 31.982 0.188 7.53 675.67 14.3
12/19/2020 2:30:00 AM -0.01 31.982 0.188 7.53 577.15 14.3
12/19/2020 2:45:00 AM -0.01 31.982 0.188 7.53 716.42 14.29
12/19/2020 3:00:00 AM -0.01 31.982 0.188 7.52 1172.5 14.29
12/19/2020 3:15:00 AM -0.01 31.982 0.188 7.52 961.23 14.27
12/19/2020 3:30:00 AM -0.01 31.982 0.189 7.52 641.7 14.26
12/19/2020 3:45:00 AM -0.01 31.982 0.189 7.52 254.32 14.25
12/19/2020 4:00:00 AM -0.01 31.982 0.189 7.51 936.35 14.25
12/19/2020 4:15:00 AM -0.01 31.982 0.189 7.51 1120.25 14.24
12/19/2020 4:30:00 AM -0.01 31.982 0.189 7.51 854.05 14.23
12/19/2020 4:45:00 AM -0.01 31.982 0.189 7.51 962.57 14.22
12/19/2020 5:00:00 AM -0.01 31.982 0.19 7.51 482.92 14.22
12/19/2020 5:15:00 AM -0.01 31.982 0.19 7.5 525.1 14.2
12/19/2020 5:30:00 AM -0.01 31.982 0.19 7.5 476.58 14.2
12/19/2020 5:45:00 AM -0.01 31.982 0.19 7.5 427.59 14.2
12/19/2020 6:00:00 AM -0.01 31.982 0.19 7.5 921.19 14.19
12/19/2020 6:15:00 AM -0.01 31.982 0.19 7.49 734.46 14.17
12/19/2020 6:30:00 AM -0.01 31.982 0.19 7.49 642.72 14.17
12/19/2020 6:45:00 AM -0.01 31.982 0.191 7.49 1213.96 14.16
12/19/2020 7:00:00 AM -0.01 31.982 0.191 7.49 630.56 14.16
12/19/2020 7:15:00 AM -0.01 31.982 0.191 7.49 749.19 14.15
12/19/2020 7:30:00 AM -0.01 31.982 0.191 7.49 615.08 14.15
12/19/2020 7:45:00 AM -0.01 31.982 0.191 7.49 363.81 14.16
12/19/2020 8:00:00 AM -0.01 31.982 0.191 7.49 896.32 14.2
12/19/2020 8:15:00 AM 0 32 0.191 7.49 950.16 14.26
12/19/2020 8:30:00 AM 0 32 0.191 7.5 678.26 14.35
12/19/2020 8:45:00 AM 0 32 0.191 7.52 830.92 14.46
12/19/2020 9:00:00 AM 0 32 0.191 7.53 757.35 14.62
12/19/2020 9:15:00 AM 0.01 32.018 0.191 7.56 100.71 14.82
12/19/2020 9:30:00 AM 0.01 32.018 0.191 7.58 429.26 15.01
12/19/2020 9:45:00 AM 0.01 32.018 0.191 7.61 432.45 15.21
12/19/2020 10:00:00 AM 0.01 32.018 0.191 7.65 478.23 15.43
12/19/2020 10:15:00 AM 0.01 32.018 0.19 7.69 428.25 15.67
12/19/2020 10:30:00 AM 0.01 32.018 0.19 7.74 88.6 15.89
12/19/2020 10:45:00 AM 0.02 32.036 0.19 7.79 429.61 16.12
12/19/2020 11:00:00 AM 0.02 32.036 0.19 7.84 688.74 16.34
12/19/2020 11:15:00 AM 0.02 32.036 0.189 7.9 383.35 16.52
12/19/2020 11:30:00 AM 0.02 32.036 0.189 7.96 369.88 16.69
12/19/2020 11:45:00 AM 0.01 32.018 0.188 8.02 526.86 16.83
12/19/2020 12:00:00 PM 0.01 32.018 0.188 8.08 947.14 16.94
12/19/2020 12:15:00 PM 0.01 32.018 0.188 8.13 150.66 17.02
12/19/2020 12:30:00 PM 0.01 32.018 0.187 8.18 329.58 16.47
12/19/2020 12:45:00 PM 0.01 32.018 0.187 8.23 14.65 16.21
12/19/2020 1:00:00 PM 0.01 32.018 0.187 8.27 105.96 16.22
12/19/2020 1:15:00 PM 0.01 32.018 0.187 8.3 59.15 17.06
12/19/2020 1:30:00 PM 0.02 32.036 0.186 8.33 403.4 17.08
12/19/2020 1:45:00 PM 0.02 32.036 0.186 8.36 551.02 17.09
12/19/2020 2:00:00 PM 0.01 32.018 0.186 8.39 103.57 17.09
12/19/2020 2:15:00 PM 0.01 32.018 0.186 8.42 15.65 17.09
12/19/2020 2:30:00 PM 0.01 32.018 0.186 8.44 229.64 17.08
12/19/2020 2:45:00 PM 0.01 32.018 0.17 8.45 494 17.05
12/19/2020 3:00:00 PM 0.01 32.018 0.185 8.44 277.64 17.04
12/19/2020 3:15:00 PM 0 32 0.185 8.45 81.82 17.01
12/19/2020 3:30:00 PM 0 32 0.185 8.45 355.56 16.95
12/19/2020 3:45:00 PM 0 32 0.185 8.43 12.26 16.86
12/19/2020 4:00:00 PM 0 32 0.185 8.4 7.71 16.76
12/19/2020 4:15:00 PM -0.01 31.982 0.185 8.35 5.15 16.61
12/19/2020 4:30:00 PM -0.01 31.982 0.185 8.29 28.5 16.44
12/19/2020 4:45:00 PM -0.01 31.982 0.185 8.22 518.88 16.24
12/19/2020 5:00:00 PM -0.01 31.982 0.185 8.15 230.23 16.04
12/19/2020 5:15:00 PM -0.01 31.982 0.185 8.08 11.36 15.84
12/19/2020 5:30:00 PM -0.01 31.982 0.185 8.02 77.3 15.66
12/19/2020 5:45:00 PM -0.01 31.982 0.185 7.96 22.42 15.49
12/19/2020 6:00:00 PM -0.01 31.982 0.185 7.91 12.62 15.34
12/19/2020 6:15:00 PM -0.01 31.982 0.186 7.87 6.81 15.2
12/19/2020 6:30:00 PM -0.01 31.982 0.186 7.83 583.8 15.06
12/19/2020 6:45:00 PM -0.01 31.982 0.186 7.8 4.57 14.94
12/19/2020 7:00:00 PM -0.01 31.982 0.186 7.77 43.44 14.83
12/19/2020 7:15:00 PM -0.01 31.982 0.186 7.74 298.11 14.75
12/19/2020 7:30:00 PM -0.01 31.982 0.186 7.72 84.63 14.67
12/19/2020 7:45:00 PM -0.01 31.982 0.186 7.7 9.24 14.61
12/19/2020 8:00:00 PM -0.01 31.982 0.186 7.68 150.56 14.56
12/19/2020 8:15:00 PM -0.01 31.982 0.186 7.67 5.84 14.52
12/19/2020 8:30:00 PM -0.01 31.982 0.186 7.66 41.72 14.49
12/19/2020 8:45:00 PM -0.01 31.982 0.186 7.65 134.05 14.47
12/19/2020 9:00:00 PM -0.01 31.982 0.186 7.64 6.05 14.44
12/19/2020 9:15:00 PM -0.01 31.982 0.186 7.63 333.41 14.41
12/19/2020 9:30:00 PM -0.01 31.982 0.186 7.62 184.86 14.39
12/19/2020 9:45:00 PM -0.01 31.982 0.186 7.62 5.23 14.37
12/19/2020 10:00:00 PM -0.01 31.982 0.186 7.61 23.02 14.36
12/19/2020 10:15:00 PM -0.01 31.982 0.186 7.61 7.99 14.33
12/19/2020 10:30:00 PM -0.01 31.982 0.186 7.6 8.13 14.32
12/19/2020 10:45:00 PM -0.01 31.982 0.186 7.6 11 14.3
12/19/2020 11:00:00 PM -0.01 31.982 0.186 7.59 172.23 14.29
12/19/2020 11:15:00 PM -0.01 31.982 0.186 7.59 237.29 14.29
12/19/2020 11:30:00 PM -0.01 31.982 0.186 7.59 14.45 14.28
12/19/2020 11:45:00 PM -0.01 31.982 0.186 7.58 12.95 14.26
12/20/2020 12:00:00 AM -0.01 31.982 0.186 7.58 4.48 14.26
12/20/2020 12:15:00 AM -0.01 31.982 0.186 7.58 155.64 14.24
12/20/2020 12:30:00 AM -0.01 31.982 0.187 7.58 100.15 14.24
12/20/2020 12:45:00 AM -0.01 31.982 0.187 7.57 126.49 14.22
12/20/2020 1:00:00 AM -0.01 31.982 0.187 7.57 12.71 14.22
12/20/2020 1:15:00 AM -0.01 31.982 0.187 7.57 312.78 14.2
12/20/2020 1:30:00 AM -0.01 31.982 0.187 7.57 6.47 14.19
12/20/2020 1:45:00 AM -0.01 31.982 0.187 7.57 387.7 14.2
12/20/2020 2:00:00 AM -0.01 31.982 0.187 7.57 8.86 14.19
12/20/2020 2:15:00 AM -0.01 31.982 0.187 7.56 31.95 14.18
12/20/2020 2:30:00 AM -0.01 31.982 0.187 7.56 23.45 14.16
12/20/2020 2:45:00 AM 0 32 0.187 7.56 8.47 14.16
12/20/2020 3:00:00 AM 0 32 0.187 7.56 34.27 14.14
12/20/2020 3:15:00 AM 0 32 0.188 7.56 37.66 14.14
12/20/2020 3:30:00 AM 0 32 0.188 7.56 4.98 14.14
12/20/2020 3:45:00 AM 0 32 0.188 7.56 13.5 14.12
12/20/2020 4:00:00 AM 0 32 0.188 7.56 342.83 14.13
12/20/2020 4:15:00 AM 0 32 0.188 7.56 290.95 14.11
12/20/2020 4:30:00 AM 0 32 0.188 7.55 127.18 14.1
12/20/2020 4:45:00 AM 0 32 0.188 7.56 169.04 14.1
12/20/2020 5:00:00 AM 0 32 0.188 7.55 70.63 14.1
12/20/2020 5:15:00 AM 0 32 0.188 7.55 220.37 14.09
12/20/2020 5:30:00 AM 0 32 0.188 7.55 16.73 14.08
12/20/2020 5:45:00 AM 0 32 0.189 7.55 22.23 14.07
12/20/2020 6:00:00 AM 0 32 0.189 7.55 19.46 14.07
12/20/2020 6:15:00 AM -0.01 31.982 0.189 7.55 34.68 14.07
12/20/2020 6:30:00 AM -0.01 31.982 0.189 7.55 45.79 14.06
12/20/2020 6:45:00 AM -0.01 31.982 0.189 7.55 77.49 14.06
12/20/2020 7:00:00 AM 0 32 0.189 7.55 58.56 14.06
12/20/2020 7:15:00 AM 0 32 0.189 7.55 180.6 14.05
12/20/2020 7:30:00 AM 0 32 0.189 7.55 390.92 14.05
12/20/2020 7:45:00 AM 0 32 0.189 7.55 234.53 14.04
12/20/2020 8:00:00 AM 0 32 0.189 7.55 6.28 14.06
12/20/2020 8:15:00 AM 0 32 0.189 7.55 6.67 14.07
12/20/2020 8:30:00 AM 0 32 0.189 7.56 24.99 14.12
12/20/2020 8:45:00 AM 0 32 0.189 7.56 33.64 14.14
12/20/2020 9:00:00 AM 0 32 0.189 7.57 11.58 14.19
12/20/2020 9:15:00 AM 0 32 0.189 7.58 9.05 14.25
12/20/2020 9:30:00 AM 0 32 0.189 7.59 12.08 14.32
12/20/2020 9:45:00 AM 0.01 32.018 0.189 7.6 31.83 14.42
12/20/2020 10:00:00 AM 0.01 32.018 0.189 7.61 189.26 14.5
12/20/2020 10:15:00 AM 0.01 32.018 0.189 7.63 34.85 14.58
12/20/2020 10:30:00 AM 0 32 0.188 7.64 111.24 14.66
12/20/2020 10:45:00 AM 0 32 0.188 7.66 184.72 14.75
12/20/2020 11:00:00 AM 0.01 32.018 0.188 7.68 17.19 14.82
12/20/2020 11:15:00 AM 0.01 32.018 0.188 7.69 86.27 14.9
12/20/2020 11:30:00 AM 0.01 32.018 0.188 7.71 40.61 15
12/20/2020 11:45:00 AM 0.02 32.036 0.188 7.73 5.35 15.08
12/20/2020 12:00:00 PM 0.02 32.036 0.188 7.76 192.6 15.16
12/20/2020 12:15:00 PM 0.02 32.036 0.188 7.78 66.13 15.24
12/20/2020 12:30:00 PM 0.02 32.036 0.187 7.79 6.22 15.29
12/20/2020 12:45:00 PM 0.02 32.036 0.187 7.81 84.8 15.34
12/20/2020 1:00:00 PM 0.01 32.018 0.187 7.83 10.1 15.37
12/20/2020 1:15:00 PM 0.01 32.018 0.187 7.84 5.71 15.38
12/20/2020 1:30:00 PM 0.01 32.018 0.187 7.85 27.06 15.39
12/20/2020 1:45:00 PM 0.01 32.018 0.187 7.85 9.9 15.35
12/20/2020 2:00:00 PM 0.01 32.018 0.187 7.86 140.84 15.35
12/20/2020 2:15:00 PM 0.01 32.018 0.186 7.86 6.96 15.32
12/20/2020 2:30:00 PM 0.01 32.018 0.186 7.86 39.32 15.28
12/20/2020 2:45:00 PM 0.01 32.018 0.186 7.86 529.97 15.25
12/20/2020 3:00:00 PM 0.01 32.018 0.186 7.85 4.56 15.17
12/20/2020 3:15:00 PM 0.01 32.018 0.186 7.84 14.9 15.13
12/20/2020 3:30:00 PM 0.01 32.018 0.186 7.83 92.52 15.08
12/20/2020 3:45:00 PM 0.01 32.018 0.186 7.83 454.38 15.02
12/20/2020 4:00:00 PM 0 32 0.186 7.81 479.24 14.96
12/20/2020 4:15:00 PM 0 32 0.186 7.79 70.71 14.92
12/20/2020 4:30:00 PM 0 32 0.186 7.78 89.91 14.85
12/20/2020 4:45:00 PM 0 32 0.186 7.77 148.07 14.77
12/20/2020 5:00:00 PM 0 32 0.186 7.76 4.86 14.71
12/20/2020 5:15:00 PM 0 32 0.186 7.74 149.08 14.66
12/20/2020 5:30:00 PM 0 32 0.186 7.73 6.19 14.59
12/20/2020 5:45:00 PM 0 32 0.186 7.72 8.77 14.53
12/20/2020 6:00:00 PM 0 32 0.186 7.7 29.56 14.48
12/20/2020 6:15:00 PM 0 32 0.186 7.69 33.21 14.42
12/20/2020 6:30:00 PM 0 32 0.186 7.68 6.8 14.37
12/20/2020 6:45:00 PM 0 32 0.186 7.67 157.73 14.33
12/20/2020 7:00:00 PM 0 32 0.186 7.66 13.46 14.29
12/20/2020 7:15:00 PM 0 32 0.186 7.65 21.66 14.26
12/20/2020 7:30:00 PM 0 32 0.186 7.65 6.3 14.24
12/20/2020 7:45:00 PM 0 32 0.186 7.64 12.52 14.21
12/20/2020 8:00:00 PM 0 32 0.186 7.63 38.25 14.19
12/20/2020 8:15:00 PM 0 32 0.186 7.63 27.24 14.18
12/20/2020 8:30:00 PM 0 32 0.186 7.62 13.72 14.17
12/20/2020 8:45:00 PM 0 32 0.186 7.62 29.65 14.16
12/20/2020 9:00:00 PM 0 32 0.186 7.62 4.03 14.14
12/20/2020 9:15:00 PM 0 32 0.186 7.61 18.05 14.14
12/20/2020 9:30:00 PM 0 32 0.186 7.61 21.14 14.12
12/20/2020 9:45:00 PM 0 32 0.186 7.61 16.69 14.11
12/20/2020 10:00:00 PM 0 32 0.186 7.6 341.93 14.11
12/20/2020 10:15:00 PM 0 32 0.186 7.6 16.54 14.11
12/20/2020 10:30:00 PM 0 32 0.186 7.6 307.5 14.1
12/20/2020 10:45:00 PM 0 32 0.186 7.6 28.71 14.1
12/20/2020 11:00:00 PM 0 32 0.186 7.6 10.08 14.08
12/20/2020 11:15:00 PM 0 32 0.186 7.6 170.55 14.09
12/20/2020 11:30:00 PM 0 32 0.186 7.6 14.7 14.08
12/20/2020 11:45:00 PM 0 32 0.186 7.59 6.52 14.08
12/21/2020 12:00:00 AM 0 32 0.186 7.59 5.15 14.07
12/21/2020 12:15:00 AM 0 32 0.186 7.59 9.89 14.07
12/21/2020 12:30:00 AM 0 32 0.186 7.59 68.54 14.07
12/21/2020 12:45:00 AM 0 32 0.186 7.59 31.59 14.06
12/21/2020 1:00:00 AM 0 32 0.186 7.59 154.56 14.07
12/21/2020 1:15:00 AM 0 32 0.186 7.59 637.9 14.06
12/21/2020 1:30:00 AM 0 32 0.186 7.58 104.26 14.06
12/21/2020 1:45:00 AM 0 32 0.186 7.58 5.21 14.06
12/21/2020 2:00:00 AM 0 32 0.186 7.58 5.8 14.05
12/21/2020 2:15:00 AM 0 32 0.185 7.58 37.36 14.05
12/21/2020 2:30:00 AM 0 32 0.185 7.58 9.14 14.05
12/21/2020 2:45:00 AM 0 32 0.185 7.58 347.85 14.06
12/21/2020 3:00:00 AM 0 32 0.185 7.58 220.48 14.06
12/21/2020 3:15:00 AM 0 32 0.185 7.58 38.32 14.05
12/21/2020 3:30:00 AM 0 32 0.185 7.58 4.84 14.05
12/21/2020 3:45:00 AM 0 32 0.185 7.58 7.08 14.05
12/21/2020 4:00:00 AM 0 32 0.185 7.58 6.68 14.05
12/21/2020 4:15:00 AM 0 32 0.185 7.58 10.88 14.04
12/21/2020 4:30:00 AM 0 32 0.185 7.58 11.66 14.05
12/21/2020 4:45:00 AM 0 32 0.185 7.58 13.89 14.04
12/21/2020 5:00:00 AM 0 32 0.185 7.58 176.42 14.04
12/21/2020 5:15:00 AM 0 32 0.185 7.58 296.39 14.04
12/21/2020 5:30:00 AM 0 32 0.185 7.58 5.68 14.05
12/21/2020 5:45:00 AM 0 32 0.185 7.58 65.06 14.04
12/21/2020 6:00:00 AM 0 32 0.185 7.58 9.76 14.05
12/21/2020 6:15:00 AM 0 32 0.185 7.58 9.93 14.04
12/21/2020 6:30:00 AM 0 32 0.185 7.58 47.19 14.05
12/21/2020 6:45:00 AM 0 32 0.185 7.58 6.7 14.04
12/21/2020 7:00:00 AM 0 32 0.185 7.58 62.81 14.05
12/21/2020 7:15:00 AM 0 32 0.185 7.57 5.72 14.05
12/21/2020 7:30:00 AM 0 32 0.185 7.58 8.74 14.05
12/21/2020 7:45:00 AM 0 32 0.185 7.58 12.05 14.05
12/21/2020 8:00:00 AM 0 32 0.185 7.58 10.71 14.07
12/21/2020 8:15:00 AM 0.01 32.018 0.185 7.58 14.65 14.12
12/21/2020 8:30:00 AM 0.01 32.018 0.184 7.59 6.94 14.16
12/21/2020 8:45:00 AM 0.01 32.018 0.184 7.59 5.61 14.23
12/21/2020 9:00:00 AM 0.01 32.018 0.184 7.6 70.31 14.28
12/21/2020 9:15:00 AM 0.01 32.018 0.184 7.61 5.46 14.36
12/21/2020 9:30:00 AM 0.02 32.036 0.184 7.63 134.71 14.47
12/21/2020 9:45:00 AM 0.02 32.036 0.184 7.65 7.25 14.59
12/21/2020 10:00:00 AM 0.03 32.054 0.184 7.67 8.26 14.71
12/21/2020 10:15:00 AM 0.03 32.054 0.184 7.7 7.98 14.86
12/21/2020 10:30:00 AM 0.04 32.072 0.184 7.72 30 14.94
12/21/2020 10:45:00 AM 0.03 32.054 0.184 7.73 20.46 14.98
12/21/2020 11:00:00 AM 0.03 32.054 0.183 7.75 23 15.06
12/21/2020 11:15:00 AM 0.03 32.054 0.183 7.77 14.99 15.16
12/21/2020 11:30:00 AM 0.03 32.054 0.183 7.79 46.07 15.19
12/21/2020 11:45:00 AM 0.03 32.054 0.183 7.82 71.75 15.25
12/21/2020 12:00:00 PM 0.02 32.036 0.183 7.83 53.03 15.25
12/21/2020 12:15:00 PM 0.02 32.036 0.182 7.85 80.39 15.32
12/21/2020 12:30:00 PM 0.02 32.036 0.182 7.88 10.18 15.34
12/21/2020 12:45:00 PM 0.03 32.054 0.182 7.9 18.72 15.37
12/21/2020 1:00:00 PM 0.03 32.054 0.182 7.92 207.42 15.4
12/21/2020 1:15:00 PM 0.03 32.054 0.182 7.94 100.8 15.42
12/21/2020 1:30:00 PM 0.03 32.054 0.182 7.95 101.25 15.44
12/21/2020 1:45:00 PM 0.03 32.054 0.181 7.97 18.96 15.48
12/21/2020 2:00:00 PM 0.03 32.054 0.181 7.98 206.35 15.47
12/21/2020 2:15:00 PM 0.02 32.036 0.181 8 14.91 15.48
12/21/2020 2:30:00 PM 0.02 32.036 0.181 8.01 23.87 15.47
12/21/2020 2:45:00 PM 0.02 32.036 0.181 8.01 5.23 15.44
12/21/2020 3:00:00 PM 0.02 32.036 0.181 8.01 39.43 15.41
12/21/2020 3:15:00 PM 0.02 32.036 0.181 8.01 113.17 15.38
12/21/2020 3:30:00 PM 0.02 32.036 0.181 8.01 12.89 15.32
12/21/2020 3:45:00 PM 0.01 32.018 0.181 8 207.29 15.27
12/21/2020 4:00:00 PM 0.01 32.018 0.181 7.98 7.13 15.19
12/21/2020 4:15:00 PM 0.01 32.018 0.181 7.96 62.38 15.09
12/21/2020 4:30:00 PM 0.01 32.018 0.181 7.94 7.1 14.99
12/21/2020 4:45:00 PM 0.01 32.018 0.181 7.91 13.46 14.9
12/21/2020 5:00:00 PM 0.01 32.018 0.182 7.89 8.14 14.8
12/21/2020 5:15:00 PM 0.01 32.018 0.182 7.86 6.88 14.71
12/21/2020 5:30:00 PM 0.01 32.018 0.182 7.83 12.04 14.63
12/21/2020 5:45:00 PM 0 32 0.182 7.81 6.95 14.54
12/21/2020 6:00:00 PM 0 32 0.182 7.79 11.06 14.46
12/21/2020 6:15:00 PM 0 32 0.182 7.77 8.26 14.4
12/21/2020 6:30:00 PM 0 32 0.182 7.75 10.21 14.35
12/21/2020 6:45:00 PM 0.01 32.018 0.182 7.73 8.52 14.31
12/21/2020 7:00:00 PM 0 32 0.182 7.72 178.7 14.27
12/21/2020 7:15:00 PM 0 32 0.182 7.71 25.23 14.24
12/21/2020 7:30:00 PM 0 32 0.182 7.7 14.09 14.22
12/21/2020 7:45:00 PM 0 32 0.182 7.69 11.54 14.2
12/21/2020 8:00:00 PM 0 32 0.182 7.68 7.71 14.19
12/21/2020 8:15:00 PM 0 32 0.182 7.68 9.11 14.18
12/21/2020 8:30:00 PM 0 32 0.183 7.67 16.02 14.16
12/21/2020 8:45:00 PM 0 32 0.183 7.67 5.93 14.16
12/21/2020 9:00:00 PM 0 32 0.183 7.66 7.91 14.15
12/21/2020 9:15:00 PM 0 32 0.183 7.66 6.18 14.15
12/21/2020 9:30:00 PM 0 32 0.183 7.65 25.03 14.14
12/21/2020 9:45:00 PM 0 32 0.183 7.65 107.24 14.14
12/21/2020 10:00:00 PM 0 32 0.183 7.65 8.5 14.13
12/21/2020 10:15:00 PM 0 32 0.183 7.64 9.56 14.11
12/21/2020 10:30:00 PM 0 32 0.183 7.64 195.91 14.12
12/21/2020 10:45:00 PM 0 32 0.182 7.64 5.85 14.11
12/21/2020 11:00:00 PM 0 32 0.182 7.64 126.99 14.11
12/21/2020 11:15:00 PM 0 32 0.182 7.64 132.52 14.1
12/21/2020 11:30:00 PM 0 32 0.182 7.63 7.07 14.09
12/21/2020 11:45:00 PM 0 32 0.182 7.63 126.44 14.1
12/22/2020 12:00:00 AM 0.01 32.018 0.182 7.63 22.67 14.09
12/22/2020 12:15:00 AM 0 32 0.182 7.63 36.77 14.09
12/22/2020 12:30:00 AM 0 32 0.182 7.63 8.1 14.09
12/22/2020 12:45:00 AM 0 32 0.182 7.63 11.81 14.09
12/22/2020 1:00:00 AM 0 32 0.182 7.63 190.54 14.09
12/22/2020 1:15:00 AM 0 32 0.182 7.62 6.91 14.08
12/22/2020 1:30:00 AM 0 32 0.182 7.62 6.98 14.08
12/22/2020 1:45:00 AM 0 32 0.182 7.62 10.49 14.08
12/22/2020 2:00:00 AM 0 32 0.182 7.62 11.38 14.07
12/22/2020 2:15:00 AM 0 32 0.182 7.62 10.07 14.08
12/22/2020 2:30:00 AM 0 32 0.182 7.62 82.75 14.07
12/22/2020 2:45:00 AM 0 32 0.182 7.62 11.78 14.08
12/22/2020 3:00:00 AM 0 32 0.182 7.62 120.08 14.09
12/22/2020 3:15:00 AM 0 32 0.182 7.62 10.27 14.09
12/22/2020 3:30:00 AM 0 32 0.182 7.62 7.27 14.09
12/22/2020 3:45:00 AM -0.01 31.982 0.182 7.62 5.25 14.09
12/22/2020 4:00:00 AM -0.01 31.982 0.182 7.62 43.72 14.1
12/22/2020 4:15:00 AM -0.01 31.982 0.182 7.62 66.31 14.1
12/22/2020 4:30:00 AM 0 32 0.182 7.62 87.31 14.11
12/22/2020 4:45:00 AM 0 32 0.182 7.62 256.32 14.1
12/22/2020 5:00:00 AM 0 32 0.182 7.62 23.64 14.11
12/22/2020 5:15:00 AM 0 32 0.182 7.62 10.15 14.12
12/22/2020 5:30:00 AM 0 32 0.182 7.62 7.92 14.13
12/22/2020 5:45:00 AM 0 32 0.182 7.62 7.5 14.13
12/22/2020 6:00:00 AM 0 32 0.182 7.62 23.32 14.14
12/22/2020 6:15:00 AM 0 32 0.182 7.62 370.46 14.13
12/22/2020 6:30:00 AM 0 32 0.182 7.62 36.03 14.13
12/22/2020 6:45:00 AM 0 32 0.182 7.62 7.6 14.14
12/22/2020 7:00:00 AM 0 32 0.182 7.62 30.61 14.14
12/22/2020 7:15:00 AM 0 32 0.182 7.62 7.23 14.14
12/22/2020 7:30:00 AM 0 32 0.182 7.62 8.95 14.14
12/22/2020 7:45:00 AM 0 32 0.182 7.62 11.09 14.14
12/22/2020 8:00:00 AM 0 32 0.182 7.62 7.84 14.15
12/22/2020 8:15:00 AM 0 32 0.182 7.62 8.81 14.2
12/22/2020 8:30:00 AM 0.01 32.018 0.182 7.63 107.89 14.26
12/22/2020 8:45:00 AM 0.01 32.018 0.182 7.64 13.63 14.31
12/22/2020 9:00:00 AM 0.01 32.018 0.182 7.65 13.03 14.37
12/22/2020 9:15:00 AM 0.01 32.018 0.182 7.66 12.55 14.43
12/22/2020 9:30:00 AM 0.01 32.018 0.182 7.67 8.84 14.55
12/22/2020 9:45:00 AM 0.02 32.036 0.182 7.7 20.77 14.68
12/22/2020 10:00:00 AM 0.03 32.054 0.181 7.73 13.46 14.82
12/22/2020 10:15:00 AM 0.03 32.054 0.181 7.76 8 14.97
12/22/2020 10:30:00 AM 0.03 32.054 0.181 7.79 21.7 15.12
12/22/2020 10:45:00 AM 0.03 32.054 0.181 7.83 8.82 15.24
12/22/2020 11:00:00 AM 0.04 32.072 0.181 7.87 11 15.35
12/22/2020 11:15:00 AM 0.05 32.09 0.18 7.91 8.57 15.45
12/22/2020 11:30:00 AM 0.05 32.09 0.18 7.96 6.95 15.52
12/22/2020 11:45:00 AM 0.05 32.09 0.18 8 15.54 15.59
12/22/2020 12:00:00 PM 0.05 32.09 0.18 8.04 8.62 15.65
12/22/2020 12:15:00 PM 0.05 32.09 0.18 8.09 12.5 15.67
12/22/2020 12:30:00 PM 0.05 32.09 0.179 8.11 10.99 15.69
12/22/2020 12:45:00 PM 0.05 32.09 0.179 8.14 125.43 15.72
12/22/2020 1:00:00 PM 0.06 32.108 0.179 8.17 8.44 15.71
12/22/2020 1:15:00 PM 0.06 32.108 0.179 8.19 12.52 15.72
12/22/2020 1:30:00 PM 0.05 32.09 0.179 8.21 6.17 15.71
12/22/2020 1:45:00 PM 0.05 32.09 0.179 8.23 280.78 15.72
12/22/2020 2:00:00 PM 0.05 32.09 0.179 8.25 216.26 15.72
12/22/2020 2:15:00 PM 0.05 32.09 0.179 8.26 207.08 15.71
12/22/2020 2:30:00 PM 0.04 32.072 0.179 8.26 10.74 15.68
12/22/2020 2:45:00 PM 0.04 32.072 0.179 8.26 12.02 15.66
12/22/2020 3:00:00 PM 0.03 32.054 0.179 8.25 11.94 15.59
12/22/2020 3:15:00 PM 0.02 32.036 0.179 8.23 7.45 15.53
12/22/2020 3:30:00 PM 0.02 32.036 0.179 8.21 157.16 15.47
12/22/2020 3:45:00 PM 0.02 32.036 0.179 8.17 12.03 15.37
12/22/2020 4:00:00 PM 0.02 32.036 0.179 8.13 84.68 15.26
12/22/2020 4:15:00 PM 0.01 32.018 0.179 8.09 7 15.16
12/22/2020 4:30:00 PM 0.01 32.018 0.179 8.05 6.76 15.04
12/22/2020 4:45:00 PM 0.01 32.018 0.179 8.01 5.83 14.94
12/22/2020 5:00:00 PM 0.01 32.018 0.179 7.97 46.12 14.84
12/22/2020 5:15:00 PM 0.01 32.018 0.179 7.93 8.25 14.75
12/22/2020 5:30:00 PM 0.01 32.018 0.18 7.9 247.94 14.66
12/22/2020 5:45:00 PM 0.01 32.018 0.18 7.87 281.81 14.6
12/22/2020 6:00:00 PM 0.01 32.018 0.18 7.84 6.04 14.55
12/22/2020 6:15:00 PM 0.01 32.018 0.18 7.81 12.67 14.51
12/22/2020 6:30:00 PM 0.01 32.018 0.18 7.8 390.84 14.47
12/22/2020 6:45:00 PM 0.01 32.018 0.18 7.78 7.51 14.45
12/22/2020 7:00:00 PM 0.01 32.018 0.18 7.77 85.4 14.44
12/22/2020 7:15:00 PM 0.01 32.018 0.18 7.76 13.45 14.42
12/22/2020 7:30:00 PM 0.01 32.018 0.18 7.75 73.62 14.41
12/22/2020 7:45:00 PM 0.01 32.018 0.18 7.74 13.69 14.4
12/22/2020 8:00:00 PM 0.01 32.018 0.18 7.73 7.14 14.41
12/22/2020 8:15:00 PM 0.01 32.018 0.18 7.73 204.43 14.4
12/22/2020 8:30:00 PM 0.01 32.018 0.18 7.72 6.2 14.4
12/22/2020 8:45:00 PM 0.01 32.018 0.18 7.72 32.91 14.4
12/22/2020 9:00:00 PM 0.01 32.018 0.18 7.72 13.91 14.39
12/22/2020 9:15:00 PM 0.01 32.018 0.18 7.71 6.98 14.39
12/22/2020 9:30:00 PM 0.01 32.018 0.18 7.71 95.85 14.4
12/22/2020 9:45:00 PM 0.01 32.018 0.18 7.7 14.66 14.4
12/22/2020 10:00:00 PM 0.01 32.018 0.18 7.7 6.79 14.41
12/22/2020 10:15:00 PM 0.01 32.018 0.18 7.7 9.47 14.4
12/22/2020 10:30:00 PM 0.01 32.018 0.18 7.7 6.95 14.41
12/22/2020 10:45:00 PM 0.01 32.018 0.18 7.69 149.34 14.42
12/22/2020 11:00:00 PM 0 32 0.18 7.69 233.96 14.41
12/22/2020 11:15:00 PM 0 32 0.18 7.69 224.39 14.42
12/22/2020 11:30:00 PM 0.01 32.018 0.18 7.69 38.25 14.43
12/22/2020 11:45:00 PM 0.01 32.018 0.18 7.69 53.58 14.42
12/23/2020 12:00:00 AM 0.01 32.018 0.18 7.69 153.08 14.42
12/23/2020 12:15:00 AM 0.01 32.018 0.18 7.68 162.37 14.43
12/23/2020 12:30:00 AM 0 32 0.18 7.68 66.11 14.43
12/23/2020 12:45:00 AM 0 32 0.18 7.68 15.41 14.43
12/23/2020 1:00:00 AM 0 32 0.18 7.68 60.93 14.43
12/23/2020 1:15:00 AM 0 32 0.18 7.68 555.68 14.44
12/23/2020 1:30:00 AM 0 32 0.18 7.68 12.43 14.44
12/23/2020 1:45:00 AM 0 32 0.18 7.68 11.26 14.45
12/23/2020 2:00:00 AM 0 32 0.18 7.67 13.03 14.44
12/23/2020 2:15:00 AM 0 32 0.18 7.67 11.34 14.44
12/23/2020 2:30:00 AM 0.01 32.018 0.18 7.67 6.89 14.45
12/23/2020 2:45:00 AM 0.01 32.018 0.18 7.67 6.36 14.46
12/23/2020 3:00:00 AM 0.01 32.018 0.18 7.67 38.23 14.47
12/23/2020 3:15:00 AM 0.01 32.018 0.18 7.67 7.03 14.47
12/23/2020 3:30:00 AM 0.01 32.018 0.18 7.67 9.73 14.45
12/23/2020 3:45:00 AM 0.01 32.018 0.18 7.67 11.48 14.45
12/23/2020 4:00:00 AM 0.01 32.018 0.18 7.66 46.16 14.46
12/23/2020 4:15:00 AM 0.01 32.018 0.18 7.66 225.94 14.47
12/23/2020 4:30:00 AM 0.01 32.018 0.18 7.66 116.04 14.46
12/23/2020 4:45:00 AM 0.01 32.018 0.18 7.66 216.74 14.46
12/23/2020 5:00:00 AM 0.01 32.018 0.18 7.66 217.67 14.47
12/23/2020 5:15:00 AM 0.01 32.018 0.18 7.66 8.63 14.47
12/23/2020 5:30:00 AM 0 32 0.18 7.66 79.89 14.48
12/23/2020 5:45:00 AM 0 32 0.18 7.66 30.38 14.47
12/23/2020 6:00:00 AM 0 32 0.18 7.65 10.03 14.48
12/23/2020 6:15:00 AM -0.01 31.982 0.18 7.65 9.08 14.49
12/23/2020 6:30:00 AM -0.01 31.982 0.18 7.65 84.9 14.49
12/23/2020 6:45:00 AM -0.01 31.982 0.18 7.65 13.22 14.51
12/23/2020 7:00:00 AM -0.01 31.982 0.18 7.65 10.44 14.52
12/23/2020 7:15:00 AM -0.01 31.982 0.18 7.65 7.12 14.54
12/23/2020 7:30:00 AM -0.01 31.982 0.18 7.65 19.52 14.56
12/23/2020 7:45:00 AM -0.01 31.982 0.18 7.65 1032.42 14.58
12/23/2020 8:00:00 AM -0.01 31.982 0.18 7.66 21.67 14.63
12/23/2020 8:15:00 AM -0.01 31.982 0.18 7.66 6.02 14.7
12/23/2020 8:30:00 AM 0 32 0.18 7.68 8.18 14.8
12/23/2020 8:45:00 AM 0 32 0.18 7.7 56.47 14.93
12/23/2020 9:00:00 AM 0.01 32.018 0.18 7.72 13.3 15.09
12/23/2020 9:15:00 AM 0.03 32.054 0.18 7.76 7.64 15.26
12/23/2020 9:30:00 AM 0.04 32.072 0.179 7.8 92.81 15.42
12/23/2020 9:45:00 AM 0.04 32.072 0.179 7.84 6.28 15.59
12/23/2020 10:00:00 AM 0.05 32.09 0.178 7.89 33.27 15.71
12/23/2020 10:15:00 AM 0.05 32.09 0.178 7.94 6.2 15.81
12/23/2020 10:30:00 AM 0.06 32.108 0.177 7.99 6 15.89
12/23/2020 10:45:00 AM 0.08 32.144 0.177 8.03 6.37 15.93
12/23/2020 11:00:00 AM 0.09 32.162 0.176 8.08 13.75 15.94
12/23/2020 11:15:00 AM 0.1 32.18 0.176 8.11 23.76 15.95
12/23/2020 11:30:00 AM 0.1 32.18 0.177 8.15 6.47 15.95
12/23/2020 11:45:00 AM 0.12 32.216 0.176 8.18 10.79 15.95
12/23/2020 12:00:00 PM 0.14 32.252 0.176 8.21 11.54 15.97
12/23/2020 12:15:00 PM 0.14 32.252 0.176 8.23 9.1 15.95
12/23/2020 12:30:00 PM 0.15 32.27 0.176 8.26 48.17 15.94
12/23/2020 12:45:00 PM 0.16 32.288 0.176 8.28 6.52 15.93
12/23/2020 1:00:00 PM 0.17 32.306 0.176 8.3 6.49 15.91
12/23/2020 1:15:00 PM 0.18 32.324 0.176 8.31 12.93 15.87
12/23/2020 1:30:00 PM 0.19 32.342 0.176 8.31 8.71 15.85
12/23/2020 1:45:00 PM 0.19 32.342 0.176 8.31 10.53 15.82
12/23/2020 2:00:00 PM 0.2 32.36 0.176 8.32 9.94 15.78
12/23/2020 2:15:00 PM 0.21 32.378 0.176 8.33 63.04 15.76
12/23/2020 2:30:00 PM 0.21 32.378 0.176 8.33 8.82 15.71
12/23/2020 2:45:00 PM 0.21 32.378 0.176 8.32 9.38 15.69
12/23/2020 3:00:00 PM 0.2 32.36 0.176 8.32 67.71 15.65
12/23/2020 3:15:00 PM 0.19 32.342 0.176 8.31 21.18 15.61
12/23/2020 3:30:00 PM 0.2 32.36 0.176 8.29 29.48 15.58
12/23/2020 3:45:00 PM 0.2 32.36 0.176 8.27 57.92 15.52
12/23/2020 4:00:00 PM 0.22 32.396 0.176 8.25 15.42 15.47
12/23/2020 4:15:00 PM 0.22 32.396 0.176 8.22 510.77 15.4
12/23/2020 4:30:00 PM 0.21 32.378 0.176 8.17 31.53 15.29
12/23/2020 4:45:00 PM 0.21 32.378 0.176 8.13 37.57 15.16
12/23/2020 5:00:00 PM 0.21 32.378 0.177 8.07 37.02 15.04
12/23/2020 5:15:00 PM 0.2 32.36 0.177 8.02 65.3 14.89
12/23/2020 5:30:00 PM 0.2 32.36 0.177 7.97 268.72 14.8
12/23/2020 5:45:00 PM 0.19 32.342 0.177 7.93 65.45 14.71
12/23/2020 6:00:00 PM 0.19 32.342 0.177 7.89 144.16 14.67
12/23/2020 6:15:00 PM 0.18 32.324 0.177 7.86 32.99 14.62
12/23/2020 6:30:00 PM 0.17 32.306 0.177 7.84 22.84 14.57
12/23/2020 6:45:00 PM 0.17 32.306 0.177 7.82 27.91 14.55
12/23/2020 7:00:00 PM 0.17 32.306 0.177 7.8 51.92 14.55
12/23/2020 7:15:00 PM 0.16 32.288 0.177 7.78 37.28 14.53
12/23/2020 7:30:00 PM 0.17 32.306 0.177 7.77 124.38 14.51
12/23/2020 7:45:00 PM 0.17 32.306 0.177 7.76 114.97 14.5
12/23/2020 8:00:00 PM 0.18 32.324 0.177 7.76 6.56 14.51
12/23/2020 8:15:00 PM 0.18 32.324 0.177 7.75 6.86 14.49
12/23/2020 8:30:00 PM 0.18 32.324 0.177 7.74 7.57 14.5
12/23/2020 8:45:00 PM 0.18 32.324 0.177 7.73 17.5 14.49
12/23/2020 9:00:00 PM 0.17 32.306 0.177 7.73 14.76 14.47
12/23/2020 9:15:00 PM 0.17 32.306 0.177 7.73 14.13 14.48
12/23/2020 9:30:00 PM 0.18 32.324 0.177 7.72 284.19 14.46
12/23/2020 9:45:00 PM 0.18 32.324 0.177 7.72 105.76 14.46
12/23/2020 10:00:00 PM 0.19 32.342 0.177 7.72 10 14.46
12/23/2020 10:15:00 PM 0.19 32.342 0.177 7.71 294.49 14.45
12/23/2020 10:30:00 PM 0.19 32.342 0.177 7.71 10.38 14.44
12/23/2020 10:45:00 PM 0.19 32.342 0.177 7.71 110.67 14.45
12/23/2020 11:00:00 PM 0.19 32.342 0.177 7.7 28.48 14.44
12/23/2020 11:15:00 PM 0.2 32.36 0.177 7.7 11.39 14.44
12/23/2020 11:30:00 PM 0.21 32.378 0.177 7.7 8.36 14.43
12/23/2020 11:45:00 PM 0.21 32.378 0.177 7.7 9.29 14.42
12/24/2020 12:00:00 AM 0.22 32.396 0.177 7.7 53.3 14.4
12/24/2020 12:15:00 AM 0.23 32.414 0.177 7.69 9.9 14.4
12/24/2020 12:30:00 AM 0.23 32.414 0.177 7.69 11.83 14.38
12/24/2020 12:45:00 AM 0.23 32.414 0.177 7.69 6.52 14.39
12/24/2020 1:00:00 AM 0.25 32.45 0.177 7.69 8.02 14.37
12/24/2020 1:15:00 AM 0.23 32.414 0.177 7.69 11.98 14.38
12/24/2020 1:30:00 AM 0.24 32.432 0.177 7.69 15.08 14.36
12/24/2020 1:45:00 AM 0.24 32.432 0.177 7.69 88.2 14.37
12/24/2020 2:00:00 AM 0.24 32.432 0.177 7.68 13.91 14.36
12/24/2020 2:15:00 AM 0.25 32.45 0.177 7.68 357.46 14.36
12/24/2020 2:30:00 AM 0.25 32.45 0.177 7.68 8.78 14.36
12/24/2020 2:45:00 AM 0.26 32.468 0.177 7.68 8.13 14.36
12/24/2020 3:00:00 AM 0.26 32.468 0.177 7.68 28.07 14.36
12/24/2020 3:15:00 AM 0.26 32.468 0.177 7.68 10.88 14.36
12/24/2020 3:30:00 AM 0.26 32.468 0.177 7.68 16.18 14.35
12/24/2020 3:45:00 AM 0.28 32.504 0.177 7.68 10.81 14.35
12/24/2020 4:00:00 AM 0.28 32.504 0.177 7.68 335.95 14.35
12/24/2020 4:15:00 AM 0.28 32.504 0.177 7.68 15.83 14.35
12/24/2020 4:30:00 AM 0.28 32.504 0.177 7.68 372.33 14.33
12/24/2020 4:45:00 AM 0.31 32.558 0.177 7.67 11.61 14.34
12/24/2020 5:00:00 AM 0.32 32.576 0.177 7.67 10.86 14.32
12/24/2020 5:15:00 AM 0.34 32.612 0.177 7.67 37.13 14.32
12/24/2020 5:30:00 AM 0.34 32.612 0.177 7.67 123.71 14.32
12/24/2020 5:45:00 AM 0.36 32.648 0.177 7.67 408.68 14.31
12/24/2020 6:00:00 AM 0.38 32.684 0.177 7.67 15.91 14.29
12/24/2020 6:15:00 AM 0.39 32.702 0.177 7.67 306.62 14.28
12/24/2020 6:30:00 AM 0.4 32.72 0.177 7.67 113.85 14.28
12/24/2020 6:45:00 AM 0.44 32.792 0.177 7.67 13.07 14.26
12/24/2020 7:00:00 AM 0.45 32.81 0.177 7.67 8.52 14.27
12/24/2020 7:15:00 AM 0.48 32.864 0.177 7.67 67.92 14.24
12/24/2020 7:30:00 AM 0.48 32.864 0.177 7.67 14.54 14.25
12/24/2020 7:45:00 AM 0.5 32.9 0.177 7.67 12.96 14.24
12/24/2020 8:00:00 AM 0.5 32.9 0.176 7.67 11.21 14.24
12/24/2020 8:15:00 AM 0.52 32.936 0.176 7.67 111.7 14.28
12/24/2020 8:30:00 AM 0.52 32.936 0.176 7.68 448.17 14.29
12/24/2020 8:45:00 AM 0.53 32.954 0.176 7.68 49.28 14.35
12/24/2020 9:00:00 AM 0.55 32.99 0.176 7.7 37.49 14.45
12/24/2020 9:15:00 AM 0.55 32.99 0.175 7.72 44.3 14.54
12/24/2020 9:30:00 AM 0.59 33.062 0.175 7.75 13.09 14.68
12/24/2020 9:45:00 AM 0.61 33.098 0.175 7.78 15.58 14.8
12/24/2020 10:00:00 AM 0.62 33.116 0.174 7.81 916.14 14.92
12/24/2020 10:15:00 AM 0.64 33.152 0.174 7.85 9.69 15.03
12/24/2020 10:30:00 AM 0.67 33.206 0.174 7.88 20.9 15.1
12/24/2020 10:45:00 AM 0.71 33.278 0.173 7.91 12.6 15.17
12/24/2020 11:00:00 AM 0.74 33.332 0.173 7.94 66.83 15.21
12/24/2020 11:15:00 AM 0.73 33.314 0.173 7.97 8.61 15.23
12/24/2020 11:30:00 AM 0.73 33.314 0.173 7.98 12.04 15.24
12/24/2020 11:45:00 AM 0.72 33.296 0.172 7.99 11.45 15.22
12/24/2020 12:00:00 PM 0.75 33.35 0.172 8 33.46 15.2
12/24/2020 12:15:00 PM 0.73 33.314 0.171 8 9.23 15.18
12/24/2020 12:30:00 PM 0.75 33.35 0.171 8 42.23 15.13
12/24/2020 12:45:00 PM 0.75 33.35 0.171 8 16.09 15.13
12/24/2020 1:00:00 PM 0.74 33.332 0.17 7.99 52.77 15.11
12/24/2020 1:15:00 PM 0.72 33.296 0.17 7.99 295.61 15.07
12/24/2020 1:30:00 PM 0.7 33.26 0.169 7.98 104.14 15.03
12/24/2020 1:45:00 PM 0.66 33.188 0.169 7.96 31.75 14.98
12/24/2020 2:00:00 PM 0.62 33.116 0.169 7.95 41.75 14.95
12/24/2020 2:15:00 PM 0.59 33.062 0.168 7.93 34.95 14.9
12/24/2020 2:30:00 PM 0.56 33.008 0.168 7.91 31.78 14.85
12/24/2020 2:45:00 PM 0.52 32.936 0.168 7.87 48.4 14.76
12/24/2020 3:00:00 PM 0.46 32.828 0.169 7.83 21.48 14.64
12/24/2020 3:15:00 PM 0.41 32.738 0.174 7.77 66.79 14.53
12/24/2020 3:30:00 PM 0.36 32.648 0.176 7.73 30.26 14.46
12/24/2020 3:45:00 PM 0.33 32.594 0.183 7.68 42.87 14.37
12/24/2020 4:00:00 PM 0.24 32.432 0.186 7.66 48.42 14.35
12/24/2020 4:15:00 PM 0.17 32.306 0.182 7.65 302.05 14.35
12/24/2020 4:30:00 PM 0.1 32.18 0.176 7.45 93.21 14.34
12/24/2020 4:45:00 PM 0.06 32.108 0.175 7.39 178.09 14.31
12/24/2020 5:00:00 PM 0.07 32.126 0.184 7.29 246.87 14.31
12/24/2020 5:15:00 PM 0.08 32.144 0.183 7.3 201.45 14.31
12/24/2020 5:30:00 PM 0.03 32.054 0.172 7.36 410.21 14.33
12/24/2020 5:45:00 PM 0.08 32.144 0.118 7.29 375.43 14.33
12/24/2020 6:00:00 PM 0.06 32.108 0.152 7.32 439.98 14.32
12/24/2020 6:15:00 PM -0.02 31.964 0.13 7.27 468.72 14.26
12/24/2020 6:30:00 PM 0.07 32.126 0.135 7.18 564.26 14.3
12/24/2020 6:45:00 PM 0.09 32.162 0.13 7.16 647.19 14.3
12/24/2020 7:00:00 PM 0.11 32.198 0.125 7.19 492.35 14.3
12/24/2020 7:15:00 PM 0.12 32.216 0.12 7.2 584.53 14.27
12/24/2020 7:30:00 PM 0.1 32.18 0.115 7.16 734.12 14.27
12/24/2020 7:45:00 PM 0.12 32.216 0.111 7.02 557.17 14.26
12/24/2020 8:00:00 PM 0.13 32.234 0.108 7.01 532.52 14.28
12/24/2020 8:15:00 PM 0.13 32.234 0.106 7 604.9 14.25
12/24/2020 8:30:00 PM 0.13 32.234 0.102 6.98 699.7 14.25
12/24/2020 8:45:00 PM 0.16 32.288 0.097 6.97 723.17 14.26
12/24/2020 9:00:00 PM 0.15 32.27 0.095 6.96 603.07 14.25
12/24/2020 9:15:00 PM 0.15 32.27 0.092 6.93 602.14 14.23
12/24/2020 9:30:00 PM 0.2 32.36 0.09 6.93 588.65 14.23
12/24/2020 9:45:00 PM 0.23 32.414 0.088 6.98 621.49 14.2
12/24/2020 10:00:00 PM 0.25 32.45 0.086 6.86 582.08 14.21
12/24/2020 10:15:00 PM 0.29 32.522 0.06 6.89 601.4 14.2
12/24/2020 10:30:00 PM 0.32 32.576 0.062 6.89 676.27 14.19
12/24/2020 10:45:00 PM 0.37 32.666 0.065 6.92 649.96 14.18
12/24/2020 11:00:00 PM 0.43 32.774 0.062 6.94 662.71 14.16
12/24/2020 11:15:00 PM 0.47 32.846 0.06 6.96 642.34 14.13
12/24/2020 11:30:00 PM 0.51 32.918 0.055 6.97 474.1 14.1
12/24/2020 11:45:00 PM 0.6 33.08 0.056 6.98 487.21 14.07
12/25/2020 12:00:00 AM 0.66 33.188 0.054 6.99 447.67 14.05
12/25/2020 12:15:00 AM 0.73 33.314 0.054 6.98 313.46 14.02
12/25/2020 12:30:00 AM 0.81 33.458 0.055 7 812.84 14
12/25/2020 12:45:00 AM 0.88 33.584 0.056 7 1556.11 13.97
12/25/2020 1:00:00 AM 0.96 33.728 0.055 7.01 1125.69 13.95
12/25/2020 1:15:00 AM 1.02 33.836 0.055 7 1136.46 13.93
12/25/2020 1:30:00 AM 1.09 33.962 0.056 7.02 1235.14 13.9
12/25/2020 1:45:00 AM 1.17 34.106 0.055 7.03 1042.9 13.89
12/25/2020 2:00:00 AM 1.24 34.232 0.056 7.04 555.11 13.87
12/25/2020 2:15:00 AM 1.3 34.34 0.056 7.03 264.75 13.85
12/25/2020 2:30:00 AM 1.36 34.448 0.056 7.04 275.79 13.83
12/25/2020 2:45:00 AM 1.4 34.52 0.055 7.04 377.65 13.82
12/25/2020 3:00:00 AM 1.44 34.592 0.054 7.03 275.73 13.8
12/25/2020 3:15:00 AM 1.47 34.646 0.054 7.03 281.44 13.8
12/25/2020 3:30:00 AM 1.48 34.664 0.054 7.02 301.05 13.79
12/25/2020 3:45:00 AM 1.47 34.646 0.052 7.03 301.24 13.79
12/25/2020 4:00:00 AM 1.44 34.592 0.052 7.03 633.93 13.81
12/25/2020 4:15:00 AM 1.38 34.484 0.052 7.04 484.1 13.83
12/25/2020 4:30:00 AM 1.33 34.394 0.052 7.03 718.39 13.85
12/25/2020 4:45:00 AM 1.3 34.34 0.052 7.03 834.43 13.85
12/25/2020 5:00:00 AM 1.3 34.34 0.052 6.89 626.03 13.86
12/25/2020 5:15:00 AM 1.32 34.376 0.051 6.91 1312.19 13.86
12/25/2020 5:30:00 AM 1.35 34.43 0.05 6.95 1101.87 13.85
12/25/2020 5:45:00 AM 1.39 34.502 0.05 6.96 696.71 13.84
12/25/2020 6:00:00 AM 1.44 34.592 0.05 6.97 568.41 13.84
12/25/2020 6:15:00 AM 1.48 34.664 0.05 6.97 1325.39 13.83
12/25/2020 6:30:00 AM 1.52 34.736 0.05 6.98 898.73 13.81
12/25/2020 6:45:00 AM 1.57 34.826 0.05 6.99 504.29 13.79
12/25/2020 7:00:00 AM 1.61 34.898 0.05 7 555.21 13.78
12/25/2020 7:15:00 AM 1.65 34.97 0.05 7 982.94 13.77
12/25/2020 7:30:00 AM 1.69 35.042 0.05 7.01 597.81 13.76
12/25/2020 7:45:00 AM 1.72 35.096 0.05 7.02 720.48 13.76
12/25/2020 8:00:00 AM 1.75 35.15 0.05 7.03 998.96 13.75
12/25/2020 8:15:00 AM 1.76 35.168 0.05 7.04 635.15 13.73
12/25/2020 8:30:00 AM 1.79 35.222 0.05 7.05 1135.84 13.73
12/25/2020 8:45:00 AM 1.8 35.24 0.05 7.04 255.36 13.73
12/25/2020 9:00:00 AM 1.81 35.258 0.051 7.07 444.83 13.71
12/25/2020 9:15:00 AM 1.83 35.294 0.051 7.05 582.85 13.71
12/25/2020 9:30:00 AM 1.86 35.348 0.051 7.06 1388.95 13.71
12/25/2020 9:45:00 AM 1.88 35.384 0.051 7.07 799.29 13.7
12/25/2020 10:00:00 AM 1.9 35.42 0.052 7.07 1257.44 13.7
12/25/2020 10:15:00 AM 1.93 35.474 0.052 7.08 584.14 13.69
12/25/2020 10:30:00 AM 1.96 35.528 0.052 7.08 988.08 13.68
12/25/2020 10:45:00 AM 1.99 35.582 0.053 7.08 1302.37 13.68
12/25/2020 11:00:00 AM 2.01 35.618 0.053 7.09 1004.95 13.67
12/25/2020 11:15:00 AM 2.03 35.654 0.053 7.09 552.85 13.66
12/25/2020 11:30:00 AM 2.05 35.69 0.054 7.09 814.97 13.65
12/25/2020 11:45:00 AM 2.07 35.726 0.054 7.17 308.32 13.65
12/25/2020 12:00:00 PM 2.09 35.762 0.054 7.13 913.86 13.63
12/25/2020 12:15:00 PM 2.12 35.816 0.054 7.1 803.02 13.63
12/25/2020 12:30:00 PM 2.13 35.834 0.054 7.1 1228.62 13.62
12/25/2020 12:45:00 PM 2.15 35.87 0.054 7.12 371.72 13.61
12/25/2020 1:00:00 PM 2.17 35.906 0.055 7.11 353.81 13.6
12/25/2020 1:15:00 PM 2.19 35.942 0.055 7.11 508.11 13.6
12/25/2020 1:30:00 PM 2.21 35.978 0.055 7.12 325.76 13.59
12/25/2020 1:45:00 PM 2.23 36.014 0.055 7.12 405.31 13.59
12/25/2020 2:00:00 PM 2.25 36.05 0.055 7.12 1305.86 13.58
12/25/2020 2:15:00 PM 2.27 36.086 0.056 7.13 908.99 13.57
12/25/2020 2:30:00 PM 2.28 36.104 0.056 7.13 1543.7 13.56
12/25/2020 2:45:00 PM 2.29 36.122 0.056 7.13 719.34 13.56
12/25/2020 3:00:00 PM 2.3 36.14 0.056 7.13 1286.16 13.56
12/25/2020 3:15:00 PM 2.31 36.158 0.056 7.13 612.86 13.55
12/25/2020 3:30:00 PM 2.32 36.176 0.057 7.13 470.32 13.55
12/25/2020 3:45:00 PM 2.32 36.176 0.057 7.13 445.59 13.55
12/25/2020 4:00:00 PM 2.33 36.194 0.057 7.14 982.73 13.54
12/25/2020 4:15:00 PM 2.32 36.176 0.057 7.14 235.23 13.54
12/25/2020 4:30:00 PM 2.32 36.176 0.057 7.17 196.87 13.53
12/25/2020 4:45:00 PM 2.31 36.158 0.057 7.19 182.1 13.54
12/25/2020 5:00:00 PM 2.3 36.14 0.057 7.19 205.74 13.54
12/25/2020 5:15:00 PM 2.29 36.122 0.057 7.19 139.65 13.54
12/25/2020 5:30:00 PM 2.28 36.104 0.058 7.17 218.42 13.55
12/25/2020 5:45:00 PM 2.27 36.086 0.058 7.13 366.18 13.56
12/25/2020 6:00:00 PM 2.25 36.05 0.058 7.13 455.63 13.56
12/25/2020 6:15:00 PM 2.24 36.032 0.058 7.14 362.16 13.57
12/25/2020 6:30:00 PM 2.21 35.978 0.058 7.14 378.58 13.57
12/25/2020 6:45:00 PM 2.19 35.942 0.059 7.14 751.72 13.58
12/25/2020 7:00:00 PM 2.16 35.888 0.059 7.14 366.86 13.59
12/25/2020 7:15:00 PM 2.14 35.852 0.059 7.15 615.82 13.6
12/25/2020 7:30:00 PM 2.11 35.798 0.059 7.15 489.57 13.61
12/25/2020 7:45:00 PM 2.08 35.744 0.059 7.14 1238.44 13.62
12/25/2020 8:00:00 PM 2.06 35.708 0.059 7.15 925.83 13.64
12/25/2020 8:15:00 PM 2.02 35.636 0.059 7.14 546.38 13.65
12/25/2020 8:30:00 PM 1.99 35.582 0.06 7.15 857.64 13.67
12/25/2020 8:45:00 PM 1.96 35.528 0.06 7.14 1451.98 13.68
12/25/2020 9:00:00 PM 1.92 35.456 0.06 7.15 718.29 13.69
12/25/2020 9:15:00 PM 1.88 35.384 0.06 7.15 373.36 13.7
12/25/2020 9:30:00 PM 1.85 35.33 0.06 7.16 986.25 13.71
12/25/2020 9:45:00 PM 1.81 35.258 0.06 7.15 513.17 13.73
12/25/2020 10:00:00 PM 1.77 35.186 0.06 7.15 766.32 13.75
12/25/2020 10:15:00 PM 1.74 35.132 0.06 7.15 498.11 13.77
12/25/2020 10:30:00 PM 1.71 35.078 0.06 7.16 701.3 13.77
12/25/2020 10:45:00 PM 1.67 35.006 0.06 7.16 395.8 13.79
12/25/2020 11:00:00 PM 1.64 34.952 0.06 7.16 635.44 13.81
12/25/2020 11:15:00 PM 1.61 34.898 0.061 7.16 1632.9 13.82
12/25/2020 11:30:00 PM 1.57 34.826 0.061 7.16 445.99 13.84
12/25/2020 11:45:00 PM 1.53 34.754 0.061 7.16 391.71 13.85
12/26/2020 12:00:00 AM 1.49 34.682 0.061 7.16 601.4 13.87
12/26/2020 12:15:00 AM 1.46 34.628 0.061 7.17 557.44 13.87
12/26/2020 12:30:00 AM 1.42 34.556 0.061 7.16 680.63 13.89
12/26/2020 12:45:00 AM 1.38 34.484 0.061 7.17 513.03 13.91
12/26/2020 1:00:00 AM 1.34 34.412 0.061 7.16 366.71 13.92
12/26/2020 1:15:00 AM 1.3 34.34 0.062 7.17 650.54 13.94
12/26/2020 1:30:00 AM 1.26 34.268 0.062 7.17 347.55 13.96
12/26/2020 1:45:00 AM 1.23 34.214 0.062 7.16 735.4 13.97
12/26/2020 2:00:00 AM 1.2 34.16 0.062 7.17 431.45 13.98
12/26/2020 2:15:00 AM 1.17 34.106 0.062 7.17 393.88 14
12/26/2020 2:30:00 AM 1.14 34.052 0.062 7.17 345.15 14.02
12/26/2020 2:45:00 AM 1.11 33.998 0.062 7.17 703.39 14.03
12/26/2020 3:00:00 AM 1.09 33.962 0.062 7.17 350.59 14.04
12/26/2020 3:15:00 AM 1.07 33.926 0.062 7.17 376 14.06
12/26/2020 3:30:00 AM 1.04 33.872 0.063 7.17 445.22 14.06
12/26/2020 3:45:00 AM 1.02 33.836 0.063 7.18 554.82 14.07
12/26/2020 4:00:00 AM 1 33.8 0.063 7.17 262.75 14.08
12/26/2020 4:15:00 AM 0.98 33.764 0.063 7.17 486.33 14.09
12/26/2020 4:30:00 AM 0.95 33.71 0.063 7.17 497.25 14.1
12/26/2020 4:45:00 AM 0.93 33.674 0.063 7.18 464.89 14.11
12/26/2020 5:00:00 AM 0.91 33.638 0.063 7.18 440.2 14.12
12/26/2020 5:15:00 AM 0.88 33.584 0.063 7.18 502.55 14.13
12/26/2020 5:30:00 AM 0.86 33.548 0.063 7.18 496.71 14.14
12/26/2020 5:45:00 AM 0.84 33.512 0.063 7.18 482.41 14.15
12/26/2020 6:00:00 AM 0.81 33.458 0.064 7.18 339.33 14.17
12/26/2020 6:15:00 AM 0.78 33.404 0.064 7.18 396.66 14.17
12/26/2020 6:30:00 AM 0.75 33.35 0.064 7.18 755.59 14.19
12/26/2020 6:45:00 AM 0.72 33.296 0.064 7.18 483.22 14.2
12/26/2020 7:00:00 AM 0.68 33.224 0.064 7.18 407.64 14.21
12/26/2020 7:15:00 AM 0.65 33.17 0.064 7.19 445.23 14.23
12/26/2020 7:30:00 AM 0.62 33.116 0.064 7.19 449.1 14.24
12/26/2020 7:45:00 AM 0.6 33.08 0.064 7.18 667.46 14.25
12/26/2020 8:00:00 AM 0.59 33.062 0.064 7.18 1632.46 14.26
12/26/2020 8:15:00 AM 0.57 33.026 0.064 7.18 716.14 14.28
12/26/2020 8:30:00 AM 0.56 33.008 0.064 7.19 532.13 14.28
12/26/2020 8:45:00 AM 0.55 32.99 0.064 7.19 435.12 14.3
12/26/2020 9:00:00 AM 0.55 32.99 0.065 7.18 694.3 14.31
12/26/2020 9:15:00 AM 0.55 32.99 0.065 7.19 1037.04 14.32
12/26/2020 9:30:00 AM 0.55 32.99 0.065 7.19 703.25 14.33
12/26/2020 9:45:00 AM 0.56 33.008 0.064 7.19 761.23 14.33
12/26/2020 10:00:00 AM 0.57 33.026 0.064 7.19 780.87 14.33
12/26/2020 10:15:00 AM 0.58 33.044 0.064 7.2 498.7 14.34
12/26/2020 10:30:00 AM 0.61 33.098 0.065 7.19 569.71 14.34
12/26/2020 10:45:00 AM 0.63 33.134 0.065 7.2 780.66 14.34
12/26/2020 11:00:00 AM 0.65 33.17 0.065 7.2 514.99 14.33
12/26/2020 11:15:00 AM 0.67 33.206 0.065 7.2 530.21 14.33
12/26/2020 11:30:00 AM 0.69 33.242 0.065 7.2 663.1 14.32
12/26/2020 11:45:00 AM 0.72 33.296 0.065 7.21 422.19 14.32
12/26/2020 12:00:00 PM 0.74 33.332 0.066 7.21 636.26 14.31
12/26/2020 12:15:00 PM 0.77 33.386 0.066 7.21 632.08 14.31
12/26/2020 12:30:00 PM 0.79 33.422 0.066 7.21 820.28 14.3
12/26/2020 12:45:00 PM 0.84 33.512 0.066 7.21 569.43 14.29
12/26/2020 1:00:00 PM 0.87 33.566 0.066 7.22 748.66 14.28
12/26/2020 1:15:00 PM 0.9 33.62 0.066 7.22 549.27 14.27
12/26/2020 1:30:00 PM 0.94 33.692 0.066 7.22 564.64 14.25
12/26/2020 1:45:00 PM 0.97 33.746 0.066 7.22 402.8 14.24
12/26/2020 2:00:00 PM 0.99 33.782 0.066 7.22 405.57 14.23
12/26/2020 2:15:00 PM 1 33.8 0.066 7.22 618.41 14.22
12/26/2020 2:30:00 PM 1.02 33.836 0.066 7.23 464.26 14.21
12/26/2020 2:45:00 PM 1.03 33.854 0.067 7.23 543.76 14.2
12/26/2020 3:00:00 PM 1.05 33.89 0.067 7.23 714.82 14.19
12/26/2020 3:15:00 PM 1.05 33.89 0.067 7.23 1562.49 14.18
12/26/2020 3:30:00 PM 1.06 33.908 0.067 7.23 600.98 14.17
12/26/2020 3:45:00 PM 1.06 33.908 0.067 7.23 537.66 14.17
12/26/2020 4:00:00 PM 1.06 33.908 0.067 7.23 606.06 14.16
12/26/2020 4:15:00 PM 1.04 33.872 0.067 7.23 1170.08 14.16
12/26/2020 4:30:00 PM 1.03 33.854 0.067 7.23 447.96 14.16
12/26/2020 4:45:00 PM 1.03 33.854 0.067 7.23 471.18 14.16
12/26/2020 5:00:00 PM 1.02 33.836 0.067 7.23 429.52 14.16
12/26/2020 5:15:00 PM 1.01 33.818 0.067 7.24 342.9 14.16
12/26/2020 5:30:00 PM 0.99 33.782 0.067 7.23 396.78 14.16
12/26/2020 5:45:00 PM 0.97 33.746 0.067 7.23 669.87 14.17
12/26/2020 6:00:00 PM 0.95 33.71 0.068 7.23 503.39 14.18
12/26/2020 6:15:00 PM 0.92 33.656 0.068 7.23 1549.95 14.18
12/26/2020 6:30:00 PM 0.89 33.602 0.068 7.23 725.66 14.2
12/26/2020 6:45:00 PM 0.86 33.548 0.068 7.23 698.52 14.21
12/26/2020 7:00:00 PM 0.82 33.476 0.068 7.22 888.01 14.22
12/26/2020 7:15:00 PM 0.8 33.44 0.068 7.23 1050.46 14.23
12/26/2020 7:30:00 PM 0.76 33.368 0.068 7.23 856.31 14.25
12/26/2020 7:45:00 PM 0.72 33.296 0.068 7.23 701.27 14.26
12/26/2020 8:00:00 PM 0.69 33.242 0.068 7.23 717.61 14.27
12/26/2020 8:15:00 PM 0.66 33.188 0.068 7.23 1271.02 14.29
12/26/2020 8:30:00 PM 0.64 33.152 0.068 7.23 643.18 14.3
12/26/2020 8:45:00 PM 0.63 33.134 0.069 7.23 694.06 14.32
12/26/2020 9:00:00 PM 0.62 33.116 0.069 7.23 528.93 14.32
12/26/2020 9:15:00 PM 0.61 33.098 0.069 7.23 891.14 14.32
12/26/2020 9:30:00 PM 0.6 33.08 0.069 7.23 623.33 14.33
12/26/2020 9:45:00 PM 0.59 33.062 0.069 7.23 648.74 14.34
12/26/2020 10:00:00 PM 0.58 33.044 0.069 7.23 731.56 14.35
12/26/2020 10:15:00 PM 0.58 33.044 0.069 7.23 678.98 14.36
12/26/2020 10:30:00 PM 0.57 33.026 0.069 7.23 668.18 14.36
12/26/2020 10:45:00 PM 0.56 33.008 0.069 7.23 599.58 14.37
12/26/2020 11:00:00 PM 0.55 32.99 0.069 7.23 906.46 14.38
12/26/2020 11:15:00 PM 0.55 32.99 0.069 7.24 733.67 14.38
12/26/2020 11:30:00 PM 0.54 32.972 0.069 7.23 500.76 14.39
12/26/2020 11:45:00 PM 0.54 32.972 0.069 7.23 623.69 14.39
12/27/2020 12:00:00 AM 0.54 32.972 0.07 7.23 547.23 14.4
12/27/2020 12:15:00 AM 0.54 32.972 0.07 7.24 973.66 14.4
12/27/2020 12:30:00 AM 0.54 32.972 0.07 7.24 1072.83 14.41
12/27/2020 12:45:00 AM 0.54 32.972 0.07 7.24 691.91 14.41
12/27/2020 1:00:00 AM 0.54 32.972 0.07 7.24 700.66 14.4
12/27/2020 1:15:00 AM 0.53 32.954 0.07 7.23 721.34 14.41
12/27/2020 1:30:00 AM 0.53 32.954 0.07 7.24 646.2 14.41
12/27/2020 1:45:00 AM 0.53 32.954 0.07 7.24 619.47 14.42
12/27/2020 2:00:00 AM 0.52 32.936 0.069 7.24 781.86 14.43
12/27/2020 2:15:00 AM 0.52 32.936 0.07 7.24 706.8 14.44
12/27/2020 2:30:00 AM 0.52 32.936 0.07 7.24 860.3 14.43
12/27/2020 2:45:00 AM 0.52 32.936 0.07 7.24 848.25 14.44
12/27/2020 3:00:00 AM 0.52 32.936 0.07 7.24 910.06 14.43
12/27/2020 3:15:00 AM 0.52 32.936 0.07 7.24 928.43 14.45
12/27/2020 3:30:00 AM 0.51 32.918 0.07 7.24 642.65 14.45
12/27/2020 3:45:00 AM 0.51 32.918 0.07 7.24 848.53 14.45
12/27/2020 4:00:00 AM 0.51 32.918 0.071 7.25 611.69 14.44
12/27/2020 4:15:00 AM 0.51 32.918 0.07 7.24 916.61 14.46
12/27/2020 4:30:00 AM 0.51 32.918 0.07 7.25 923.12 14.45
12/27/2020 4:45:00 AM 0.51 32.918 0.07 7.25 940.14 14.46
12/27/2020 5:00:00 AM 0.51 32.918 0.07 7.25 710.75 14.46
12/27/2020 5:15:00 AM 0.51 32.918 0.07 7.25 760.86 14.46
12/27/2020 5:30:00 AM 0.51 32.918 0.071 7.25 872.84 14.47
12/27/2020 5:45:00 AM 0.51 32.918 0.071 7.25 639.98 14.47
12/27/2020 6:00:00 AM 0.52 32.936 0.071 7.25 613.93 14.47
12/27/2020 6:15:00 AM 0.52 32.936 0.071 7.26 814.18 14.48
12/27/2020 6:30:00 AM 0.52 32.936 0.071 7.26 777.05 14.48
12/27/2020 6:45:00 AM 0.52 32.936 0.071 7.26 1201.11 14.48
12/27/2020 7:00:00 AM 0.52 32.936 0.071 7.26 646.74 14.48
12/27/2020 7:15:00 AM 0.53 32.954 0.071 7.26 690.28 14.48
12/27/2020 7:30:00 AM 0.53 32.954 0.071 7.26 604.09 14.48
12/27/2020 7:45:00 AM 0.53 32.954 0.071 7.26 789.48 14.48
12/27/2020 8:00:00 AM 0.54 32.972 0.071 7.26 883.1 14.49
12/27/2020 8:15:00 AM 0.55 32.99 0.071 7.26 761.75 14.5
12/27/2020 8:30:00 AM 0.55 32.99 0.072 7.26 725.57 14.48
12/27/2020 8:45:00 AM 0.56 33.008 0.072 7.26 781.25 14.49
12/27/2020 9:00:00 AM 0.58 33.044 0.072 7.26 644.94 14.49
12/27/2020 9:15:00 AM 0.6 33.08 0.072 7.26 837.09 14.49
12/27/2020 9:30:00 AM 0.62 33.116 0.072 7.26 731.88 14.49
12/27/2020 9:45:00 AM 0.65 33.17 0.072 7.27 719.27 14.49
12/27/2020 10:00:00 AM 0.67 33.206 0.072 7.27 789.96 14.48
12/27/2020 10:15:00 AM 0.71 33.278 0.072 7.27 684.09 14.48
12/27/2020 10:30:00 AM 0.75 33.35 0.072 7.27 695.65 14.48
12/27/2020 10:45:00 AM 0.79 33.422 0.072 7.27 668.84 14.47
12/27/2020 11:00:00 AM 0.84 33.512 0.072 7.27 858.99 14.46
12/27/2020 11:15:00 AM 0.89 33.602 0.072 7.28 868 14.46
12/27/2020 11:30:00 AM 0.97 33.746 0.072 7.28 605.27 14.44
12/27/2020 11:45:00 AM 1.05 33.89 0.072 7.28 808.26 14.42
12/27/2020 12:00:00 PM 1.09 33.962 0.072 7.28 683.79 14.4
12/27/2020 12:15:00 PM 1.15 34.07 0.072 7.29 678.14 14.38
12/27/2020 12:30:00 PM 1.22 34.196 0.073 7.29 601.46 14.36
12/27/2020 12:45:00 PM 1.27 34.286 0.073 7.29 625.9 14.34
12/27/2020 1:00:00 PM 1.31 34.358 0.073 7.29 780.97 14.32
12/27/2020 1:15:00 PM 1.35 34.43 0.073 7.29 639.5 14.29
12/27/2020 1:30:00 PM 1.4 34.52 0.073 7.3 645.58 14.28
12/27/2020 1:45:00 PM 1.43 34.574 0.073 7.3 635.48 14.26
12/27/2020 2:00:00 PM 1.47 34.646 0.073 7.3 924.29 14.25
12/27/2020 2:15:00 PM 1.5 34.7 0.073 7.3 806.52 14.22
12/27/2020 2:30:00 PM 1.51 34.718 0.073 7.3 737.75 14.2
12/27/2020 2:45:00 PM 1.52 34.736 0.073 7.3 745.06 14.19
12/27/2020 3:00:00 PM 1.54 34.772 0.073 7.31 621.11 14.18
12/27/2020 3:15:00 PM 1.54 34.772 0.073 7.31 696.45 14.16
12/27/2020 3:30:00 PM 1.53 34.754 0.073 7.31 699.75 14.16
12/27/2020 3:45:00 PM 1.53 34.754 0.073 7.31 615.9 14.16
12/27/2020 4:00:00 PM 1.53 34.754 0.073 7.31 691.38 14.14
12/27/2020 4:15:00 PM 1.53 34.754 0.073 7.31 809.88 14.15
12/27/2020 4:30:00 PM 1.53 34.754 0.073 7.31 609.57 14.14
12/27/2020 4:45:00 PM 1.51 34.718 0.074 7.31 1486.77 14.13
12/27/2020 5:00:00 PM 1.49 34.682 0.074 7.31 621.65 14.13
12/27/2020 5:15:00 PM 1.47 34.646 0.074 7.31 587.78 14.12
12/27/2020 5:30:00 PM 1.45 34.61 0.074 7.31 859.63 14.12
12/27/2020 5:45:00 PM 1.43 34.574 0.074 7.31 809.36 14.12
12/27/2020 6:00:00 PM 1.41 34.538 0.074 7.31 810.18 14.13
12/27/2020 6:15:00 PM 1.39 34.502 0.074 7.31 780.49 14.13
12/27/2020 6:30:00 PM 1.38 34.484 0.074 7.31 629.34 14.13
12/27/2020 6:45:00 PM 1.36 34.448 0.074 7.31 729.18 14.13
12/27/2020 7:00:00 PM 1.34 34.412 0.074 7.34 397.05 14.13
12/27/2020 7:15:00 PM 1.33 34.394 0.074 7.35 602.34 14.14
12/27/2020 7:30:00 PM 1.32 34.376 0.074 7.37 635.51 14.14
12/27/2020 7:45:00 PM 1.31 34.358 0.074 7.39 1165.48 14.14
12/27/2020 8:00:00 PM 1.3 34.34 0.074 7.39 895.87 14.14
12/27/2020 8:15:00 PM 1.29 34.322 0.074 7.4 653.54 14.15
12/27/2020 8:30:00 PM 1.27 34.286 0.074 7.38 685.33 14.16
12/27/2020 8:45:00 PM 1.25 34.25 0.075 7.35 434.42 14.16
12/27/2020 9:00:00 PM 1.22 34.196 0.075 7.37 452.87 14.18
12/27/2020 9:15:00 PM 1.2 34.16 0.075 7.38 506.1 14.18
12/27/2020 9:30:00 PM 1.18 34.124 0.075 7.39 672.14 14.19
12/27/2020 9:45:00 PM 1.17 34.106 0.075 7.4 562.91 14.2
12/27/2020 10:00:00 PM 1.15 34.07 0.075 7.41 571.84 14.21
12/27/2020 10:15:00 PM 1.14 34.052 0.075 7.41 609.4 14.22
12/27/2020 10:30:00 PM 1.12 34.016 0.075 7.42 533.76 14.22
12/27/2020 10:45:00 PM 1.11 33.998 0.075 7.42 573.32 14.23
12/27/2020 11:00:00 PM 1.09 33.962 0.075 7.43 546.24 14.23
12/27/2020 11:15:00 PM 1.08 33.944 0.075 7.44 665.58 14.24
12/27/2020 11:30:00 PM 1.07 33.926 0.075 7.44 601.25 14.25
12/27/2020 11:45:00 PM 1.06 33.908 0.075 7.45 691.13 14.25
12/28/2020 12:00:00 AM 1.05 33.89 0.07 7.45 534.29 14.25
12/28/2020 12:15:00 AM 1.04 33.872 0.075 7.45 742.41 14.26
12/28/2020 12:30:00 AM 1.03 33.854 0.075 7.45 621.01 14.26
12/28/2020 12:45:00 AM 1.02 33.836 0.075 7.45 751.54 14.26
12/28/2020 1:00:00 AM 1.01 33.818 0.075 7.45 681.38 14.26
12/28/2020 1:15:00 AM 1 33.8 0.076 7.45 727.74 14.26
12/28/2020 1:30:00 AM 1 33.8 0.076 7.45 735.92 14.26
12/28/2020 1:45:00 AM 0.99 33.782 0.076 7.44 636.35 14.26
12/28/2020 2:00:00 AM 0.98 33.764 0.076 7.45 701.02 14.26
12/28/2020 2:15:00 AM 0.98 33.764 0.076 7.44 653.38 14.26
12/28/2020 2:30:00 AM 0.97 33.746 0.076 7.44 543.77 14.26
12/28/2020 2:45:00 AM 0.96 33.728 0.076 7.45 521.65 14.26
12/28/2020 3:00:00 AM 0.95 33.71 0.076 7.44 568.01 14.26
12/28/2020 3:15:00 AM 0.95 33.71 0.076 7.43 689.2 14.26
12/28/2020 3:30:00 AM 0.96 33.728 0.076 7.44 607.83 14.26
12/28/2020 3:45:00 AM 0.96 33.728 0.076 7.44 569.69 14.26
12/28/2020 4:00:00 AM 0.97 33.746 0.076 7.43 545.79 14.25
12/28/2020 4:15:00 AM 0.98 33.764 0.076 7.43 562.64 14.25
12/28/2020 4:30:00 AM 0.99 33.782 0.076 7.43 592.42 14.24
12/28/2020 4:45:00 AM 1 33.8 0.076 7.43 586.35 14.24
12/28/2020 5:00:00 AM 1.01 33.818 0.076 7.43 582.35 14.23
12/28/2020 5:15:00 AM 1.03 33.854 0.076 7.43 552.03 14.23
12/28/2020 5:30:00 AM 1.04 33.872 0.076 7.43 601.47 14.23
12/28/2020 5:45:00 AM 1.05 33.89 0.076 7.43 488.96 14.23
12/28/2020 6:00:00 AM 1.03 33.854 0.076 7.43 677.5 14.22
12/28/2020 6:15:00 AM 1.02 33.836 0.076 7.43 490.9 14.22
12/28/2020 6:30:00 AM 1.03 33.854 0.077 7.42 535.41 14.21
12/28/2020 6:45:00 AM 1.05 33.89 0.077 7.42 550.45 14.21
12/28/2020 7:00:00 AM 1.07 33.926 0.077 7.42 538.74 14.21
12/28/2020 7:15:00 AM 1.09 33.962 0.077 7.42 538.78 14.21
12/28/2020 7:30:00 AM 1.11 33.998 0.077 7.42 659.44 14.2
12/28/2020 7:45:00 AM 1.13 34.034 0.077 7.42 501.67 14.19
12/28/2020 8:00:00 AM 1.15 34.07 0.077 7.42 534.77 14.19
12/28/2020 8:15:00 AM 1.17 34.106 0.077 7.42 455.18 14.19
12/28/2020 8:30:00 AM 1.19 34.142